<?xml version="1.0" encoding="UTF-8" standalone="no" ?>
<gpx xmlns="http://www.topografix.com/GPX/1/1" xmlns:xsi="http://www.w3.org/2001/XMLSchema-instance" xsi:schemaLocation="http://www.topografix.com/GPX/1/1 http://www.topografix.com/GPX/1/1/gpx.xsd" version="1.1" creator="VisuGPX - https://www.visugpx.com">
  <metadata>
    <name>Voiron_GrandRatz</name>
  </metadata>
  <trk>
    <name><![CDATA[Voiron_GrandRatz_1]]></name>
    <trkseg>
      <trkpt lat="45.36357" lon="5.60296">
        <ele>306.7</ele>
        <time>2021-04-23T12:03:02.000Z</time>
      </trkpt>
      <trkpt lat="45.36326" lon="5.60358">
        <ele>304.7</ele>
        <time>2021-04-23T12:03:12.000Z</time>
      </trkpt>
      <trkpt lat="45.36263" lon="5.60358">
        <ele>298.5</ele>
        <time>2021-04-23T12:03:22.000Z</time>
      </trkpt>
      <trkpt lat="45.36191" lon="5.60284">
        <ele>292.1</ele>
        <time>2021-04-23T12:03:32.000Z</time>
      </trkpt>
      <trkpt lat="45.36155" lon="5.60303">
        <ele>291.7</ele>
        <time>2021-04-23T12:03:42.000Z</time>
      </trkpt>
      <trkpt lat="45.3611" lon="5.60294">
        <ele>292.9</ele>
        <time>2021-04-23T12:03:52.000Z</time>
      </trkpt>
      <trkpt lat="45.36078" lon="5.60312">
        <ele>295.6</ele>
        <time>2021-04-23T12:04:02.000Z</time>
      </trkpt>
      <trkpt lat="45.36054" lon="5.60324">
        <ele>299.2</ele>
        <time>2021-04-23T12:04:12.000Z</time>
      </trkpt>
      <trkpt lat="45.36018" lon="5.60268">
        <ele>298.1</ele>
        <time>2021-04-23T12:04:22.000Z</time>
      </trkpt>
      <trkpt lat="45.35992" lon="5.60288">
        <ele>299.1</ele>
        <time>2021-04-23T12:04:32.000Z</time>
      </trkpt>
      <trkpt lat="45.35973" lon="5.6032">
        <ele>300.9</ele>
        <time>2021-04-23T12:04:42.000Z</time>
      </trkpt>
      <trkpt lat="45.35952" lon="5.60346">
        <ele>301</ele>
        <time>2021-04-23T12:04:52.000Z</time>
      </trkpt>
      <trkpt lat="45.35926" lon="5.60383">
        <ele>301.9</ele>
        <time>2021-04-23T12:05:02.000Z</time>
      </trkpt>
      <trkpt lat="45.35896" lon="5.60409">
        <ele>302.3</ele>
        <time>2021-04-23T12:05:12.000Z</time>
      </trkpt>
      <trkpt lat="45.35869" lon="5.60369">
        <ele>303.7</ele>
        <time>2021-04-23T12:05:22.000Z</time>
      </trkpt>
      <trkpt lat="45.3584" lon="5.60323">
        <ele>302.7</ele>
        <time>2021-04-23T12:05:32.000Z</time>
      </trkpt>
      <trkpt lat="45.35809" lon="5.60272">
        <ele>302.5</ele>
        <time>2021-04-23T12:05:42.000Z</time>
      </trkpt>
      <trkpt lat="45.35774" lon="5.60222">
        <ele>301.6</ele>
        <time>2021-04-23T12:05:52.000Z</time>
      </trkpt>
      <trkpt lat="45.35763" lon="5.6021">
        <ele>301.3</ele>
        <time>2021-04-23T12:06:02.000Z</time>
      </trkpt>
      <trkpt lat="45.35762" lon="5.60209">
        <ele>301.4</ele>
        <time>2021-04-23T12:06:13.000Z</time>
      </trkpt>
      <trkpt lat="45.35735" lon="5.60187">
        <ele>303.9</ele>
        <time>2021-04-23T12:06:23.000Z</time>
      </trkpt>
      <trkpt lat="45.35707" lon="5.60159">
        <ele>304.2</ele>
        <time>2021-04-23T12:06:33.000Z</time>
      </trkpt>
      <trkpt lat="45.35671" lon="5.60121">
        <ele>303.7</ele>
        <time>2021-04-23T12:06:43.000Z</time>
      </trkpt>
      <trkpt lat="45.35636" lon="5.60074">
        <ele>305.5</ele>
        <time>2021-04-23T12:06:53.000Z</time>
      </trkpt>
      <trkpt lat="45.35595" lon="5.60041">
        <ele>304.6</ele>
        <time>2021-04-23T12:07:03.000Z</time>
      </trkpt>
      <trkpt lat="45.35545" lon="5.60014">
        <ele>303.8</ele>
        <time>2021-04-23T12:07:13.000Z</time>
      </trkpt>
      <trkpt lat="45.35511" lon="5.60001">
        <ele>303.9</ele>
        <time>2021-04-23T12:07:23.000Z</time>
      </trkpt>
      <trkpt lat="45.3547" lon="5.59998">
        <ele>304.8</ele>
        <time>2021-04-23T12:07:33.000Z</time>
      </trkpt>
      <trkpt lat="45.35411" lon="5.59991">
        <ele>304.2</ele>
        <time>2021-04-23T12:07:43.000Z</time>
      </trkpt>
      <trkpt lat="45.3537" lon="5.59986">
        <ele>303.9</ele>
        <time>2021-04-23T12:07:53.000Z</time>
      </trkpt>
      <trkpt lat="45.35344" lon="5.60038">
        <ele>302.5</ele>
        <time>2021-04-23T12:08:03.000Z</time>
      </trkpt>
      <trkpt lat="45.35328" lon="5.60036">
        <ele>303.4</ele>
        <time>2021-04-23T12:08:13.000Z</time>
      </trkpt>
      <trkpt lat="45.35329" lon="5.60036">
        <ele>303.4</ele>
        <time>2021-04-23T12:08:23.000Z</time>
      </trkpt>
      <trkpt lat="45.35328" lon="5.60036">
        <ele>303.4</ele>
        <time>2021-04-23T12:08:34.000Z</time>
      </trkpt>
      <trkpt lat="45.35327" lon="5.60034">
        <ele>303.6</ele>
        <time>2021-04-23T12:08:44.000Z</time>
      </trkpt>
      <trkpt lat="45.35326" lon="5.60035">
        <ele>304.6</ele>
        <time>2021-04-23T12:10:37.000Z</time>
      </trkpt>
      <trkpt lat="45.35326" lon="5.60037">
        <ele>305.5</ele>
        <time>2021-04-23T12:11:26.000Z</time>
      </trkpt>
      <trkpt lat="45.35327" lon="5.60036">
        <ele>305.4</ele>
        <time>2021-04-23T12:11:48.000Z</time>
      </trkpt>
      <trkpt lat="45.35328" lon="5.60037">
        <ele>305.4</ele>
        <time>2021-04-23T12:12:55.000Z</time>
      </trkpt>
      <trkpt lat="45.35342" lon="5.6004">
        <ele>304.9</ele>
        <time>2021-04-23T12:13:05.000Z</time>
      </trkpt>
      <trkpt lat="45.35346" lon="5.6004">
        <ele>303.9</ele>
        <time>2021-04-23T12:13:15.000Z</time>
      </trkpt>
      <trkpt lat="45.35347" lon="5.60041">
        <ele>303.7</ele>
        <time>2021-04-23T12:13:45.000Z</time>
      </trkpt>
      <trkpt lat="45.35363" lon="5.60004">
        <ele>303.2</ele>
        <time>2021-04-23T12:13:55.000Z</time>
      </trkpt>
      <trkpt lat="45.35383" lon="5.59977">
        <ele>305.3</ele>
        <time>2021-04-23T12:14:05.000Z</time>
      </trkpt>
      <trkpt lat="45.35419" lon="5.59995">
        <ele>305.3</ele>
        <time>2021-04-23T12:14:15.000Z</time>
      </trkpt>
      <trkpt lat="45.35464" lon="5.60001">
        <ele>305.6</ele>
        <time>2021-04-23T12:14:25.000Z</time>
      </trkpt>
      <trkpt lat="45.35483" lon="5.6002">
        <ele>305.5</ele>
        <time>2021-04-23T12:14:35.000Z</time>
      </trkpt>
      <trkpt lat="45.35454" lon="5.6006">
        <ele>305.1</ele>
        <time>2021-04-23T12:14:45.000Z</time>
      </trkpt>
      <trkpt lat="45.35424" lon="5.601">
        <ele>305.7</ele>
        <time>2021-04-23T12:14:55.000Z</time>
      </trkpt>
      <trkpt lat="45.35394" lon="5.60144">
        <ele>304.8</ele>
        <time>2021-04-23T12:15:05.000Z</time>
      </trkpt>
      <trkpt lat="45.35366" lon="5.60185">
        <ele>306.7</ele>
        <time>2021-04-23T12:15:15.000Z</time>
      </trkpt>
      <trkpt lat="45.35335" lon="5.6023">
        <ele>306.3</ele>
        <time>2021-04-23T12:15:25.000Z</time>
      </trkpt>
      <trkpt lat="45.35302" lon="5.60274">
        <ele>306.2</ele>
        <time>2021-04-23T12:15:35.000Z</time>
      </trkpt>
      <trkpt lat="45.35271" lon="5.60317">
        <ele>306.2</ele>
        <time>2021-04-23T12:15:45.000Z</time>
      </trkpt>
      <trkpt lat="45.3524" lon="5.60361">
        <ele>305.6</ele>
        <time>2021-04-23T12:15:55.000Z</time>
      </trkpt>
      <trkpt lat="45.35208" lon="5.60406">
        <ele>306.5</ele>
        <time>2021-04-23T12:16:05.000Z</time>
      </trkpt>
      <trkpt lat="45.35177" lon="5.60449">
        <ele>306.7</ele>
        <time>2021-04-23T12:16:15.000Z</time>
      </trkpt>
      <trkpt lat="45.35155" lon="5.60477">
        <ele>308.2</ele>
        <time>2021-04-23T12:16:25.000Z</time>
      </trkpt>
      <trkpt lat="45.3516" lon="5.60501">
        <ele>308.9</ele>
        <time>2021-04-23T12:16:35.000Z</time>
      </trkpt>
      <trkpt lat="45.35189" lon="5.60528">
        <ele>309.7</ele>
        <time>2021-04-23T12:16:45.000Z</time>
      </trkpt>
      <trkpt lat="45.35215" lon="5.6055">
        <ele>311.5</ele>
        <time>2021-04-23T12:16:55.000Z</time>
      </trkpt>
      <trkpt lat="45.35242" lon="5.60589">
        <ele>311.6</ele>
        <time>2021-04-23T12:17:05.000Z</time>
      </trkpt>
      <trkpt lat="45.35271" lon="5.60628">
        <ele>310.5</ele>
        <time>2021-04-23T12:17:15.000Z</time>
      </trkpt>
      <trkpt lat="45.35294" lon="5.60664">
        <ele>310</ele>
        <time>2021-04-23T12:17:25.000Z</time>
      </trkpt>
      <trkpt lat="45.35314" lon="5.60694">
        <ele>309.5</ele>
        <time>2021-04-23T12:17:35.000Z</time>
      </trkpt>
      <trkpt lat="45.35354" lon="5.60718">
        <ele>309.8</ele>
        <time>2021-04-23T12:17:45.000Z</time>
      </trkpt>
      <trkpt lat="45.35389" lon="5.6075">
        <ele>310.2</ele>
        <time>2021-04-23T12:17:55.000Z</time>
      </trkpt>
      <trkpt lat="45.35428" lon="5.60787">
        <ele>309.7</ele>
        <time>2021-04-23T12:18:05.000Z</time>
      </trkpt>
      <trkpt lat="45.35469" lon="5.60823">
        <ele>310</ele>
        <time>2021-04-23T12:18:15.000Z</time>
      </trkpt>
      <trkpt lat="45.35499" lon="5.60871">
        <ele>309.2</ele>
        <time>2021-04-23T12:18:25.000Z</time>
      </trkpt>
      <trkpt lat="45.35533" lon="5.60915">
        <ele>309.8</ele>
        <time>2021-04-23T12:18:35.000Z</time>
      </trkpt>
      <trkpt lat="45.35566" lon="5.60964">
        <ele>310.1</ele>
        <time>2021-04-23T12:18:45.000Z</time>
      </trkpt>
      <trkpt lat="45.35593" lon="5.6102">
        <ele>310.2</ele>
        <time>2021-04-23T12:18:55.000Z</time>
      </trkpt>
      <trkpt lat="45.35603" lon="5.61085">
        <ele>310.6</ele>
        <time>2021-04-23T12:19:05.000Z</time>
      </trkpt>
      <trkpt lat="45.35594" lon="5.61141">
        <ele>310.7</ele>
        <time>2021-04-23T12:19:15.000Z</time>
      </trkpt>
      <trkpt lat="45.35568" lon="5.61183">
        <ele>312.1</ele>
        <time>2021-04-23T12:19:25.000Z</time>
      </trkpt>
      <trkpt lat="45.35548" lon="5.61226">
        <ele>313</ele>
        <time>2021-04-23T12:19:35.000Z</time>
      </trkpt>
      <trkpt lat="45.35524" lon="5.61263">
        <ele>314.1</ele>
        <time>2021-04-23T12:19:45.000Z</time>
      </trkpt>
      <trkpt lat="45.35501" lon="5.6131">
        <ele>316.2</ele>
        <time>2021-04-23T12:19:55.000Z</time>
      </trkpt>
      <trkpt lat="45.35491" lon="5.61355">
        <ele>318.6</ele>
        <time>2021-04-23T12:20:05.000Z</time>
      </trkpt>
      <trkpt lat="45.355" lon="5.61403">
        <ele>319.2</ele>
        <time>2021-04-23T12:20:15.000Z</time>
      </trkpt>
      <trkpt lat="45.35506" lon="5.61451">
        <ele>320.6</ele>
        <time>2021-04-23T12:20:25.000Z</time>
      </trkpt>
      <trkpt lat="45.35519" lon="5.61487">
        <ele>323.4</ele>
        <time>2021-04-23T12:20:35.000Z</time>
      </trkpt>
      <trkpt lat="45.35557" lon="5.61501">
        <ele>323.2</ele>
        <time>2021-04-23T12:20:45.000Z</time>
      </trkpt>
      <trkpt lat="45.35599" lon="5.61521">
        <ele>323</ele>
        <time>2021-04-23T12:20:55.000Z</time>
      </trkpt>
      <trkpt lat="45.35629" lon="5.61555">
        <ele>325</ele>
        <time>2021-04-23T12:21:05.000Z</time>
      </trkpt>
      <trkpt lat="45.35655" lon="5.61577">
        <ele>328</ele>
        <time>2021-04-23T12:21:15.000Z</time>
      </trkpt>
      <trkpt lat="45.35686" lon="5.61591">
        <ele>327.9</ele>
        <time>2021-04-23T12:21:25.000Z</time>
      </trkpt>
      <trkpt lat="45.3571" lon="5.6161">
        <ele>329.7</ele>
        <time>2021-04-23T12:21:35.000Z</time>
      </trkpt>
      <trkpt lat="45.35755" lon="5.61654">
        <ele>324.2</ele>
        <time>2021-04-23T12:21:45.000Z</time>
      </trkpt>
      <trkpt lat="45.35754" lon="5.61718">
        <ele>326.6</ele>
        <time>2021-04-23T12:21:55.000Z</time>
      </trkpt>
      <trkpt lat="45.35748" lon="5.61764">
        <ele>328.5</ele>
        <time>2021-04-23T12:22:05.000Z</time>
      </trkpt>
      <trkpt lat="45.35743" lon="5.61801">
        <ele>333.9</ele>
        <time>2021-04-23T12:22:15.000Z</time>
      </trkpt>
      <trkpt lat="45.35726" lon="5.61826">
        <ele>336.7</ele>
        <time>2021-04-23T12:22:25.000Z</time>
      </trkpt>
      <trkpt lat="45.35702" lon="5.61843">
        <ele>337.7</ele>
        <time>2021-04-23T12:22:35.000Z</time>
      </trkpt>
      <trkpt lat="45.35712" lon="5.61884">
        <ele>336.6</ele>
        <time>2021-04-23T12:22:45.000Z</time>
      </trkpt>
      <trkpt lat="45.35736" lon="5.61936">
        <ele>335.8</ele>
        <time>2021-04-23T12:22:55.000Z</time>
      </trkpt>
      <trkpt lat="45.35776" lon="5.61964">
        <ele>337.7</ele>
        <time>2021-04-23T12:23:05.000Z</time>
      </trkpt>
      <trkpt lat="45.35819" lon="5.61956">
        <ele>338.4</ele>
        <time>2021-04-23T12:23:15.000Z</time>
      </trkpt>
      <trkpt lat="45.35852" lon="5.61943">
        <ele>338.9</ele>
        <time>2021-04-23T12:23:25.000Z</time>
      </trkpt>
      <trkpt lat="45.35886" lon="5.61932">
        <ele>340.4</ele>
        <time>2021-04-23T12:23:35.000Z</time>
      </trkpt>
      <trkpt lat="45.35923" lon="5.61924">
        <ele>341</ele>
        <time>2021-04-23T12:23:45.000Z</time>
      </trkpt>
      <trkpt lat="45.35958" lon="5.61917">
        <ele>341.4</ele>
        <time>2021-04-23T12:23:55.000Z</time>
      </trkpt>
      <trkpt lat="45.35995" lon="5.61908">
        <ele>343.1</ele>
        <time>2021-04-23T12:24:05.000Z</time>
      </trkpt>
      <trkpt lat="45.36031" lon="5.61898">
        <ele>345</ele>
        <time>2021-04-23T12:24:15.000Z</time>
      </trkpt>
      <trkpt lat="45.36068" lon="5.6189">
        <ele>345.5</ele>
        <time>2021-04-23T12:24:25.000Z</time>
      </trkpt>
      <trkpt lat="45.36103" lon="5.61874">
        <ele>347.9</ele>
        <time>2021-04-23T12:24:35.000Z</time>
      </trkpt>
      <trkpt lat="45.36134" lon="5.61851">
        <ele>349.3</ele>
        <time>2021-04-23T12:24:45.000Z</time>
      </trkpt>
      <trkpt lat="45.36162" lon="5.6183">
        <ele>350.1</ele>
        <time>2021-04-23T12:24:55.000Z</time>
      </trkpt>
      <trkpt lat="45.36186" lon="5.6183">
        <ele>354</ele>
        <time>2021-04-23T12:25:05.000Z</time>
      </trkpt>
      <trkpt lat="45.36212" lon="5.61839">
        <ele>354.7</ele>
        <time>2021-04-23T12:25:15.000Z</time>
      </trkpt>
      <trkpt lat="45.36237" lon="5.61849">
        <ele>359.9</ele>
        <time>2021-04-23T12:25:25.000Z</time>
      </trkpt>
      <trkpt lat="45.36259" lon="5.6186">
        <ele>364.1</ele>
        <time>2021-04-23T12:25:35.000Z</time>
      </trkpt>
      <trkpt lat="45.36279" lon="5.61877">
        <ele>365</ele>
        <time>2021-04-23T12:25:45.000Z</time>
      </trkpt>
      <trkpt lat="45.36298" lon="5.61901">
        <ele>367</ele>
        <time>2021-04-23T12:25:55.000Z</time>
      </trkpt>
      <trkpt lat="45.36323" lon="5.61911">
        <ele>369.1</ele>
        <time>2021-04-23T12:26:05.000Z</time>
      </trkpt>
      <trkpt lat="45.36343" lon="5.61929">
        <ele>371.6</ele>
        <time>2021-04-23T12:26:15.000Z</time>
      </trkpt>
      <trkpt lat="45.36352" lon="5.61963">
        <ele>373.7</ele>
        <time>2021-04-23T12:26:25.000Z</time>
      </trkpt>
      <trkpt lat="45.36354" lon="5.61998">
        <ele>374.8</ele>
        <time>2021-04-23T12:26:35.000Z</time>
      </trkpt>
      <trkpt lat="45.36354" lon="5.62036">
        <ele>379.1</ele>
        <time>2021-04-23T12:26:45.000Z</time>
      </trkpt>
      <trkpt lat="45.36358" lon="5.62073">
        <ele>380.1</ele>
        <time>2021-04-23T12:26:55.000Z</time>
      </trkpt>
      <trkpt lat="45.36378" lon="5.62094">
        <ele>383.1</ele>
        <time>2021-04-23T12:27:05.000Z</time>
      </trkpt>
      <trkpt lat="45.36402" lon="5.62097">
        <ele>388.4</ele>
        <time>2021-04-23T12:27:15.000Z</time>
      </trkpt>
      <trkpt lat="45.36426" lon="5.62095">
        <ele>395.2</ele>
        <time>2021-04-23T12:27:25.000Z</time>
      </trkpt>
      <trkpt lat="45.36449" lon="5.62094">
        <ele>397.8</ele>
        <time>2021-04-23T12:27:35.000Z</time>
      </trkpt>
      <trkpt lat="45.36472" lon="5.62092">
        <ele>399.9</ele>
        <time>2021-04-23T12:27:45.000Z</time>
      </trkpt>
      <trkpt lat="45.36495" lon="5.62075">
        <ele>400.1</ele>
        <time>2021-04-23T12:27:55.000Z</time>
      </trkpt>
      <trkpt lat="45.36515" lon="5.62044">
        <ele>400</ele>
        <time>2021-04-23T12:28:05.000Z</time>
      </trkpt>
      <trkpt lat="45.3653" lon="5.62018">
        <ele>399.7</ele>
        <time>2021-04-23T12:28:15.000Z</time>
      </trkpt>
      <trkpt lat="45.36544" lon="5.62006">
        <ele>400.3</ele>
        <time>2021-04-23T12:28:25.000Z</time>
      </trkpt>
      <trkpt lat="45.36523" lon="5.62056">
        <ele>401.8</ele>
        <time>2021-04-23T12:28:35.000Z</time>
      </trkpt>
      <trkpt lat="45.36519" lon="5.62098">
        <ele>403.8</ele>
        <time>2021-04-23T12:28:45.000Z</time>
      </trkpt>
      <trkpt lat="45.36505" lon="5.6213">
        <ele>405.2</ele>
        <time>2021-04-23T12:28:55.000Z</time>
      </trkpt>
      <trkpt lat="45.36527" lon="5.62154">
        <ele>408.6</ele>
        <time>2021-04-23T12:29:05.000Z</time>
      </trkpt>
      <trkpt lat="45.36511" lon="5.6218">
        <ele>412.4</ele>
        <time>2021-04-23T12:29:15.000Z</time>
      </trkpt>
      <trkpt lat="45.36485" lon="5.62191">
        <ele>414.6</ele>
        <time>2021-04-23T12:29:25.000Z</time>
      </trkpt>
      <trkpt lat="45.36459" lon="5.62212">
        <ele>414.1</ele>
        <time>2021-04-23T12:29:35.000Z</time>
      </trkpt>
      <trkpt lat="45.36423" lon="5.62226">
        <ele>413.2</ele>
        <time>2021-04-23T12:29:45.000Z</time>
      </trkpt>
      <trkpt lat="45.36391" lon="5.62233">
        <ele>415.9</ele>
        <time>2021-04-23T12:29:55.000Z</time>
      </trkpt>
      <trkpt lat="45.36362" lon="5.62253">
        <ele>417.2</ele>
        <time>2021-04-23T12:30:05.000Z</time>
      </trkpt>
      <trkpt lat="45.36345" lon="5.623">
        <ele>415.6</ele>
        <time>2021-04-23T12:30:15.000Z</time>
      </trkpt>
      <trkpt lat="45.36319" lon="5.62349">
        <ele>414.4</ele>
        <time>2021-04-23T12:30:25.000Z</time>
      </trkpt>
      <trkpt lat="45.36293" lon="5.62382">
        <ele>413.7</ele>
        <time>2021-04-23T12:30:35.000Z</time>
      </trkpt>
      <trkpt lat="45.36261" lon="5.62405">
        <ele>416.1</ele>
        <time>2021-04-23T12:30:45.000Z</time>
      </trkpt>
      <trkpt lat="45.36236" lon="5.6243">
        <ele>417.6</ele>
        <time>2021-04-23T12:30:55.000Z</time>
      </trkpt>
      <trkpt lat="45.36202" lon="5.62472">
        <ele>420.8</ele>
        <time>2021-04-23T12:31:05.000Z</time>
      </trkpt>
      <trkpt lat="45.36187" lon="5.62518">
        <ele>417.3</ele>
        <time>2021-04-23T12:31:15.000Z</time>
      </trkpt>
      <trkpt lat="45.36185" lon="5.62588">
        <ele>415.4</ele>
        <time>2021-04-23T12:31:25.000Z</time>
      </trkpt>
      <trkpt lat="45.36166" lon="5.62649">
        <ele>416</ele>
        <time>2021-04-23T12:31:35.000Z</time>
      </trkpt>
      <trkpt lat="45.36142" lon="5.62682">
        <ele>419.4</ele>
        <time>2021-04-23T12:31:45.000Z</time>
      </trkpt>
      <trkpt lat="45.36115" lon="5.62722">
        <ele>417.2</ele>
        <time>2021-04-23T12:31:55.000Z</time>
      </trkpt>
      <trkpt lat="45.36085" lon="5.62754">
        <ele>418.5</ele>
        <time>2021-04-23T12:32:05.000Z</time>
      </trkpt>
      <trkpt lat="45.36079" lon="5.62758">
        <ele>421.2</ele>
        <time>2021-04-23T12:32:15.000Z</time>
      </trkpt>
      <trkpt lat="45.36077" lon="5.62757">
        <ele>422</ele>
        <time>2021-04-23T12:32:39.000Z</time>
      </trkpt>
      <trkpt lat="45.36058" lon="5.62752">
        <ele>422.9</ele>
        <time>2021-04-23T12:32:49.000Z</time>
      </trkpt>
      <trkpt lat="45.36032" lon="5.62742">
        <ele>423.1</ele>
        <time>2021-04-23T12:32:59.000Z</time>
      </trkpt>
      <trkpt lat="45.36028" lon="5.62743">
        <ele>424.7</ele>
        <time>2021-04-23T12:33:09.000Z</time>
      </trkpt>
      <trkpt lat="45.36025" lon="5.62741">
        <ele>424.3</ele>
        <time>2021-04-23T12:33:19.000Z</time>
      </trkpt>
      <trkpt lat="45.36002" lon="5.62754">
        <ele>426.8</ele>
        <time>2021-04-23T12:33:29.000Z</time>
      </trkpt>
      <trkpt lat="45.35992" lon="5.62814">
        <ele>427.7</ele>
        <time>2021-04-23T12:33:39.000Z</time>
      </trkpt>
      <trkpt lat="45.35981" lon="5.62874">
        <ele>428.3</ele>
        <time>2021-04-23T12:33:49.000Z</time>
      </trkpt>
      <trkpt lat="45.35972" lon="5.62926">
        <ele>431.1</ele>
        <time>2021-04-23T12:33:59.000Z</time>
      </trkpt>
      <trkpt lat="45.35949" lon="5.62947">
        <ele>432.9</ele>
        <time>2021-04-23T12:34:09.000Z</time>
      </trkpt>
      <trkpt lat="45.3591" lon="5.62928">
        <ele>434.1</ele>
        <time>2021-04-23T12:34:19.000Z</time>
      </trkpt>
      <trkpt lat="45.35865" lon="5.62922">
        <ele>432.2</ele>
        <time>2021-04-23T12:34:29.000Z</time>
      </trkpt>
      <trkpt lat="45.35827" lon="5.62923">
        <ele>434.1</ele>
        <time>2021-04-23T12:34:39.000Z</time>
      </trkpt>
      <trkpt lat="45.35798" lon="5.62936">
        <ele>435.4</ele>
        <time>2021-04-23T12:34:49.000Z</time>
      </trkpt>
      <trkpt lat="45.35762" lon="5.62946">
        <ele>438</ele>
        <time>2021-04-23T12:34:59.000Z</time>
      </trkpt>
      <trkpt lat="45.35723" lon="5.62952">
        <ele>438.3</ele>
        <time>2021-04-23T12:35:09.000Z</time>
      </trkpt>
      <trkpt lat="45.35696" lon="5.62967">
        <ele>442.9</ele>
        <time>2021-04-23T12:35:19.000Z</time>
      </trkpt>
      <trkpt lat="45.35675" lon="5.62985">
        <ele>447.2</ele>
        <time>2021-04-23T12:35:29.000Z</time>
      </trkpt>
      <trkpt lat="45.35659" lon="5.63015">
        <ele>450.5</ele>
        <time>2021-04-23T12:35:39.000Z</time>
      </trkpt>
      <trkpt lat="45.35646" lon="5.6304">
        <ele>454</ele>
        <time>2021-04-23T12:35:49.000Z</time>
      </trkpt>
      <trkpt lat="45.35637" lon="5.63039">
        <ele>452.9</ele>
        <time>2021-04-23T12:35:59.000Z</time>
      </trkpt>
      <trkpt lat="45.35636" lon="5.6304">
        <ele>452.2</ele>
        <time>2021-04-23T12:36:09.000Z</time>
      </trkpt>
      <trkpt lat="45.35643" lon="5.63056">
        <ele>452.4</ele>
        <time>2021-04-23T12:36:19.000Z</time>
      </trkpt>
      <trkpt lat="45.35625" lon="5.63084">
        <ele>458</ele>
        <time>2021-04-23T12:36:29.000Z</time>
      </trkpt>
      <trkpt lat="45.356" lon="5.63101">
        <ele>461.9</ele>
        <time>2021-04-23T12:36:39.000Z</time>
      </trkpt>
      <trkpt lat="45.35582" lon="5.63122">
        <ele>463.8</ele>
        <time>2021-04-23T12:36:49.000Z</time>
      </trkpt>
      <trkpt lat="45.35555" lon="5.63101">
        <ele>462.4</ele>
        <time>2021-04-23T12:36:59.000Z</time>
      </trkpt>
      <trkpt lat="45.35526" lon="5.63077">
        <ele>463.6</ele>
        <time>2021-04-23T12:37:09.000Z</time>
      </trkpt>
      <trkpt lat="45.35501" lon="5.63059">
        <ele>465</ele>
        <time>2021-04-23T12:37:19.000Z</time>
      </trkpt>
      <trkpt lat="45.35475" lon="5.63077">
        <ele>469.3</ele>
        <time>2021-04-23T12:37:29.000Z</time>
      </trkpt>
      <trkpt lat="45.3545" lon="5.63088">
        <ele>472.2</ele>
        <time>2021-04-23T12:37:39.000Z</time>
      </trkpt>
      <trkpt lat="45.35426" lon="5.6309">
        <ele>474.5</ele>
        <time>2021-04-23T12:37:49.000Z</time>
      </trkpt>
      <trkpt lat="45.35399" lon="5.63087">
        <ele>479.8</ele>
        <time>2021-04-23T12:37:59.000Z</time>
      </trkpt>
      <trkpt lat="45.35374" lon="5.63077">
        <ele>483.9</ele>
        <time>2021-04-23T12:38:09.000Z</time>
      </trkpt>
      <trkpt lat="45.3535" lon="5.63065">
        <ele>486.9</ele>
        <time>2021-04-23T12:38:19.000Z</time>
      </trkpt>
      <trkpt lat="45.35329" lon="5.63056">
        <ele>488.1</ele>
        <time>2021-04-23T12:38:29.000Z</time>
      </trkpt>
      <trkpt lat="45.35301" lon="5.63048">
        <ele>490.5</ele>
        <time>2021-04-23T12:38:39.000Z</time>
      </trkpt>
      <trkpt lat="45.35273" lon="5.63049">
        <ele>492.6</ele>
        <time>2021-04-23T12:38:49.000Z</time>
      </trkpt>
      <trkpt lat="45.35244" lon="5.63056">
        <ele>489.8</ele>
        <time>2021-04-23T12:38:59.000Z</time>
      </trkpt>
      <trkpt lat="45.35221" lon="5.63066">
        <ele>490.4</ele>
        <time>2021-04-23T12:39:09.000Z</time>
      </trkpt>
      <trkpt lat="45.35201" lon="5.63088">
        <ele>493</ele>
        <time>2021-04-23T12:39:19.000Z</time>
      </trkpt>
      <trkpt lat="45.35179" lon="5.63103">
        <ele>497.7</ele>
        <time>2021-04-23T12:39:29.000Z</time>
      </trkpt>
      <trkpt lat="45.35156" lon="5.63106">
        <ele>503.3</ele>
        <time>2021-04-23T12:39:39.000Z</time>
      </trkpt>
      <trkpt lat="45.3513" lon="5.63098">
        <ele>509.8</ele>
        <time>2021-04-23T12:39:49.000Z</time>
      </trkpt>
      <trkpt lat="45.35105" lon="5.63096">
        <ele>514.1</ele>
        <time>2021-04-23T12:39:59.000Z</time>
      </trkpt>
      <trkpt lat="45.35077" lon="5.63102">
        <ele>511.1</ele>
        <time>2021-04-23T12:40:09.000Z</time>
      </trkpt>
      <trkpt lat="45.35054" lon="5.63113">
        <ele>513.9</ele>
        <time>2021-04-23T12:40:19.000Z</time>
      </trkpt>
      <trkpt lat="45.35034" lon="5.63118">
        <ele>512.8</ele>
        <time>2021-04-23T12:40:29.000Z</time>
      </trkpt>
      <trkpt lat="45.35008" lon="5.63136">
        <ele>518.2</ele>
        <time>2021-04-23T12:40:39.000Z</time>
      </trkpt>
      <trkpt lat="45.34988" lon="5.63154">
        <ele>518.2</ele>
        <time>2021-04-23T12:40:49.000Z</time>
      </trkpt>
      <trkpt lat="45.34964" lon="5.63171">
        <ele>523</ele>
        <time>2021-04-23T12:40:59.000Z</time>
      </trkpt>
      <trkpt lat="45.34944" lon="5.63183">
        <ele>527</ele>
        <time>2021-04-23T12:41:09.000Z</time>
      </trkpt>
      <trkpt lat="45.34927" lon="5.63197">
        <ele>533.2</ele>
        <time>2021-04-23T12:41:19.000Z</time>
      </trkpt>
      <trkpt lat="45.34903" lon="5.63211">
        <ele>537.7</ele>
        <time>2021-04-23T12:41:29.000Z</time>
      </trkpt>
      <trkpt lat="45.34888" lon="5.63229">
        <ele>545.5</ele>
        <time>2021-04-23T12:41:39.000Z</time>
      </trkpt>
      <trkpt lat="45.34867" lon="5.63246">
        <ele>547.2</ele>
        <time>2021-04-23T12:41:49.000Z</time>
      </trkpt>
      <trkpt lat="45.34848" lon="5.63268">
        <ele>546.1</ele>
        <time>2021-04-23T12:41:59.000Z</time>
      </trkpt>
      <trkpt lat="45.3483" lon="5.63286">
        <ele>548.6</ele>
        <time>2021-04-23T12:42:09.000Z</time>
      </trkpt>
      <trkpt lat="45.34807" lon="5.63298">
        <ele>552.4</ele>
        <time>2021-04-23T12:42:19.000Z</time>
      </trkpt>
      <trkpt lat="45.34804" lon="5.63299">
        <ele>552.8</ele>
        <time>2021-04-23T12:42:29.000Z</time>
      </trkpt>
      <trkpt lat="45.34804" lon="5.63298">
        <ele>555.7</ele>
        <time>2021-04-23T12:42:43.000Z</time>
      </trkpt>
      <trkpt lat="45.34802" lon="5.63299">
        <ele>555.9</ele>
        <time>2021-04-23T12:42:53.000Z</time>
      </trkpt>
      <trkpt lat="45.34803" lon="5.63301">
        <ele>556.7</ele>
        <time>2021-04-23T12:43:06.000Z</time>
      </trkpt>
      <trkpt lat="45.34802" lon="5.63302">
        <ele>557.4</ele>
        <time>2021-04-23T12:45:12.000Z</time>
      </trkpt>
      <trkpt lat="45.34801" lon="5.63302">
        <ele>558.3</ele>
        <time>2021-04-23T12:45:35.000Z</time>
      </trkpt>
      <trkpt lat="45.34801" lon="5.633">
        <ele>558.2</ele>
        <time>2021-04-23T12:45:45.000Z</time>
      </trkpt>
      <trkpt lat="45.348" lon="5.63301">
        <ele>557.8</ele>
        <time>2021-04-23T12:46:00.000Z</time>
      </trkpt>
      <trkpt lat="45.34801" lon="5.63301">
        <ele>557.4</ele>
        <time>2021-04-23T12:46:28.000Z</time>
      </trkpt>
      <trkpt lat="45.34802" lon="5.633">
        <ele>556.7</ele>
        <time>2021-04-23T12:46:38.000Z</time>
      </trkpt>
      <trkpt lat="45.34801" lon="5.63301">
        <ele>558.2</ele>
        <time>2021-04-23T12:46:52.000Z</time>
      </trkpt>
      <trkpt lat="45.34803" lon="5.633">
        <ele>556.3</ele>
        <time>2021-04-23T12:47:02.000Z</time>
      </trkpt>
      <trkpt lat="45.34804" lon="5.63299">
        <ele>555.5</ele>
        <time>2021-04-23T12:47:24.000Z</time>
      </trkpt>
      <trkpt lat="45.34803" lon="5.63299">
        <ele>554.7</ele>
        <time>2021-04-23T12:47:36.000Z</time>
      </trkpt>
      <trkpt lat="45.34802" lon="5.63298">
        <ele>554.4</ele>
        <time>2021-04-23T12:47:46.000Z</time>
      </trkpt>
      <trkpt lat="45.34803" lon="5.63298">
        <ele>555.4</ele>
        <time>2021-04-23T12:48:06.000Z</time>
      </trkpt>
      <trkpt lat="45.34802" lon="5.63298">
        <ele>565.4</ele>
        <time>2021-04-23T12:48:37.000Z</time>
      </trkpt>
      <trkpt lat="45.34802" lon="5.63296">
        <ele>563.6</ele>
        <time>2021-04-23T12:49:20.000Z</time>
      </trkpt>
      <trkpt lat="45.34801" lon="5.63298">
        <ele>578.9</ele>
        <time>2021-04-23T12:50:02.000Z</time>
      </trkpt>
      <trkpt lat="45.34802" lon="5.63299">
        <ele>575.6</ele>
        <time>2021-04-23T12:50:18.000Z</time>
      </trkpt>
      <trkpt lat="45.348" lon="5.63303">
        <ele>565.5</ele>
        <time>2021-04-23T12:50:28.000Z</time>
      </trkpt>
      <trkpt lat="45.34801" lon="5.63305">
        <ele>567.3</ele>
        <time>2021-04-23T12:50:38.000Z</time>
      </trkpt>
      <trkpt lat="45.348" lon="5.63303">
        <ele>566.1</ele>
        <time>2021-04-23T12:50:48.000Z</time>
      </trkpt>
      <trkpt lat="45.34801" lon="5.63304">
        <ele>567.2</ele>
        <time>2021-04-23T12:51:04.000Z</time>
      </trkpt>
      <trkpt lat="45.34801" lon="5.63305">
        <ele>567.6</ele>
        <time>2021-04-23T12:51:14.000Z</time>
      </trkpt>
      <trkpt lat="45.34799" lon="5.63305">
        <ele>567.1</ele>
        <time>2021-04-23T12:51:47.000Z</time>
      </trkpt>
      <trkpt lat="45.34783" lon="5.63307">
        <ele>556.4</ele>
        <time>2021-04-23T12:51:57.000Z</time>
      </trkpt>
      <trkpt lat="45.34756" lon="5.63313">
        <ele>555.1</ele>
        <time>2021-04-23T12:52:07.000Z</time>
      </trkpt>
      <trkpt lat="45.34727" lon="5.6333">
        <ele>555.7</ele>
        <time>2021-04-23T12:52:17.000Z</time>
      </trkpt>
      <trkpt lat="45.34702" lon="5.63339">
        <ele>557.9</ele>
        <time>2021-04-23T12:52:27.000Z</time>
      </trkpt>
      <trkpt lat="45.34675" lon="5.63351">
        <ele>556.4</ele>
        <time>2021-04-23T12:52:37.000Z</time>
      </trkpt>
      <trkpt lat="45.34651" lon="5.6336">
        <ele>558.3</ele>
        <time>2021-04-23T12:52:47.000Z</time>
      </trkpt>
      <trkpt lat="45.34647" lon="5.63366">
        <ele>559.7</ele>
        <time>2021-04-23T12:52:57.000Z</time>
      </trkpt>
      <trkpt lat="45.34645" lon="5.63365">
        <ele>561.4</ele>
        <time>2021-04-23T12:53:07.000Z</time>
      </trkpt>
      <trkpt lat="45.34645" lon="5.63367">
        <ele>560.2</ele>
        <time>2021-04-23T12:53:18.000Z</time>
      </trkpt>
      <trkpt lat="45.34642" lon="5.63368">
        <ele>560.7</ele>
        <time>2021-04-23T12:53:28.000Z</time>
      </trkpt>
      <trkpt lat="45.34641" lon="5.63367">
        <ele>561.2</ele>
        <time>2021-04-23T12:53:38.000Z</time>
      </trkpt>
      <trkpt lat="45.34641" lon="5.63366">
        <ele>564.5</ele>
        <time>2021-04-23T12:53:58.000Z</time>
      </trkpt>
      <trkpt lat="45.34641" lon="5.63365">
        <ele>567.7</ele>
        <time>2021-04-23T12:54:12.000Z</time>
      </trkpt>
      <trkpt lat="45.3463" lon="5.63367">
        <ele>568.6</ele>
        <time>2021-04-23T12:54:22.000Z</time>
      </trkpt>
      <trkpt lat="45.34605" lon="5.63387">
        <ele>567.5</ele>
        <time>2021-04-23T12:54:32.000Z</time>
      </trkpt>
      <trkpt lat="45.34587" lon="5.63411">
        <ele>558.7</ele>
        <time>2021-04-23T12:54:42.000Z</time>
      </trkpt>
      <trkpt lat="45.3459" lon="5.6344">
        <ele>556.3</ele>
        <time>2021-04-23T12:54:52.000Z</time>
      </trkpt>
      <trkpt lat="45.34593" lon="5.6347">
        <ele>555.7</ele>
        <time>2021-04-23T12:55:02.000Z</time>
      </trkpt>
      <trkpt lat="45.34593" lon="5.63472">
        <ele>556.5</ele>
        <time>2021-04-23T12:55:12.000Z</time>
      </trkpt>
      <trkpt lat="45.34595" lon="5.63479">
        <ele>555</ele>
        <time>2021-04-23T12:55:22.000Z</time>
      </trkpt>
      <trkpt lat="45.34602" lon="5.63513">
        <ele>556</ele>
        <time>2021-04-23T12:55:32.000Z</time>
      </trkpt>
      <trkpt lat="45.34599" lon="5.63553">
        <ele>557</ele>
        <time>2021-04-23T12:55:42.000Z</time>
      </trkpt>
      <trkpt lat="45.3458" lon="5.63606">
        <ele>557.3</ele>
        <time>2021-04-23T12:55:52.000Z</time>
      </trkpt>
      <trkpt lat="45.34558" lon="5.63658">
        <ele>559.9</ele>
        <time>2021-04-23T12:56:02.000Z</time>
      </trkpt>
      <trkpt lat="45.34537" lon="5.63708">
        <ele>562.7</ele>
        <time>2021-04-23T12:56:12.000Z</time>
      </trkpt>
      <trkpt lat="45.34503" lon="5.63724">
        <ele>564.7</ele>
        <time>2021-04-23T12:56:22.000Z</time>
      </trkpt>
      <trkpt lat="45.34468" lon="5.63723">
        <ele>567</ele>
        <time>2021-04-23T12:56:32.000Z</time>
      </trkpt>
      <trkpt lat="45.34432" lon="5.63722">
        <ele>567</ele>
        <time>2021-04-23T12:56:42.000Z</time>
      </trkpt>
      <trkpt lat="45.344" lon="5.6372">
        <ele>571.6</ele>
        <time>2021-04-23T12:56:52.000Z</time>
      </trkpt>
      <trkpt lat="45.34369" lon="5.63726">
        <ele>575.8</ele>
        <time>2021-04-23T12:57:02.000Z</time>
      </trkpt>
      <trkpt lat="45.34346" lon="5.63756">
        <ele>579.9</ele>
        <time>2021-04-23T12:57:12.000Z</time>
      </trkpt>
      <trkpt lat="45.34339" lon="5.63798">
        <ele>584.2</ele>
        <time>2021-04-23T12:57:22.000Z</time>
      </trkpt>
      <trkpt lat="45.3434" lon="5.63839">
        <ele>586.8</ele>
        <time>2021-04-23T12:57:32.000Z</time>
      </trkpt>
      <trkpt lat="45.34338" lon="5.63879">
        <ele>588.4</ele>
        <time>2021-04-23T12:57:42.000Z</time>
      </trkpt>
      <trkpt lat="45.34332" lon="5.63921">
        <ele>589.8</ele>
        <time>2021-04-23T12:57:52.000Z</time>
      </trkpt>
      <trkpt lat="45.34335" lon="5.63965">
        <ele>592.7</ele>
        <time>2021-04-23T12:58:02.000Z</time>
      </trkpt>
      <trkpt lat="45.34355" lon="5.64003">
        <ele>596.6</ele>
        <time>2021-04-23T12:58:12.000Z</time>
      </trkpt>
      <trkpt lat="45.34376" lon="5.64045">
        <ele>598.3</ele>
        <time>2021-04-23T12:58:22.000Z</time>
      </trkpt>
      <trkpt lat="45.3439" lon="5.64088">
        <ele>603.9</ele>
        <time>2021-04-23T12:58:32.000Z</time>
      </trkpt>
      <trkpt lat="45.34405" lon="5.64131">
        <ele>603.5</ele>
        <time>2021-04-23T12:58:42.000Z</time>
      </trkpt>
      <trkpt lat="45.34429" lon="5.64157">
        <ele>607</ele>
        <time>2021-04-23T12:58:52.000Z</time>
      </trkpt>
      <trkpt lat="45.34457" lon="5.64171">
        <ele>611.4</ele>
        <time>2021-04-23T12:59:02.000Z</time>
      </trkpt>
      <trkpt lat="45.34487" lon="5.64184">
        <ele>609.9</ele>
        <time>2021-04-23T12:59:12.000Z</time>
      </trkpt>
      <trkpt lat="45.34512" lon="5.64206">
        <ele>611</ele>
        <time>2021-04-23T12:59:22.000Z</time>
      </trkpt>
      <trkpt lat="45.3454" lon="5.64223">
        <ele>616</ele>
        <time>2021-04-23T12:59:32.000Z</time>
      </trkpt>
      <trkpt lat="45.34574" lon="5.64231">
        <ele>620.6</ele>
        <time>2021-04-23T12:59:42.000Z</time>
      </trkpt>
      <trkpt lat="45.34605" lon="5.64243">
        <ele>622.4</ele>
        <time>2021-04-23T12:59:52.000Z</time>
      </trkpt>
      <trkpt lat="45.34637" lon="5.64254">
        <ele>623.2</ele>
        <time>2021-04-23T13:00:02.000Z</time>
      </trkpt>
      <trkpt lat="45.3467" lon="5.64267">
        <ele>623.1</ele>
        <time>2021-04-23T13:00:12.000Z</time>
      </trkpt>
      <trkpt lat="45.34696" lon="5.64279">
        <ele>626.8</ele>
        <time>2021-04-23T13:00:22.000Z</time>
      </trkpt>
      <trkpt lat="45.34729" lon="5.64298">
        <ele>627.8</ele>
        <time>2021-04-23T13:00:32.000Z</time>
      </trkpt>
      <trkpt lat="45.34761" lon="5.64325">
        <ele>630.4</ele>
        <time>2021-04-23T13:00:42.000Z</time>
      </trkpt>
      <trkpt lat="45.34793" lon="5.64349">
        <ele>634.3</ele>
        <time>2021-04-23T13:00:52.000Z</time>
      </trkpt>
      <trkpt lat="45.34825" lon="5.64372">
        <ele>636.2</ele>
        <time>2021-04-23T13:01:02.000Z</time>
      </trkpt>
      <trkpt lat="45.34857" lon="5.64401">
        <ele>638.1</ele>
        <time>2021-04-23T13:01:12.000Z</time>
      </trkpt>
      <trkpt lat="45.34887" lon="5.64433">
        <ele>639.2</ele>
        <time>2021-04-23T13:01:22.000Z</time>
      </trkpt>
      <trkpt lat="45.34915" lon="5.64472">
        <ele>637.9</ele>
        <time>2021-04-23T13:01:32.000Z</time>
      </trkpt>
      <trkpt lat="45.34939" lon="5.6451">
        <ele>637.8</ele>
        <time>2021-04-23T13:01:42.000Z</time>
      </trkpt>
      <trkpt lat="45.34955" lon="5.64555">
        <ele>639.2</ele>
        <time>2021-04-23T13:01:52.000Z</time>
      </trkpt>
      <trkpt lat="45.34967" lon="5.64596">
        <ele>639.8</ele>
        <time>2021-04-23T13:02:02.000Z</time>
      </trkpt>
      <trkpt lat="45.34977" lon="5.64596">
        <ele>641.3</ele>
        <time>2021-04-23T13:02:12.000Z</time>
      </trkpt>
      <trkpt lat="45.34979" lon="5.64594">
        <ele>640.9</ele>
        <time>2021-04-23T13:02:24.000Z</time>
      </trkpt>
      <trkpt lat="45.35003" lon="5.64576">
        <ele>642</ele>
        <time>2021-04-23T13:02:34.000Z</time>
      </trkpt>
      <trkpt lat="45.35019" lon="5.64532">
        <ele>643.3</ele>
        <time>2021-04-23T13:02:44.000Z</time>
      </trkpt>
      <trkpt lat="45.35022" lon="5.64476">
        <ele>643.2</ele>
        <time>2021-04-23T13:02:54.000Z</time>
      </trkpt>
      <trkpt lat="45.3502" lon="5.64428">
        <ele>643.9</ele>
        <time>2021-04-23T13:03:04.000Z</time>
      </trkpt>
      <trkpt lat="45.35017" lon="5.64385">
        <ele>645.7</ele>
        <time>2021-04-23T13:03:14.000Z</time>
      </trkpt>
      <trkpt lat="45.35008" lon="5.64343">
        <ele>646.8</ele>
        <time>2021-04-23T13:03:24.000Z</time>
      </trkpt>
      <trkpt lat="45.34996" lon="5.64305">
        <ele>648.8</ele>
        <time>2021-04-23T13:03:34.000Z</time>
      </trkpt>
      <trkpt lat="45.34985" lon="5.64264">
        <ele>650.8</ele>
        <time>2021-04-23T13:03:44.000Z</time>
      </trkpt>
      <trkpt lat="45.34981" lon="5.64222">
        <ele>654.1</ele>
        <time>2021-04-23T13:03:54.000Z</time>
      </trkpt>
      <trkpt lat="45.34976" lon="5.64189">
        <ele>657</ele>
        <time>2021-04-23T13:04:04.000Z</time>
      </trkpt>
      <trkpt lat="45.34966" lon="5.6416">
        <ele>659.3</ele>
        <time>2021-04-23T13:04:14.000Z</time>
      </trkpt>
      <trkpt lat="45.34958" lon="5.64124">
        <ele>661.2</ele>
        <time>2021-04-23T13:04:24.000Z</time>
      </trkpt>
      <trkpt lat="45.34955" lon="5.64075">
        <ele>662.1</ele>
        <time>2021-04-23T13:04:34.000Z</time>
      </trkpt>
      <trkpt lat="45.34956" lon="5.64015">
        <ele>660.9</ele>
        <time>2021-04-23T13:04:44.000Z</time>
      </trkpt>
      <trkpt lat="45.34959" lon="5.6396">
        <ele>660.2</ele>
        <time>2021-04-23T13:04:54.000Z</time>
      </trkpt>
      <trkpt lat="45.34964" lon="5.639">
        <ele>659.1</ele>
        <time>2021-04-23T13:05:04.000Z</time>
      </trkpt>
      <trkpt lat="45.34969" lon="5.6386">
        <ele>658.9</ele>
        <time>2021-04-23T13:05:14.000Z</time>
      </trkpt>
      <trkpt lat="45.34977" lon="5.63857">
        <ele>659.1</ele>
        <time>2021-04-23T13:05:24.000Z</time>
      </trkpt>
      <trkpt lat="45.34987" lon="5.63851">
        <ele>659.8</ele>
        <time>2021-04-23T13:05:34.000Z</time>
      </trkpt>
      <trkpt lat="45.34985" lon="5.63854">
        <ele>660.6</ele>
        <time>2021-04-23T13:05:44.000Z</time>
      </trkpt>
      <trkpt lat="45.34987" lon="5.63854">
        <ele>661.4</ele>
        <time>2021-04-23T13:05:55.000Z</time>
      </trkpt>
      <trkpt lat="45.35014" lon="5.6386">
        <ele>663.9</ele>
        <time>2021-04-23T13:06:05.000Z</time>
      </trkpt>
      <trkpt lat="45.35039" lon="5.63869">
        <ele>666.3</ele>
        <time>2021-04-23T13:06:15.000Z</time>
      </trkpt>
      <trkpt lat="45.35065" lon="5.63882">
        <ele>666.9</ele>
        <time>2021-04-23T13:06:25.000Z</time>
      </trkpt>
      <trkpt lat="45.35095" lon="5.63897">
        <ele>667.6</ele>
        <time>2021-04-23T13:06:35.000Z</time>
      </trkpt>
      <trkpt lat="45.35126" lon="5.63909">
        <ele>668.3</ele>
        <time>2021-04-23T13:06:45.000Z</time>
      </trkpt>
      <trkpt lat="45.35155" lon="5.63922">
        <ele>667.7</ele>
        <time>2021-04-23T13:06:55.000Z</time>
      </trkpt>
      <trkpt lat="45.35159" lon="5.63922">
        <ele>666.8</ele>
        <time>2021-04-23T13:07:05.000Z</time>
      </trkpt>
      <trkpt lat="45.35158" lon="5.63922">
        <ele>665.8</ele>
        <time>2021-04-23T13:07:15.000Z</time>
      </trkpt>
      <trkpt lat="45.3516" lon="5.63923">
        <ele>665.1</ele>
        <time>2021-04-23T13:07:25.000Z</time>
      </trkpt>
      <trkpt lat="45.35192" lon="5.63938">
        <ele>664.9</ele>
        <time>2021-04-23T13:07:35.000Z</time>
      </trkpt>
      <trkpt lat="45.35239" lon="5.63955">
        <ele>659.6</ele>
        <time>2021-04-23T13:07:45.000Z</time>
      </trkpt>
      <trkpt lat="45.35281" lon="5.63911">
        <ele>656.3</ele>
        <time>2021-04-23T13:07:55.000Z</time>
      </trkpt>
      <trkpt lat="45.35303" lon="5.6388">
        <ele>657.7</ele>
        <time>2021-04-23T13:08:05.000Z</time>
      </trkpt>
      <trkpt lat="45.35308" lon="5.63871">
        <ele>657.2</ele>
        <time>2021-04-23T13:08:15.000Z</time>
      </trkpt>
      <trkpt lat="45.35329" lon="5.63871">
        <ele>661.4</ele>
        <time>2021-04-23T13:08:25.000Z</time>
      </trkpt>
      <trkpt lat="45.35369" lon="5.63896">
        <ele>662.9</ele>
        <time>2021-04-23T13:08:35.000Z</time>
      </trkpt>
      <trkpt lat="45.35401" lon="5.63915">
        <ele>664.2</ele>
        <time>2021-04-23T13:08:45.000Z</time>
      </trkpt>
      <trkpt lat="45.35427" lon="5.63918">
        <ele>664.1</ele>
        <time>2021-04-23T13:08:55.000Z</time>
      </trkpt>
      <trkpt lat="45.3544" lon="5.63897">
        <ele>665.7</ele>
        <time>2021-04-23T13:09:05.000Z</time>
      </trkpt>
      <trkpt lat="45.35445" lon="5.63894">
        <ele>668.2</ele>
        <time>2021-04-23T13:09:15.000Z</time>
      </trkpt>
      <trkpt lat="45.35446" lon="5.63893">
        <ele>669.2</ele>
        <time>2021-04-23T13:09:27.000Z</time>
      </trkpt>
      <trkpt lat="45.35456" lon="5.63889">
        <ele>669.8</ele>
        <time>2021-04-23T13:09:37.000Z</time>
      </trkpt>
      <trkpt lat="45.35498" lon="5.63909">
        <ele>666.7</ele>
        <time>2021-04-23T13:09:47.000Z</time>
      </trkpt>
      <trkpt lat="45.35526" lon="5.63927">
        <ele>667.6</ele>
        <time>2021-04-23T13:09:57.000Z</time>
      </trkpt>
      <trkpt lat="45.35558" lon="5.63956">
        <ele>663.6</ele>
        <time>2021-04-23T13:10:07.000Z</time>
      </trkpt>
      <trkpt lat="45.3556" lon="5.63986">
        <ele>662</ele>
        <time>2021-04-23T13:10:17.000Z</time>
      </trkpt>
      <trkpt lat="45.35567" lon="5.64021">
        <ele>661.4</ele>
        <time>2021-04-23T13:10:27.000Z</time>
      </trkpt>
      <trkpt lat="45.35571" lon="5.64079">
        <ele>654.8</ele>
        <time>2021-04-23T13:10:37.000Z</time>
      </trkpt>
      <trkpt lat="45.35582" lon="5.64105">
        <ele>653.3</ele>
        <time>2021-04-23T13:10:47.000Z</time>
      </trkpt>
      <trkpt lat="45.35595" lon="5.64123">
        <ele>652.3</ele>
        <time>2021-04-23T13:10:57.000Z</time>
      </trkpt>
      <trkpt lat="45.35609" lon="5.64141">
        <ele>653.6</ele>
        <time>2021-04-23T13:11:07.000Z</time>
      </trkpt>
      <trkpt lat="45.35631" lon="5.64151">
        <ele>656.1</ele>
        <time>2021-04-23T13:11:17.000Z</time>
      </trkpt>
      <trkpt lat="45.35652" lon="5.6417">
        <ele>657.9</ele>
        <time>2021-04-23T13:11:27.000Z</time>
      </trkpt>
      <trkpt lat="45.35665" lon="5.64199">
        <ele>660.6</ele>
        <time>2021-04-23T13:11:37.000Z</time>
      </trkpt>
      <trkpt lat="45.35681" lon="5.64227">
        <ele>662.9</ele>
        <time>2021-04-23T13:11:47.000Z</time>
      </trkpt>
      <trkpt lat="45.35701" lon="5.64254">
        <ele>669.7</ele>
        <time>2021-04-23T13:11:57.000Z</time>
      </trkpt>
      <trkpt lat="45.35717" lon="5.64277">
        <ele>670.4</ele>
        <time>2021-04-23T13:12:07.000Z</time>
      </trkpt>
      <trkpt lat="45.35726" lon="5.6431">
        <ele>674.4</ele>
        <time>2021-04-23T13:12:17.000Z</time>
      </trkpt>
      <trkpt lat="45.3574" lon="5.64332">
        <ele>682.2</ele>
        <time>2021-04-23T13:12:27.000Z</time>
      </trkpt>
      <trkpt lat="45.35743" lon="5.6434">
        <ele>677.8</ele>
        <time>2021-04-23T13:12:37.000Z</time>
      </trkpt>
      <trkpt lat="45.35743" lon="5.64343">
        <ele>682.1</ele>
        <time>2021-04-23T13:12:47.000Z</time>
      </trkpt>
      <trkpt lat="45.35742" lon="5.64342">
        <ele>686.4</ele>
        <time>2021-04-23T13:13:27.000Z</time>
      </trkpt>
      <trkpt lat="45.35746" lon="5.64342">
        <ele>683.7</ele>
        <time>2021-04-23T13:13:37.000Z</time>
      </trkpt>
      <trkpt lat="45.3576" lon="5.64343">
        <ele>677.6</ele>
        <time>2021-04-23T13:13:47.000Z</time>
      </trkpt>
      <trkpt lat="45.35761" lon="5.64342">
        <ele>676.6</ele>
        <time>2021-04-23T13:13:57.000Z</time>
      </trkpt>
      <trkpt lat="45.35785" lon="5.64345">
        <ele>676.8</ele>
        <time>2021-04-23T13:14:07.000Z</time>
      </trkpt>
      <trkpt lat="45.35818" lon="5.64372">
        <ele>677.5</ele>
        <time>2021-04-23T13:14:17.000Z</time>
      </trkpt>
      <trkpt lat="45.35857" lon="5.64408">
        <ele>668.2</ele>
        <time>2021-04-23T13:14:27.000Z</time>
      </trkpt>
      <trkpt lat="45.35893" lon="5.64451">
        <ele>671.6</ele>
        <time>2021-04-23T13:14:37.000Z</time>
      </trkpt>
      <trkpt lat="45.35905" lon="5.6449">
        <ele>674</ele>
        <time>2021-04-23T13:14:47.000Z</time>
      </trkpt>
      <trkpt lat="45.35903" lon="5.64524">
        <ele>674.7</ele>
        <time>2021-04-23T13:14:57.000Z</time>
      </trkpt>
      <trkpt lat="45.359" lon="5.64572">
        <ele>672.3</ele>
        <time>2021-04-23T13:15:07.000Z</time>
      </trkpt>
      <trkpt lat="45.35906" lon="5.64621">
        <ele>676.7</ele>
        <time>2021-04-23T13:15:17.000Z</time>
      </trkpt>
      <trkpt lat="45.35923" lon="5.64653">
        <ele>682.8</ele>
        <time>2021-04-23T13:15:27.000Z</time>
      </trkpt>
      <trkpt lat="45.35935" lon="5.64706">
        <ele>681.4</ele>
        <time>2021-04-23T13:15:37.000Z</time>
      </trkpt>
      <trkpt lat="45.35958" lon="5.64746">
        <ele>677</ele>
        <time>2021-04-23T13:15:47.000Z</time>
      </trkpt>
      <trkpt lat="45.35978" lon="5.64773">
        <ele>677.3</ele>
        <time>2021-04-23T13:15:57.000Z</time>
      </trkpt>
      <trkpt lat="45.35994" lon="5.64812">
        <ele>680.8</ele>
        <time>2021-04-23T13:16:07.000Z</time>
      </trkpt>
      <trkpt lat="45.35995" lon="5.64846">
        <ele>681.1</ele>
        <time>2021-04-23T13:16:17.000Z</time>
      </trkpt>
      <trkpt lat="45.36007" lon="5.64887">
        <ele>687.5</ele>
        <time>2021-04-23T13:16:27.000Z</time>
      </trkpt>
      <trkpt lat="45.36015" lon="5.64929">
        <ele>689.1</ele>
        <time>2021-04-23T13:16:37.000Z</time>
      </trkpt>
      <trkpt lat="45.36011" lon="5.64971">
        <ele>688.2</ele>
        <time>2021-04-23T13:16:47.000Z</time>
      </trkpt>
      <trkpt lat="45.36015" lon="5.65011">
        <ele>689.4</ele>
        <time>2021-04-23T13:16:57.000Z</time>
      </trkpt>
      <trkpt lat="45.3604" lon="5.6503">
        <ele>691.7</ele>
        <time>2021-04-23T13:17:07.000Z</time>
      </trkpt>
      <trkpt lat="45.36074" lon="5.65044">
        <ele>691</ele>
        <time>2021-04-23T13:17:17.000Z</time>
      </trkpt>
      <trkpt lat="45.36123" lon="5.65099">
        <ele>685.8</ele>
        <time>2021-04-23T13:17:27.000Z</time>
      </trkpt>
      <trkpt lat="45.36165" lon="5.65153">
        <ele>684.1</ele>
        <time>2021-04-23T13:17:37.000Z</time>
      </trkpt>
      <trkpt lat="45.36203" lon="5.652">
        <ele>683.7</ele>
        <time>2021-04-23T13:17:47.000Z</time>
      </trkpt>
      <trkpt lat="45.36222" lon="5.65247">
        <ele>683.2</ele>
        <time>2021-04-23T13:17:57.000Z</time>
      </trkpt>
      <trkpt lat="45.36262" lon="5.65271">
        <ele>684.9</ele>
        <time>2021-04-23T13:18:07.000Z</time>
      </trkpt>
      <trkpt lat="45.36299" lon="5.65237">
        <ele>688.9</ele>
        <time>2021-04-23T13:18:17.000Z</time>
      </trkpt>
      <trkpt lat="45.3634" lon="5.65243">
        <ele>687.5</ele>
        <time>2021-04-23T13:18:27.000Z</time>
      </trkpt>
      <trkpt lat="45.36377" lon="5.6526">
        <ele>686.6</ele>
        <time>2021-04-23T13:18:37.000Z</time>
      </trkpt>
      <trkpt lat="45.36405" lon="5.653">
        <ele>689.6</ele>
        <time>2021-04-23T13:18:47.000Z</time>
      </trkpt>
      <trkpt lat="45.36409" lon="5.653">
        <ele>693.5</ele>
        <time>2021-04-23T13:18:57.000Z</time>
      </trkpt>
      <trkpt lat="45.36409" lon="5.65302">
        <ele>693</ele>
        <time>2021-04-23T13:19:07.000Z</time>
      </trkpt>
      <trkpt lat="45.36404" lon="5.653">
        <ele>690.6</ele>
        <time>2021-04-23T13:19:17.000Z</time>
      </trkpt>
      <trkpt lat="45.3638" lon="5.65276">
        <ele>686.7</ele>
        <time>2021-04-23T13:19:27.000Z</time>
      </trkpt>
      <trkpt lat="45.36378" lon="5.65271">
        <ele>685.7</ele>
        <time>2021-04-23T13:19:37.000Z</time>
      </trkpt>
      <trkpt lat="45.36404" lon="5.65299">
        <ele>687.3</ele>
        <time>2021-04-23T13:19:47.000Z</time>
      </trkpt>
      <trkpt lat="45.36414" lon="5.65302">
        <ele>691.2</ele>
        <time>2021-04-23T13:19:57.000Z</time>
      </trkpt>
      <trkpt lat="45.36415" lon="5.65302">
        <ele>694.2</ele>
        <time>2021-04-23T13:20:18.000Z</time>
      </trkpt>
      <trkpt lat="45.36416" lon="5.65303">
        <ele>691.8</ele>
        <time>2021-04-23T13:20:28.000Z</time>
      </trkpt>
      <trkpt lat="45.36415" lon="5.65302">
        <ele>691.6</ele>
        <time>2021-04-23T13:20:38.000Z</time>
      </trkpt>
      <trkpt lat="45.36417" lon="5.65305">
        <ele>687.7</ele>
        <time>2021-04-23T13:20:48.000Z</time>
      </trkpt>
      <trkpt lat="45.36438" lon="5.6531">
        <ele>686.8</ele>
        <time>2021-04-23T13:20:58.000Z</time>
      </trkpt>
      <trkpt lat="45.36463" lon="5.65309">
        <ele>686.5</ele>
        <time>2021-04-23T13:21:08.000Z</time>
      </trkpt>
      <trkpt lat="45.36499" lon="5.65303">
        <ele>687.4</ele>
        <time>2021-04-23T13:21:18.000Z</time>
      </trkpt>
      <trkpt lat="45.36533" lon="5.65303">
        <ele>686.6</ele>
        <time>2021-04-23T13:21:28.000Z</time>
      </trkpt>
      <trkpt lat="45.36563" lon="5.65337">
        <ele>684.4</ele>
        <time>2021-04-23T13:21:38.000Z</time>
      </trkpt>
      <trkpt lat="45.36574" lon="5.65397">
        <ele>683.1</ele>
        <time>2021-04-23T13:21:48.000Z</time>
      </trkpt>
      <trkpt lat="45.3658" lon="5.65435">
        <ele>684.4</ele>
        <time>2021-04-23T13:21:58.000Z</time>
      </trkpt>
      <trkpt lat="45.36578" lon="5.65478">
        <ele>685.3</ele>
        <time>2021-04-23T13:22:08.000Z</time>
      </trkpt>
      <trkpt lat="45.3657" lon="5.65505">
        <ele>686.9</ele>
        <time>2021-04-23T13:22:18.000Z</time>
      </trkpt>
      <trkpt lat="45.3654" lon="5.65522">
        <ele>689.7</ele>
        <time>2021-04-23T13:22:28.000Z</time>
      </trkpt>
      <trkpt lat="45.36518" lon="5.65555">
        <ele>689.6</ele>
        <time>2021-04-23T13:22:38.000Z</time>
      </trkpt>
      <trkpt lat="45.36489" lon="5.65596">
        <ele>690.4</ele>
        <time>2021-04-23T13:22:48.000Z</time>
      </trkpt>
      <trkpt lat="45.36458" lon="5.65618">
        <ele>689.5</ele>
        <time>2021-04-23T13:22:58.000Z</time>
      </trkpt>
      <trkpt lat="45.36435" lon="5.65603">
        <ele>693</ele>
        <time>2021-04-23T13:23:08.000Z</time>
      </trkpt>
      <trkpt lat="45.364" lon="5.65594">
        <ele>693.1</ele>
        <time>2021-04-23T13:23:18.000Z</time>
      </trkpt>
      <trkpt lat="45.36368" lon="5.65602">
        <ele>697.2</ele>
        <time>2021-04-23T13:23:28.000Z</time>
      </trkpt>
      <trkpt lat="45.36333" lon="5.6563">
        <ele>698</ele>
        <time>2021-04-23T13:23:38.000Z</time>
      </trkpt>
      <trkpt lat="45.363" lon="5.65632">
        <ele>697.4</ele>
        <time>2021-04-23T13:23:48.000Z</time>
      </trkpt>
      <trkpt lat="45.36274" lon="5.65631">
        <ele>696.3</ele>
        <time>2021-04-23T13:23:58.000Z</time>
      </trkpt>
      <trkpt lat="45.36273" lon="5.65628">
        <ele>697.1</ele>
        <time>2021-04-23T13:24:08.000Z</time>
      </trkpt>
      <trkpt lat="45.36265" lon="5.65626">
        <ele>696.3</ele>
        <time>2021-04-23T13:24:18.000Z</time>
      </trkpt>
      <trkpt lat="45.36228" lon="5.65633">
        <ele>692.8</ele>
        <time>2021-04-23T13:24:28.000Z</time>
      </trkpt>
      <trkpt lat="45.36203" lon="5.65632">
        <ele>692.4</ele>
        <time>2021-04-23T13:24:38.000Z</time>
      </trkpt>
      <trkpt lat="45.36209" lon="5.65645">
        <ele>692.6</ele>
        <time>2021-04-23T13:24:48.000Z</time>
      </trkpt>
      <trkpt lat="45.36211" lon="5.6565">
        <ele>698.5</ele>
        <time>2021-04-23T13:24:58.000Z</time>
      </trkpt>
      <trkpt lat="45.36219" lon="5.65659">
        <ele>696.4</ele>
        <time>2021-04-23T13:25:08.000Z</time>
      </trkpt>
      <trkpt lat="45.36232" lon="5.65669">
        <ele>689</ele>
        <time>2021-04-23T13:25:18.000Z</time>
      </trkpt>
      <trkpt lat="45.36235" lon="5.65669">
        <ele>686.7</ele>
        <time>2021-04-23T13:25:28.000Z</time>
      </trkpt>
      <trkpt lat="45.36234" lon="5.6567">
        <ele>685.7</ele>
        <time>2021-04-23T13:25:46.000Z</time>
      </trkpt>
      <trkpt lat="45.36232" lon="5.65672">
        <ele>687.4</ele>
        <time>2021-04-23T13:25:56.000Z</time>
      </trkpt>
      <trkpt lat="45.3623" lon="5.65668">
        <ele>690.1</ele>
        <time>2021-04-23T13:26:06.000Z</time>
      </trkpt>
      <trkpt lat="45.36223" lon="5.65659">
        <ele>693</ele>
        <time>2021-04-23T13:26:16.000Z</time>
      </trkpt>
      <trkpt lat="45.36216" lon="5.65651">
        <ele>694.3</ele>
        <time>2021-04-23T13:26:26.000Z</time>
      </trkpt>
      <trkpt lat="45.36209" lon="5.6564">
        <ele>692.8</ele>
        <time>2021-04-23T13:26:36.000Z</time>
      </trkpt>
      <trkpt lat="45.36205" lon="5.65636">
        <ele>693.1</ele>
        <time>2021-04-23T13:26:46.000Z</time>
      </trkpt>
      <trkpt lat="45.362" lon="5.65648">
        <ele>690</ele>
        <time>2021-04-23T13:26:56.000Z</time>
      </trkpt>
      <trkpt lat="45.36183" lon="5.65667">
        <ele>690.7</ele>
        <time>2021-04-23T13:27:06.000Z</time>
      </trkpt>
      <trkpt lat="45.36184" lon="5.65684">
        <ele>690.1</ele>
        <time>2021-04-23T13:27:16.000Z</time>
      </trkpt>
      <trkpt lat="45.36203" lon="5.657">
        <ele>688.8</ele>
        <time>2021-04-23T13:27:26.000Z</time>
      </trkpt>
      <trkpt lat="45.36223" lon="5.657">
        <ele>689.2</ele>
        <time>2021-04-23T13:27:36.000Z</time>
      </trkpt>
      <trkpt lat="45.36223" lon="5.65701">
        <ele>684.8</ele>
        <time>2021-04-23T13:27:46.000Z</time>
      </trkpt>
      <trkpt lat="45.36223" lon="5.65703">
        <ele>684.8</ele>
        <time>2021-04-23T13:27:57.000Z</time>
      </trkpt>
      <trkpt lat="45.36233" lon="5.65709">
        <ele>684.9</ele>
        <time>2021-04-23T13:28:07.000Z</time>
      </trkpt>
      <trkpt lat="45.36247" lon="5.65735">
        <ele>683</ele>
        <time>2021-04-23T13:28:17.000Z</time>
      </trkpt>
      <trkpt lat="45.36267" lon="5.65756">
        <ele>682.2</ele>
        <time>2021-04-23T13:28:27.000Z</time>
      </trkpt>
      <trkpt lat="45.3628" lon="5.65769">
        <ele>683.4</ele>
        <time>2021-04-23T13:28:37.000Z</time>
      </trkpt>
      <trkpt lat="45.36306" lon="5.65766">
        <ele>679.3</ele>
        <time>2021-04-23T13:28:47.000Z</time>
      </trkpt>
      <trkpt lat="45.36331" lon="5.65767">
        <ele>676.8</ele>
        <time>2021-04-23T13:28:57.000Z</time>
      </trkpt>
      <trkpt lat="45.36345" lon="5.65782">
        <ele>680.8</ele>
        <time>2021-04-23T13:29:07.000Z</time>
      </trkpt>
      <trkpt lat="45.36368" lon="5.65785">
        <ele>676.3</ele>
        <time>2021-04-23T13:29:17.000Z</time>
      </trkpt>
      <trkpt lat="45.36373" lon="5.65783">
        <ele>676.6</ele>
        <time>2021-04-23T13:29:27.000Z</time>
      </trkpt>
      <trkpt lat="45.36378" lon="5.65775">
        <ele>678.4</ele>
        <time>2021-04-23T13:29:37.000Z</time>
      </trkpt>
      <trkpt lat="45.3638" lon="5.6577">
        <ele>672.1</ele>
        <time>2021-04-23T13:29:47.000Z</time>
      </trkpt>
      <trkpt lat="45.36391" lon="5.65771">
        <ele>667.2</ele>
        <time>2021-04-23T13:29:57.000Z</time>
      </trkpt>
      <trkpt lat="45.36412" lon="5.65762">
        <ele>662.4</ele>
        <time>2021-04-23T13:30:07.000Z</time>
      </trkpt>
      <trkpt lat="45.36426" lon="5.65758">
        <ele>660.9</ele>
        <time>2021-04-23T13:30:17.000Z</time>
      </trkpt>
      <trkpt lat="45.36447" lon="5.65757">
        <ele>660.2</ele>
        <time>2021-04-23T13:30:27.000Z</time>
      </trkpt>
      <trkpt lat="45.36448" lon="5.65761">
        <ele>659.4</ele>
        <time>2021-04-23T13:30:37.000Z</time>
      </trkpt>
      <trkpt lat="45.36446" lon="5.6576">
        <ele>659.3</ele>
        <time>2021-04-23T13:30:47.000Z</time>
      </trkpt>
      <trkpt lat="45.36447" lon="5.65759">
        <ele>660</ele>
        <time>2021-04-23T13:31:22.000Z</time>
      </trkpt>
      <trkpt lat="45.36447" lon="5.65756">
        <ele>661.1</ele>
        <time>2021-04-23T13:31:32.000Z</time>
      </trkpt>
      <trkpt lat="45.36447" lon="5.65757">
        <ele>661.1</ele>
        <time>2021-04-23T13:31:44.000Z</time>
      </trkpt>
      <trkpt lat="45.36431" lon="5.65784">
        <ele>663</ele>
        <time>2021-04-23T13:31:54.000Z</time>
      </trkpt>
      <trkpt lat="45.36415" lon="5.65839">
        <ele>665.4</ele>
        <time>2021-04-23T13:32:04.000Z</time>
      </trkpt>
      <trkpt lat="45.36398" lon="5.65889">
        <ele>663.4</ele>
        <time>2021-04-23T13:32:14.000Z</time>
      </trkpt>
      <trkpt lat="45.36384" lon="5.6592">
        <ele>667.4</ele>
        <time>2021-04-23T13:32:24.000Z</time>
      </trkpt>
      <trkpt lat="45.36396" lon="5.6596">
        <ele>665</ele>
        <time>2021-04-23T13:32:34.000Z</time>
      </trkpt>
      <trkpt lat="45.36422" lon="5.65961">
        <ele>662.6</ele>
        <time>2021-04-23T13:32:44.000Z</time>
      </trkpt>
      <trkpt lat="45.36445" lon="5.6597">
        <ele>661.5</ele>
        <time>2021-04-23T13:32:54.000Z</time>
      </trkpt>
      <trkpt lat="45.36448" lon="5.65976">
        <ele>663.3</ele>
        <time>2021-04-23T13:33:04.000Z</time>
      </trkpt>
      <trkpt lat="45.36448" lon="5.65979">
        <ele>664.4</ele>
        <time>2021-04-23T13:33:35.000Z</time>
      </trkpt>
      <trkpt lat="45.36438" lon="5.66007">
        <ele>668.6</ele>
        <time>2021-04-23T13:33:45.000Z</time>
      </trkpt>
      <trkpt lat="45.36416" lon="5.66034">
        <ele>667.4</ele>
        <time>2021-04-23T13:33:55.000Z</time>
      </trkpt>
      <trkpt lat="45.36393" lon="5.66056">
        <ele>663</ele>
        <time>2021-04-23T13:34:05.000Z</time>
      </trkpt>
      <trkpt lat="45.36355" lon="5.66066">
        <ele>660.9</ele>
        <time>2021-04-23T13:34:15.000Z</time>
      </trkpt>
      <trkpt lat="45.36319" lon="5.66095">
        <ele>659.9</ele>
        <time>2021-04-23T13:34:25.000Z</time>
      </trkpt>
      <trkpt lat="45.36286" lon="5.66107">
        <ele>660.3</ele>
        <time>2021-04-23T13:34:35.000Z</time>
      </trkpt>
      <trkpt lat="45.36253" lon="5.66099">
        <ele>661.4</ele>
        <time>2021-04-23T13:34:45.000Z</time>
      </trkpt>
      <trkpt lat="45.3621" lon="5.66109">
        <ele>661</ele>
        <time>2021-04-23T13:34:55.000Z</time>
      </trkpt>
      <trkpt lat="45.36169" lon="5.66132">
        <ele>663.4</ele>
        <time>2021-04-23T13:35:05.000Z</time>
      </trkpt>
      <trkpt lat="45.36141" lon="5.6616">
        <ele>664.4</ele>
        <time>2021-04-23T13:35:15.000Z</time>
      </trkpt>
      <trkpt lat="45.36118" lon="5.66161">
        <ele>665.3</ele>
        <time>2021-04-23T13:35:25.000Z</time>
      </trkpt>
      <trkpt lat="45.36114" lon="5.66186">
        <ele>663.9</ele>
        <time>2021-04-23T13:35:35.000Z</time>
      </trkpt>
      <trkpt lat="45.36115" lon="5.6622">
        <ele>660.2</ele>
        <time>2021-04-23T13:35:45.000Z</time>
      </trkpt>
      <trkpt lat="45.36124" lon="5.66263">
        <ele>656.5</ele>
        <time>2021-04-23T13:35:55.000Z</time>
      </trkpt>
      <trkpt lat="45.36127" lon="5.66305">
        <ele>651.5</ele>
        <time>2021-04-23T13:36:05.000Z</time>
      </trkpt>
      <trkpt lat="45.36127" lon="5.66304">
        <ele>649.9</ele>
        <time>2021-04-23T13:36:15.000Z</time>
      </trkpt>
      <trkpt lat="45.36127" lon="5.66305">
        <ele>651</ele>
        <time>2021-04-23T13:36:27.000Z</time>
      </trkpt>
      <trkpt lat="45.36119" lon="5.66358">
        <ele>646.7</ele>
        <time>2021-04-23T13:36:37.000Z</time>
      </trkpt>
      <trkpt lat="45.36117" lon="5.66408">
        <ele>642.8</ele>
        <time>2021-04-23T13:36:47.000Z</time>
      </trkpt>
      <trkpt lat="45.36084" lon="5.66433">
        <ele>642.8</ele>
        <time>2021-04-23T13:36:57.000Z</time>
      </trkpt>
      <trkpt lat="45.36077" lon="5.66435">
        <ele>641.5</ele>
        <time>2021-04-23T13:37:07.000Z</time>
      </trkpt>
      <trkpt lat="45.36052" lon="5.66426">
        <ele>644</ele>
        <time>2021-04-23T13:37:17.000Z</time>
      </trkpt>
      <trkpt lat="45.36023" lon="5.66403">
        <ele>645</ele>
        <time>2021-04-23T13:37:27.000Z</time>
      </trkpt>
      <trkpt lat="45.35979" lon="5.66399">
        <ele>641.1</ele>
        <time>2021-04-23T13:37:37.000Z</time>
      </trkpt>
      <trkpt lat="45.35952" lon="5.6643">
        <ele>642.1</ele>
        <time>2021-04-23T13:37:47.000Z</time>
      </trkpt>
      <trkpt lat="45.35919" lon="5.66438">
        <ele>643.9</ele>
        <time>2021-04-23T13:37:57.000Z</time>
      </trkpt>
      <trkpt lat="45.35895" lon="5.66434">
        <ele>644.5</ele>
        <time>2021-04-23T13:38:07.000Z</time>
      </trkpt>
      <trkpt lat="45.35879" lon="5.66431">
        <ele>650.1</ele>
        <time>2021-04-23T13:38:17.000Z</time>
      </trkpt>
      <trkpt lat="45.35862" lon="5.66422">
        <ele>650.2</ele>
        <time>2021-04-23T13:38:27.000Z</time>
      </trkpt>
      <trkpt lat="45.35852" lon="5.66435">
        <ele>647.2</ele>
        <time>2021-04-23T13:38:37.000Z</time>
      </trkpt>
      <trkpt lat="45.35835" lon="5.66466">
        <ele>649.1</ele>
        <time>2021-04-23T13:38:47.000Z</time>
      </trkpt>
      <trkpt lat="45.35826" lon="5.66492">
        <ele>648.1</ele>
        <time>2021-04-23T13:38:57.000Z</time>
      </trkpt>
      <trkpt lat="45.35828" lon="5.66508">
        <ele>649.5</ele>
        <time>2021-04-23T13:39:07.000Z</time>
      </trkpt>
      <trkpt lat="45.35828" lon="5.66513">
        <ele>649.1</ele>
        <time>2021-04-23T13:39:17.000Z</time>
      </trkpt>
      <trkpt lat="45.35808" lon="5.66525">
        <ele>647.4</ele>
        <time>2021-04-23T13:39:27.000Z</time>
      </trkpt>
      <trkpt lat="45.35786" lon="5.66534">
        <ele>652.2</ele>
        <time>2021-04-23T13:39:37.000Z</time>
      </trkpt>
      <trkpt lat="45.35779" lon="5.66531">
        <ele>653.2</ele>
        <time>2021-04-23T13:39:47.000Z</time>
      </trkpt>
      <trkpt lat="45.35778" lon="5.6653">
        <ele>651</ele>
        <time>2021-04-23T13:40:18.000Z</time>
      </trkpt>
      <trkpt lat="45.35764" lon="5.66521">
        <ele>649.8</ele>
        <time>2021-04-23T13:40:28.000Z</time>
      </trkpt>
      <trkpt lat="45.35759" lon="5.66522">
        <ele>654.6</ele>
        <time>2021-04-23T13:40:38.000Z</time>
      </trkpt>
      <trkpt lat="45.35756" lon="5.6652">
        <ele>656.8</ele>
        <time>2021-04-23T13:40:48.000Z</time>
      </trkpt>
      <trkpt lat="45.35756" lon="5.66519">
        <ele>654.8</ele>
        <time>2021-04-23T13:41:00.000Z</time>
      </trkpt>
      <trkpt lat="45.35754" lon="5.66517">
        <ele>654.1</ele>
        <time>2021-04-23T13:41:10.000Z</time>
      </trkpt>
      <trkpt lat="45.35754" lon="5.66518">
        <ele>656.9</ele>
        <time>2021-04-23T13:41:22.000Z</time>
      </trkpt>
      <trkpt lat="45.35752" lon="5.66519">
        <ele>658</ele>
        <time>2021-04-23T13:41:32.000Z</time>
      </trkpt>
      <trkpt lat="45.35752" lon="5.66519">
        <ele>657.8</ele>
        <time>2021-04-23T13:41:42.000Z</time>
      </trkpt>
      <trkpt lat="45.35751" lon="5.6652">
        <ele>658.3</ele>
        <time>2021-04-23T13:42:28.000Z</time>
      </trkpt>
      <trkpt lat="45.35747" lon="5.66518">
        <ele>657.9</ele>
        <time>2021-04-23T13:42:38.000Z</time>
      </trkpt>
      <trkpt lat="45.35749" lon="5.66519">
        <ele>658.3</ele>
        <time>2021-04-23T13:42:48.000Z</time>
      </trkpt>
      <trkpt lat="45.35748" lon="5.6652">
        <ele>659</ele>
        <time>2021-04-23T13:43:03.000Z</time>
      </trkpt>
      <trkpt lat="45.35741" lon="5.66522">
        <ele>658.1</ele>
        <time>2021-04-23T13:43:13.000Z</time>
      </trkpt>
      <trkpt lat="45.35725" lon="5.6652">
        <ele>661.2</ele>
        <time>2021-04-23T13:43:23.000Z</time>
      </trkpt>
      <trkpt lat="45.35711" lon="5.66507">
        <ele>665.1</ele>
        <time>2021-04-23T13:43:33.000Z</time>
      </trkpt>
      <trkpt lat="45.35696" lon="5.66489">
        <ele>666.3</ele>
        <time>2021-04-23T13:43:43.000Z</time>
      </trkpt>
      <trkpt lat="45.35687" lon="5.66469">
        <ele>664.7</ele>
        <time>2021-04-23T13:43:53.000Z</time>
      </trkpt>
      <trkpt lat="45.35676" lon="5.66444">
        <ele>671.9</ele>
        <time>2021-04-23T13:44:03.000Z</time>
      </trkpt>
      <trkpt lat="45.35662" lon="5.6643">
        <ele>670.4</ele>
        <time>2021-04-23T13:44:13.000Z</time>
      </trkpt>
      <trkpt lat="45.35661" lon="5.66408">
        <ele>672.5</ele>
        <time>2021-04-23T13:44:23.000Z</time>
      </trkpt>
      <trkpt lat="45.35666" lon="5.66384">
        <ele>674</ele>
        <time>2021-04-23T13:44:33.000Z</time>
      </trkpt>
      <trkpt lat="45.35682" lon="5.66367">
        <ele>670</ele>
        <time>2021-04-23T13:44:43.000Z</time>
      </trkpt>
      <trkpt lat="45.35689" lon="5.6634">
        <ele>666.8</ele>
        <time>2021-04-23T13:44:53.000Z</time>
      </trkpt>
      <trkpt lat="45.35673" lon="5.6631">
        <ele>670.8</ele>
        <time>2021-04-23T13:45:03.000Z</time>
      </trkpt>
      <trkpt lat="45.35653" lon="5.66301">
        <ele>674.7</ele>
        <time>2021-04-23T13:45:13.000Z</time>
      </trkpt>
      <trkpt lat="45.35631" lon="5.66296">
        <ele>678.3</ele>
        <time>2021-04-23T13:45:23.000Z</time>
      </trkpt>
      <trkpt lat="45.35613" lon="5.66306">
        <ele>683.3</ele>
        <time>2021-04-23T13:45:33.000Z</time>
      </trkpt>
      <trkpt lat="45.35603" lon="5.66329">
        <ele>683.2</ele>
        <time>2021-04-23T13:45:43.000Z</time>
      </trkpt>
      <trkpt lat="45.35585" lon="5.66351">
        <ele>681.4</ele>
        <time>2021-04-23T13:45:53.000Z</time>
      </trkpt>
      <trkpt lat="45.35555" lon="5.66335">
        <ele>678.7</ele>
        <time>2021-04-23T13:46:03.000Z</time>
      </trkpt>
      <trkpt lat="45.35527" lon="5.66304">
        <ele>675.7</ele>
        <time>2021-04-23T13:46:13.000Z</time>
      </trkpt>
      <trkpt lat="45.35495" lon="5.66285">
        <ele>674.3</ele>
        <time>2021-04-23T13:46:23.000Z</time>
      </trkpt>
      <trkpt lat="45.35485" lon="5.66271">
        <ele>675.5</ele>
        <time>2021-04-23T13:46:33.000Z</time>
      </trkpt>
      <trkpt lat="45.35479" lon="5.66262">
        <ele>678.7</ele>
        <time>2021-04-23T13:46:43.000Z</time>
      </trkpt>
      <trkpt lat="45.35471" lon="5.66256">
        <ele>675.9</ele>
        <time>2021-04-23T13:46:53.000Z</time>
      </trkpt>
      <trkpt lat="45.35459" lon="5.66235">
        <ele>678.1</ele>
        <time>2021-04-23T13:47:03.000Z</time>
      </trkpt>
      <trkpt lat="45.35439" lon="5.66221">
        <ele>677.8</ele>
        <time>2021-04-23T13:47:13.000Z</time>
      </trkpt>
      <trkpt lat="45.35414" lon="5.66212">
        <ele>677.3</ele>
        <time>2021-04-23T13:47:23.000Z</time>
      </trkpt>
      <trkpt lat="45.35401" lon="5.6621">
        <ele>678.8</ele>
        <time>2021-04-23T13:47:33.000Z</time>
      </trkpt>
      <trkpt lat="45.35401" lon="5.66208">
        <ele>680.7</ele>
        <time>2021-04-23T13:47:43.000Z</time>
      </trkpt>
      <trkpt lat="45.35401" lon="5.66207">
        <ele>680.8</ele>
        <time>2021-04-23T13:47:53.000Z</time>
      </trkpt>
      <trkpt lat="45.35399" lon="5.66207">
        <ele>681.6</ele>
        <time>2021-04-23T13:48:08.000Z</time>
      </trkpt>
      <trkpt lat="45.35384" lon="5.66201">
        <ele>680.9</ele>
        <time>2021-04-23T13:48:18.000Z</time>
      </trkpt>
      <trkpt lat="45.3535" lon="5.66198">
        <ele>677.1</ele>
        <time>2021-04-23T13:48:28.000Z</time>
      </trkpt>
      <trkpt lat="45.3531" lon="5.66186">
        <ele>671.9</ele>
        <time>2021-04-23T13:48:38.000Z</time>
      </trkpt>
      <trkpt lat="45.35288" lon="5.66144">
        <ele>667.5</ele>
        <time>2021-04-23T13:48:48.000Z</time>
      </trkpt>
      <trkpt lat="45.35271" lon="5.6608">
        <ele>665.8</ele>
        <time>2021-04-23T13:48:58.000Z</time>
      </trkpt>
      <trkpt lat="45.3523" lon="5.66054">
        <ele>662.1</ele>
        <time>2021-04-23T13:49:08.000Z</time>
      </trkpt>
      <trkpt lat="45.35193" lon="5.66019">
        <ele>662.7</ele>
        <time>2021-04-23T13:49:18.000Z</time>
      </trkpt>
      <trkpt lat="45.35168" lon="5.65976">
        <ele>665.7</ele>
        <time>2021-04-23T13:49:28.000Z</time>
      </trkpt>
      <trkpt lat="45.35145" lon="5.65942">
        <ele>668.1</ele>
        <time>2021-04-23T13:49:38.000Z</time>
      </trkpt>
      <trkpt lat="45.35136" lon="5.65942">
        <ele>666.4</ele>
        <time>2021-04-23T13:49:48.000Z</time>
      </trkpt>
      <trkpt lat="45.35126" lon="5.6591">
        <ele>667.6</ele>
        <time>2021-04-23T13:49:58.000Z</time>
      </trkpt>
      <trkpt lat="45.35109" lon="5.65872">
        <ele>669.9</ele>
        <time>2021-04-23T13:50:08.000Z</time>
      </trkpt>
      <trkpt lat="45.35092" lon="5.65833">
        <ele>671.2</ele>
        <time>2021-04-23T13:50:18.000Z</time>
      </trkpt>
      <trkpt lat="45.35075" lon="5.65795">
        <ele>673.4</ele>
        <time>2021-04-23T13:50:28.000Z</time>
      </trkpt>
      <trkpt lat="45.35059" lon="5.65752">
        <ele>674.4</ele>
        <time>2021-04-23T13:50:38.000Z</time>
      </trkpt>
      <trkpt lat="45.35054" lon="5.65703">
        <ele>675.3</ele>
        <time>2021-04-23T13:50:48.000Z</time>
      </trkpt>
      <trkpt lat="45.35036" lon="5.657">
        <ele>676</ele>
        <time>2021-04-23T13:50:58.000Z</time>
      </trkpt>
      <trkpt lat="45.35031" lon="5.65702">
        <ele>676</ele>
        <time>2021-04-23T13:51:08.000Z</time>
      </trkpt>
      <trkpt lat="45.3503" lon="5.65703">
        <ele>674.9</ele>
        <time>2021-04-23T13:51:18.000Z</time>
      </trkpt>
      <trkpt lat="45.35029" lon="5.65706">
        <ele>675</ele>
        <time>2021-04-23T13:51:28.000Z</time>
      </trkpt>
      <trkpt lat="45.3503" lon="5.65708">
        <ele>675.8</ele>
        <time>2021-04-23T13:51:40.000Z</time>
      </trkpt>
      <trkpt lat="45.35042" lon="5.65702">
        <ele>676.3</ele>
        <time>2021-04-23T13:51:50.000Z</time>
      </trkpt>
      <trkpt lat="45.35058" lon="5.65741">
        <ele>675.6</ele>
        <time>2021-04-23T13:52:00.000Z</time>
      </trkpt>
      <trkpt lat="45.35073" lon="5.65796">
        <ele>672.9</ele>
        <time>2021-04-23T13:52:10.000Z</time>
      </trkpt>
      <trkpt lat="45.35108" lon="5.65874">
        <ele>667.6</ele>
        <time>2021-04-23T13:52:20.000Z</time>
      </trkpt>
      <trkpt lat="45.35128" lon="5.65949">
        <ele>662.4</ele>
        <time>2021-04-23T13:52:30.000Z</time>
      </trkpt>
      <trkpt lat="45.35065" lon="5.65964">
        <ele>656.9</ele>
        <time>2021-04-23T13:52:40.000Z</time>
      </trkpt>
      <trkpt lat="45.34997" lon="5.66001">
        <ele>653.3</ele>
        <time>2021-04-23T13:52:50.000Z</time>
      </trkpt>
      <trkpt lat="45.34969" lon="5.66052">
        <ele>651.8</ele>
        <time>2021-04-23T13:53:00.000Z</time>
      </trkpt>
      <trkpt lat="45.35004" lon="5.66126">
        <ele>644.4</ele>
        <time>2021-04-23T13:53:10.000Z</time>
      </trkpt>
      <trkpt lat="45.35028" lon="5.66192">
        <ele>639.2</ele>
        <time>2021-04-23T13:53:20.000Z</time>
      </trkpt>
      <trkpt lat="45.34988" lon="5.66218">
        <ele>640.6</ele>
        <time>2021-04-23T13:53:30.000Z</time>
      </trkpt>
      <trkpt lat="45.34946" lon="5.66198">
        <ele>640.1</ele>
        <time>2021-04-23T13:53:40.000Z</time>
      </trkpt>
      <trkpt lat="45.34908" lon="5.66151">
        <ele>640.5</ele>
        <time>2021-04-23T13:53:50.000Z</time>
      </trkpt>
      <trkpt lat="45.34872" lon="5.66116">
        <ele>643.8</ele>
        <time>2021-04-23T13:54:00.000Z</time>
      </trkpt>
      <trkpt lat="45.34838" lon="5.66106">
        <ele>647.7</ele>
        <time>2021-04-23T13:54:10.000Z</time>
      </trkpt>
      <trkpt lat="45.34801" lon="5.66101">
        <ele>647</ele>
        <time>2021-04-23T13:54:20.000Z</time>
      </trkpt>
      <trkpt lat="45.34746" lon="5.66083">
        <ele>644</ele>
        <time>2021-04-23T13:54:30.000Z</time>
      </trkpt>
      <trkpt lat="45.34701" lon="5.66058">
        <ele>644</ele>
        <time>2021-04-23T13:54:40.000Z</time>
      </trkpt>
      <trkpt lat="45.34673" lon="5.66043">
        <ele>645.1</ele>
        <time>2021-04-23T13:54:50.000Z</time>
      </trkpt>
      <trkpt lat="45.34643" lon="5.66026">
        <ele>645.9</ele>
        <time>2021-04-23T13:55:00.000Z</time>
      </trkpt>
      <trkpt lat="45.34616" lon="5.66">
        <ele>648.8</ele>
        <time>2021-04-23T13:55:10.000Z</time>
      </trkpt>
      <trkpt lat="45.34592" lon="5.65981">
        <ele>649.8</ele>
        <time>2021-04-23T13:55:20.000Z</time>
      </trkpt>
      <trkpt lat="45.34566" lon="5.65973">
        <ele>655.2</ele>
        <time>2021-04-23T13:55:30.000Z</time>
      </trkpt>
      <trkpt lat="45.34545" lon="5.65967">
        <ele>655.6</ele>
        <time>2021-04-23T13:55:40.000Z</time>
      </trkpt>
      <trkpt lat="45.34524" lon="5.65966">
        <ele>656.4</ele>
        <time>2021-04-23T13:55:50.000Z</time>
      </trkpt>
      <trkpt lat="45.34505" lon="5.6597">
        <ele>655.2</ele>
        <time>2021-04-23T13:56:00.000Z</time>
      </trkpt>
      <trkpt lat="45.34504" lon="5.65968">
        <ele>655.9</ele>
        <time>2021-04-23T13:56:10.000Z</time>
      </trkpt>
      <trkpt lat="45.34496" lon="5.65969">
        <ele>654</ele>
        <time>2021-04-23T13:56:20.000Z</time>
      </trkpt>
      <trkpt lat="45.34463" lon="5.6598">
        <ele>655.5</ele>
        <time>2021-04-23T13:56:30.000Z</time>
      </trkpt>
      <trkpt lat="45.34435" lon="5.65993">
        <ele>655.4</ele>
        <time>2021-04-23T13:56:40.000Z</time>
      </trkpt>
      <trkpt lat="45.34408" lon="5.66018">
        <ele>658.1</ele>
        <time>2021-04-23T13:56:50.000Z</time>
      </trkpt>
      <trkpt lat="45.3438" lon="5.66045">
        <ele>656.4</ele>
        <time>2021-04-23T13:57:00.000Z</time>
      </trkpt>
      <trkpt lat="45.34355" lon="5.66075">
        <ele>654.3</ele>
        <time>2021-04-23T13:57:10.000Z</time>
      </trkpt>
      <trkpt lat="45.34315" lon="5.66081">
        <ele>655.3</ele>
        <time>2021-04-23T13:57:20.000Z</time>
      </trkpt>
      <trkpt lat="45.34283" lon="5.66068">
        <ele>658.2</ele>
        <time>2021-04-23T13:57:30.000Z</time>
      </trkpt>
      <trkpt lat="45.34251" lon="5.66054">
        <ele>660.2</ele>
        <time>2021-04-23T13:57:40.000Z</time>
      </trkpt>
      <trkpt lat="45.34222" lon="5.66032">
        <ele>660.6</ele>
        <time>2021-04-23T13:57:50.000Z</time>
      </trkpt>
      <trkpt lat="45.34196" lon="5.6601">
        <ele>662</ele>
        <time>2021-04-23T13:58:00.000Z</time>
      </trkpt>
      <trkpt lat="45.34165" lon="5.65997">
        <ele>668.5</ele>
        <time>2021-04-23T13:58:10.000Z</time>
      </trkpt>
      <trkpt lat="45.34131" lon="5.6596">
        <ele>665.2</ele>
        <time>2021-04-23T13:58:20.000Z</time>
      </trkpt>
      <trkpt lat="45.34091" lon="5.65954">
        <ele>664.9</ele>
        <time>2021-04-23T13:58:30.000Z</time>
      </trkpt>
      <trkpt lat="45.34049" lon="5.65958">
        <ele>663.4</ele>
        <time>2021-04-23T13:58:40.000Z</time>
      </trkpt>
      <trkpt lat="45.33975" lon="5.65928">
        <ele>659.4</ele>
        <time>2021-04-23T13:58:50.000Z</time>
      </trkpt>
      <trkpt lat="45.33931" lon="5.65908">
        <ele>662.7</ele>
        <time>2021-04-23T13:59:00.000Z</time>
      </trkpt>
      <trkpt lat="45.33882" lon="5.65869">
        <ele>661.2</ele>
        <time>2021-04-23T13:59:10.000Z</time>
      </trkpt>
      <trkpt lat="45.33859" lon="5.65831">
        <ele>657.3</ele>
        <time>2021-04-23T13:59:20.000Z</time>
      </trkpt>
      <trkpt lat="45.33847" lon="5.65816">
        <ele>657.8</ele>
        <time>2021-04-23T13:59:30.000Z</time>
      </trkpt>
      <trkpt lat="45.33842" lon="5.65793">
        <ele>648.1</ele>
        <time>2021-04-23T13:59:40.000Z</time>
      </trkpt>
      <trkpt lat="45.33836" lon="5.65751">
        <ele>651.9</ele>
        <time>2021-04-23T13:59:50.000Z</time>
      </trkpt>
      <trkpt lat="45.33837" lon="5.65712">
        <ele>652.1</ele>
        <time>2021-04-23T14:00:00.000Z</time>
      </trkpt>
      <trkpt lat="45.33842" lon="5.65676">
        <ele>652</ele>
        <time>2021-04-23T14:00:10.000Z</time>
      </trkpt>
      <trkpt lat="45.33834" lon="5.65646">
        <ele>662.5</ele>
        <time>2021-04-23T14:00:20.000Z</time>
      </trkpt>
      <trkpt lat="45.33826" lon="5.65614">
        <ele>663.2</ele>
        <time>2021-04-23T14:00:30.000Z</time>
      </trkpt>
      <trkpt lat="45.33825" lon="5.65579">
        <ele>666.7</ele>
        <time>2021-04-23T14:00:40.000Z</time>
      </trkpt>
      <trkpt lat="45.33831" lon="5.65548">
        <ele>669.5</ele>
        <time>2021-04-23T14:00:50.000Z</time>
      </trkpt>
      <trkpt lat="45.33846" lon="5.65529">
        <ele>673.5</ele>
        <time>2021-04-23T14:01:00.000Z</time>
      </trkpt>
      <trkpt lat="45.33863" lon="5.65511">
        <ele>675.1</ele>
        <time>2021-04-23T14:01:10.000Z</time>
      </trkpt>
      <trkpt lat="45.33875" lon="5.65488">
        <ele>683.4</ele>
        <time>2021-04-23T14:01:20.000Z</time>
      </trkpt>
      <trkpt lat="45.33885" lon="5.65463">
        <ele>686.5</ele>
        <time>2021-04-23T14:01:30.000Z</time>
      </trkpt>
      <trkpt lat="45.33891" lon="5.65448">
        <ele>685.9</ele>
        <time>2021-04-23T14:01:40.000Z</time>
      </trkpt>
      <trkpt lat="45.33891" lon="5.65447">
        <ele>686.1</ele>
        <time>2021-04-23T14:01:56.000Z</time>
      </trkpt>
      <trkpt lat="45.3389" lon="5.65448">
        <ele>687.3</ele>
        <time>2021-04-23T14:02:35.000Z</time>
      </trkpt>
      <trkpt lat="45.3389" lon="5.65445">
        <ele>688.1</ele>
        <time>2021-04-23T14:04:08.000Z</time>
      </trkpt>
      <trkpt lat="45.33886" lon="5.65412">
        <ele>687.8</ele>
        <time>2021-04-23T14:04:18.000Z</time>
      </trkpt>
      <trkpt lat="45.3388" lon="5.65371">
        <ele>687.4</ele>
        <time>2021-04-23T14:04:28.000Z</time>
      </trkpt>
      <trkpt lat="45.33874" lon="5.65322">
        <ele>685.5</ele>
        <time>2021-04-23T14:04:38.000Z</time>
      </trkpt>
      <trkpt lat="45.33856" lon="5.6527">
        <ele>682.5</ele>
        <time>2021-04-23T14:04:48.000Z</time>
      </trkpt>
      <trkpt lat="45.33823" lon="5.6523">
        <ele>680.8</ele>
        <time>2021-04-23T14:04:58.000Z</time>
      </trkpt>
      <trkpt lat="45.33799" lon="5.65202">
        <ele>682</ele>
        <time>2021-04-23T14:05:08.000Z</time>
      </trkpt>
      <trkpt lat="45.33784" lon="5.65153">
        <ele>682.5</ele>
        <time>2021-04-23T14:05:18.000Z</time>
      </trkpt>
      <trkpt lat="45.33773" lon="5.65094">
        <ele>679.3</ele>
        <time>2021-04-23T14:05:28.000Z</time>
      </trkpt>
      <trkpt lat="45.33771" lon="5.65033">
        <ele>678.1</ele>
        <time>2021-04-23T14:05:38.000Z</time>
      </trkpt>
      <trkpt lat="45.33781" lon="5.64957">
        <ele>675.6</ele>
        <time>2021-04-23T14:05:48.000Z</time>
      </trkpt>
      <trkpt lat="45.3374" lon="5.64907">
        <ele>674.9</ele>
        <time>2021-04-23T14:05:58.000Z</time>
      </trkpt>
      <trkpt lat="45.33692" lon="5.64876">
        <ele>674.3</ele>
        <time>2021-04-23T14:06:08.000Z</time>
      </trkpt>
      <trkpt lat="45.33647" lon="5.64845">
        <ele>675.7</ele>
        <time>2021-04-23T14:06:18.000Z</time>
      </trkpt>
      <trkpt lat="45.33609" lon="5.64813">
        <ele>679.2</ele>
        <time>2021-04-23T14:06:28.000Z</time>
      </trkpt>
      <trkpt lat="45.33573" lon="5.64793">
        <ele>683.7</ele>
        <time>2021-04-23T14:06:38.000Z</time>
      </trkpt>
      <trkpt lat="45.33539" lon="5.64783">
        <ele>686.3</ele>
        <time>2021-04-23T14:06:48.000Z</time>
      </trkpt>
      <trkpt lat="45.33513" lon="5.64775">
        <ele>689.4</ele>
        <time>2021-04-23T14:06:58.000Z</time>
      </trkpt>
      <trkpt lat="45.33504" lon="5.64771">
        <ele>689.2</ele>
        <time>2021-04-23T14:07:08.000Z</time>
      </trkpt>
      <trkpt lat="45.33501" lon="5.64769">
        <ele>685.1</ele>
        <time>2021-04-23T14:07:18.000Z</time>
      </trkpt>
      <trkpt lat="45.335" lon="5.64769">
        <ele>686.6</ele>
        <time>2021-04-23T14:08:40.000Z</time>
      </trkpt>
      <trkpt lat="45.33477" lon="5.64762">
        <ele>693.4</ele>
        <time>2021-04-23T14:08:50.000Z</time>
      </trkpt>
      <trkpt lat="45.33444" lon="5.64763">
        <ele>695.9</ele>
        <time>2021-04-23T14:09:00.000Z</time>
      </trkpt>
      <trkpt lat="45.33412" lon="5.64764">
        <ele>696.8</ele>
        <time>2021-04-23T14:09:10.000Z</time>
      </trkpt>
      <trkpt lat="45.33378" lon="5.64767">
        <ele>698.1</ele>
        <time>2021-04-23T14:09:20.000Z</time>
      </trkpt>
      <trkpt lat="45.33344" lon="5.64783">
        <ele>698.7</ele>
        <time>2021-04-23T14:09:30.000Z</time>
      </trkpt>
      <trkpt lat="45.33315" lon="5.648">
        <ele>702.5</ele>
        <time>2021-04-23T14:09:40.000Z</time>
      </trkpt>
      <trkpt lat="45.33283" lon="5.64814">
        <ele>706.6</ele>
        <time>2021-04-23T14:09:50.000Z</time>
      </trkpt>
      <trkpt lat="45.3327" lon="5.64773">
        <ele>708.6</ele>
        <time>2021-04-23T14:10:00.000Z</time>
      </trkpt>
      <trkpt lat="45.33302" lon="5.64753">
        <ele>710.2</ele>
        <time>2021-04-23T14:10:10.000Z</time>
      </trkpt>
      <trkpt lat="45.33333" lon="5.64747">
        <ele>711.7</ele>
        <time>2021-04-23T14:10:20.000Z</time>
      </trkpt>
      <trkpt lat="45.33363" lon="5.6472">
        <ele>713.5</ele>
        <time>2021-04-23T14:10:30.000Z</time>
      </trkpt>
      <trkpt lat="45.33398" lon="5.64697">
        <ele>718.2</ele>
        <time>2021-04-23T14:10:40.000Z</time>
      </trkpt>
      <trkpt lat="45.33425" lon="5.64684">
        <ele>722.3</ele>
        <time>2021-04-23T14:10:50.000Z</time>
      </trkpt>
      <trkpt lat="45.33457" lon="5.64661">
        <ele>725.5</ele>
        <time>2021-04-23T14:11:00.000Z</time>
      </trkpt>
      <trkpt lat="45.33487" lon="5.64648">
        <ele>731.6</ele>
        <time>2021-04-23T14:11:10.000Z</time>
      </trkpt>
      <trkpt lat="45.33514" lon="5.64621">
        <ele>731.6</ele>
        <time>2021-04-23T14:11:20.000Z</time>
      </trkpt>
      <trkpt lat="45.33513" lon="5.64603">
        <ele>732.3</ele>
        <time>2021-04-23T14:11:30.000Z</time>
      </trkpt>
      <trkpt lat="45.33487" lon="5.64605">
        <ele>733.2</ele>
        <time>2021-04-23T14:11:40.000Z</time>
      </trkpt>
      <trkpt lat="45.3347" lon="5.64599">
        <ele>737.7</ele>
        <time>2021-04-23T14:11:50.000Z</time>
      </trkpt>
      <trkpt lat="45.33448" lon="5.64589">
        <ele>739.9</ele>
        <time>2021-04-23T14:12:00.000Z</time>
      </trkpt>
      <trkpt lat="45.33429" lon="5.64585">
        <ele>745</ele>
        <time>2021-04-23T14:12:10.000Z</time>
      </trkpt>
      <trkpt lat="45.33409" lon="5.64584">
        <ele>746.8</ele>
        <time>2021-04-23T14:12:20.000Z</time>
      </trkpt>
      <trkpt lat="45.33388" lon="5.64584">
        <ele>748.8</ele>
        <time>2021-04-23T14:12:30.000Z</time>
      </trkpt>
      <trkpt lat="45.33371" lon="5.64594">
        <ele>747.6</ele>
        <time>2021-04-23T14:12:40.000Z</time>
      </trkpt>
      <trkpt lat="45.3335" lon="5.6462">
        <ele>748.6</ele>
        <time>2021-04-23T14:12:50.000Z</time>
      </trkpt>
      <trkpt lat="45.33329" lon="5.64634">
        <ele>754.8</ele>
        <time>2021-04-23T14:13:00.000Z</time>
      </trkpt>
      <trkpt lat="45.33306" lon="5.64627">
        <ele>754.1</ele>
        <time>2021-04-23T14:13:10.000Z</time>
      </trkpt>
      <trkpt lat="45.33283" lon="5.64611">
        <ele>753.3</ele>
        <time>2021-04-23T14:13:20.000Z</time>
      </trkpt>
      <trkpt lat="45.3326" lon="5.64603">
        <ele>754.7</ele>
        <time>2021-04-23T14:13:30.000Z</time>
      </trkpt>
      <trkpt lat="45.33239" lon="5.64597">
        <ele>754.5</ele>
        <time>2021-04-23T14:13:40.000Z</time>
      </trkpt>
      <trkpt lat="45.3322" lon="5.64595">
        <ele>758.6</ele>
        <time>2021-04-23T14:13:50.000Z</time>
      </trkpt>
      <trkpt lat="45.33195" lon="5.64603">
        <ele>759.5</ele>
        <time>2021-04-23T14:14:00.000Z</time>
      </trkpt>
      <trkpt lat="45.33169" lon="5.64613">
        <ele>759.3</ele>
        <time>2021-04-23T14:14:10.000Z</time>
      </trkpt>
      <trkpt lat="45.33149" lon="5.64632">
        <ele>761.8</ele>
        <time>2021-04-23T14:14:20.000Z</time>
      </trkpt>
      <trkpt lat="45.3313" lon="5.64663">
        <ele>762.1</ele>
        <time>2021-04-23T14:14:30.000Z</time>
      </trkpt>
      <trkpt lat="45.33111" lon="5.6465">
        <ele>762.5</ele>
        <time>2021-04-23T14:14:40.000Z</time>
      </trkpt>
      <trkpt lat="45.33099" lon="5.64616">
        <ele>761.2</ele>
        <time>2021-04-23T14:14:50.000Z</time>
      </trkpt>
      <trkpt lat="45.33073" lon="5.64606">
        <ele>763.1</ele>
        <time>2021-04-23T14:15:00.000Z</time>
      </trkpt>
      <trkpt lat="45.33042" lon="5.64614">
        <ele>767</ele>
        <time>2021-04-23T14:15:10.000Z</time>
      </trkpt>
      <trkpt lat="45.33017" lon="5.64626">
        <ele>770.3</ele>
        <time>2021-04-23T14:15:20.000Z</time>
      </trkpt>
      <trkpt lat="45.3299" lon="5.64636">
        <ele>770.3</ele>
        <time>2021-04-23T14:15:30.000Z</time>
      </trkpt>
      <trkpt lat="45.32963" lon="5.64629">
        <ele>772.5</ele>
        <time>2021-04-23T14:15:40.000Z</time>
      </trkpt>
      <trkpt lat="45.3294" lon="5.64614">
        <ele>774.9</ele>
        <time>2021-04-23T14:15:50.000Z</time>
      </trkpt>
      <trkpt lat="45.3292" lon="5.64591">
        <ele>778.3</ele>
        <time>2021-04-23T14:16:00.000Z</time>
      </trkpt>
      <trkpt lat="45.32904" lon="5.64573">
        <ele>780.9</ele>
        <time>2021-04-23T14:16:10.000Z</time>
      </trkpt>
      <trkpt lat="45.32896" lon="5.64544">
        <ele>785.1</ele>
        <time>2021-04-23T14:16:20.000Z</time>
      </trkpt>
      <trkpt lat="45.32886" lon="5.6452">
        <ele>787.3</ele>
        <time>2021-04-23T14:16:30.000Z</time>
      </trkpt>
      <trkpt lat="45.32887" lon="5.64518">
        <ele>788.1</ele>
        <time>2021-04-23T14:16:40.000Z</time>
      </trkpt>
      <trkpt lat="45.32885" lon="5.64519">
        <ele>786.2</ele>
        <time>2021-04-23T14:17:41.000Z</time>
      </trkpt>
      <trkpt lat="45.32884" lon="5.64518">
        <ele>784.7</ele>
        <time>2021-04-23T14:19:06.000Z</time>
      </trkpt>
      <trkpt lat="45.32883" lon="5.64519">
        <ele>784.1</ele>
        <time>2021-04-23T14:19:16.000Z</time>
      </trkpt>
      <trkpt lat="45.32884" lon="5.6452">
        <ele>785.3</ele>
        <time>2021-04-23T14:20:21.000Z</time>
      </trkpt>
      <trkpt lat="45.32871" lon="5.64498">
        <ele>786.4</ele>
        <time>2021-04-23T14:20:31.000Z</time>
      </trkpt>
      <trkpt lat="45.32861" lon="5.64462">
        <ele>787</ele>
        <time>2021-04-23T14:20:41.000Z</time>
      </trkpt>
      <trkpt lat="45.32847" lon="5.64422">
        <ele>785.4</ele>
        <time>2021-04-23T14:20:51.000Z</time>
      </trkpt>
      <trkpt lat="45.32823" lon="5.64429">
        <ele>785.6</ele>
        <time>2021-04-23T14:21:01.000Z</time>
      </trkpt>
      <trkpt lat="45.32802" lon="5.64448">
        <ele>789.2</ele>
        <time>2021-04-23T14:21:11.000Z</time>
      </trkpt>
      <trkpt lat="45.32783" lon="5.64468">
        <ele>790.6</ele>
        <time>2021-04-23T14:21:21.000Z</time>
      </trkpt>
      <trkpt lat="45.32763" lon="5.64487">
        <ele>790.8</ele>
        <time>2021-04-23T14:21:31.000Z</time>
      </trkpt>
      <trkpt lat="45.32739" lon="5.64502">
        <ele>793.4</ele>
        <time>2021-04-23T14:21:41.000Z</time>
      </trkpt>
      <trkpt lat="45.32712" lon="5.64507">
        <ele>795.7</ele>
        <time>2021-04-23T14:21:51.000Z</time>
      </trkpt>
      <trkpt lat="45.32685" lon="5.64497">
        <ele>794.3</ele>
        <time>2021-04-23T14:22:01.000Z</time>
      </trkpt>
      <trkpt lat="45.32663" lon="5.64489">
        <ele>797</ele>
        <time>2021-04-23T14:22:11.000Z</time>
      </trkpt>
      <trkpt lat="45.32648" lon="5.64462">
        <ele>800.8</ele>
        <time>2021-04-23T14:22:21.000Z</time>
      </trkpt>
      <trkpt lat="45.3264" lon="5.64433">
        <ele>804.6</ele>
        <time>2021-04-23T14:22:31.000Z</time>
      </trkpt>
      <trkpt lat="45.32621" lon="5.64415">
        <ele>806.8</ele>
        <time>2021-04-23T14:22:41.000Z</time>
      </trkpt>
      <trkpt lat="45.32603" lon="5.64402">
        <ele>812.9</ele>
        <time>2021-04-23T14:22:51.000Z</time>
      </trkpt>
      <trkpt lat="45.32598" lon="5.64404">
        <ele>812.5</ele>
        <time>2021-04-23T14:23:01.000Z</time>
      </trkpt>
      <trkpt lat="45.32598" lon="5.64406">
        <ele>812.2</ele>
        <time>2021-04-23T14:23:11.000Z</time>
      </trkpt>
      <trkpt lat="45.32605" lon="5.64404">
        <ele>813.5</ele>
        <time>2021-04-23T14:23:21.000Z</time>
      </trkpt>
      <trkpt lat="45.32609" lon="5.64403">
        <ele>813.2</ele>
        <time>2021-04-23T14:23:31.000Z</time>
      </trkpt>
      <trkpt lat="45.32612" lon="5.64393">
        <ele>814.8</ele>
        <time>2021-04-23T14:23:41.000Z</time>
      </trkpt>
      <trkpt lat="45.32612" lon="5.64392">
        <ele>813.7</ele>
        <time>2021-04-23T14:24:25.000Z</time>
      </trkpt>
      <trkpt lat="45.32611" lon="5.64393">
        <ele>814.2</ele>
        <time>2021-04-23T14:24:35.000Z</time>
      </trkpt>
      <trkpt lat="45.3261" lon="5.64393">
        <ele>813.3</ele>
        <time>2021-04-23T14:25:16.000Z</time>
      </trkpt>
      <trkpt lat="45.32611" lon="5.64395">
        <ele>812.4</ele>
        <time>2021-04-23T14:25:26.000Z</time>
      </trkpt>
      <trkpt lat="45.32604" lon="5.64403">
        <ele>813</ele>
        <time>2021-04-23T14:25:36.000Z</time>
      </trkpt>
      <trkpt lat="45.32585" lon="5.64403">
        <ele>819.7</ele>
        <time>2021-04-23T14:25:46.000Z</time>
      </trkpt>
      <trkpt lat="45.32572" lon="5.64405">
        <ele>823.7</ele>
        <time>2021-04-23T14:25:56.000Z</time>
      </trkpt>
      <trkpt lat="45.32573" lon="5.64404">
        <ele>824.9</ele>
        <time>2021-04-23T14:28:23.000Z</time>
      </trkpt>
      <trkpt lat="45.32574" lon="5.64405">
        <ele>825.3</ele>
        <time>2021-04-23T14:28:39.000Z</time>
      </trkpt>
      <trkpt lat="45.32573" lon="5.64406">
        <ele>825.2</ele>
        <time>2021-04-23T14:31:07.000Z</time>
      </trkpt>
      <trkpt lat="45.3257" lon="5.64406">
        <ele>822.9</ele>
        <time>2021-04-23T14:31:17.000Z</time>
      </trkpt>
      <trkpt lat="45.32568" lon="5.64407">
        <ele>823.1</ele>
        <time>2021-04-23T14:33:05.000Z</time>
      </trkpt>
      <trkpt lat="45.32568" lon="5.64406">
        <ele>821.6</ele>
        <time>2021-04-23T14:33:23.000Z</time>
      </trkpt>
      <trkpt lat="45.32567" lon="5.64406">
        <ele>821.3</ele>
        <time>2021-04-23T14:33:33.000Z</time>
      </trkpt>
      <trkpt lat="45.32568" lon="5.64407">
        <ele>820.7</ele>
        <time>2021-04-23T14:33:43.000Z</time>
      </trkpt>
      <trkpt lat="45.32568" lon="5.64409">
        <ele>820.8</ele>
        <time>2021-04-23T14:33:53.000Z</time>
      </trkpt>
      <trkpt lat="45.32568" lon="5.64408">
        <ele>821.3</ele>
        <time>2021-04-23T14:34:03.000Z</time>
      </trkpt>
      <trkpt lat="45.32568" lon="5.64406">
        <ele>822.2</ele>
        <time>2021-04-23T14:34:13.000Z</time>
      </trkpt>
      <trkpt lat="45.32567" lon="5.64407">
        <ele>822.7</ele>
        <time>2021-04-23T14:34:33.000Z</time>
      </trkpt>
      <trkpt lat="45.32566" lon="5.64408">
        <ele>822.3</ele>
        <time>2021-04-23T14:37:13.000Z</time>
      </trkpt>
      <trkpt lat="45.32561" lon="5.64408">
        <ele>823.6</ele>
        <time>2021-04-23T14:37:23.000Z</time>
      </trkpt>
      <trkpt lat="45.32546" lon="5.64403">
        <ele>824.6</ele>
        <time>2021-04-23T14:37:33.000Z</time>
      </trkpt>
      <trkpt lat="45.32524" lon="5.64402">
        <ele>823.4</ele>
        <time>2021-04-23T14:37:43.000Z</time>
      </trkpt>
      <trkpt lat="45.32509" lon="5.64399">
        <ele>830.8</ele>
        <time>2021-04-23T14:37:53.000Z</time>
      </trkpt>
      <trkpt lat="45.3249" lon="5.64389">
        <ele>839.5</ele>
        <time>2021-04-23T14:38:03.000Z</time>
      </trkpt>
      <trkpt lat="45.32473" lon="5.64382">
        <ele>842</ele>
        <time>2021-04-23T14:38:13.000Z</time>
      </trkpt>
      <trkpt lat="45.32455" lon="5.64373">
        <ele>843.1</ele>
        <time>2021-04-23T14:38:23.000Z</time>
      </trkpt>
      <trkpt lat="45.32439" lon="5.64363">
        <ele>844.3</ele>
        <time>2021-04-23T14:38:33.000Z</time>
      </trkpt>
      <trkpt lat="45.32422" lon="5.6435">
        <ele>847.2</ele>
        <time>2021-04-23T14:38:43.000Z</time>
      </trkpt>
      <trkpt lat="45.324" lon="5.6434">
        <ele>851.8</ele>
        <time>2021-04-23T14:38:53.000Z</time>
      </trkpt>
      <trkpt lat="45.32388" lon="5.64327">
        <ele>852.5</ele>
        <time>2021-04-23T14:39:03.000Z</time>
      </trkpt>
      <trkpt lat="45.32387" lon="5.64326">
        <ele>854.4</ele>
        <time>2021-04-23T14:39:13.000Z</time>
      </trkpt>
      <trkpt lat="45.32391" lon="5.64333">
        <ele>852.4</ele>
        <time>2021-04-23T14:39:23.000Z</time>
      </trkpt>
      <trkpt lat="45.32389" lon="5.64332">
        <ele>851.2</ele>
        <time>2021-04-23T14:39:33.000Z</time>
      </trkpt>
      <trkpt lat="45.32388" lon="5.64332">
        <ele>850.4</ele>
        <time>2021-04-23T14:39:45.000Z</time>
      </trkpt>
      <trkpt lat="45.32386" lon="5.64333">
        <ele>851.5</ele>
        <time>2021-04-23T14:40:13.000Z</time>
      </trkpt>
      <trkpt lat="45.32375" lon="5.64321">
        <ele>852.8</ele>
        <time>2021-04-23T14:40:23.000Z</time>
      </trkpt>
      <trkpt lat="45.32366" lon="5.64298">
        <ele>855.7</ele>
        <time>2021-04-23T14:40:33.000Z</time>
      </trkpt>
      <trkpt lat="45.32351" lon="5.64278">
        <ele>859.3</ele>
        <time>2021-04-23T14:40:43.000Z</time>
      </trkpt>
      <trkpt lat="45.32329" lon="5.64262">
        <ele>856.8</ele>
        <time>2021-04-23T14:40:53.000Z</time>
      </trkpt>
      <trkpt lat="45.32309" lon="5.64251">
        <ele>861.2</ele>
        <time>2021-04-23T14:41:03.000Z</time>
      </trkpt>
      <trkpt lat="45.32298" lon="5.64227">
        <ele>864.6</ele>
        <time>2021-04-23T14:41:13.000Z</time>
      </trkpt>
      <trkpt lat="45.32298" lon="5.6422">
        <ele>867.5</ele>
        <time>2021-04-23T14:41:23.000Z</time>
      </trkpt>
      <trkpt lat="45.32297" lon="5.64219">
        <ele>867.5</ele>
        <time>2021-04-23T14:41:51.000Z</time>
      </trkpt>
      <trkpt lat="45.32297" lon="5.64218">
        <ele>867.3</ele>
        <time>2021-04-23T14:42:02.000Z</time>
      </trkpt>
      <trkpt lat="45.32278" lon="5.64208">
        <ele>866.8</ele>
        <time>2021-04-23T14:42:12.000Z</time>
      </trkpt>
      <trkpt lat="45.3226" lon="5.64196">
        <ele>864.1</ele>
        <time>2021-04-23T14:42:22.000Z</time>
      </trkpt>
      <trkpt lat="45.32239" lon="5.64173">
        <ele>869.1</ele>
        <time>2021-04-23T14:42:32.000Z</time>
      </trkpt>
      <trkpt lat="45.32219" lon="5.64138">
        <ele>870.2</ele>
        <time>2021-04-23T14:42:42.000Z</time>
      </trkpt>
      <trkpt lat="45.32195" lon="5.6412">
        <ele>873.8</ele>
        <time>2021-04-23T14:42:52.000Z</time>
      </trkpt>
      <trkpt lat="45.32172" lon="5.64108">
        <ele>871.7</ele>
        <time>2021-04-23T14:43:02.000Z</time>
      </trkpt>
      <trkpt lat="45.32155" lon="5.6409">
        <ele>869.8</ele>
        <time>2021-04-23T14:43:12.000Z</time>
      </trkpt>
      <trkpt lat="45.32142" lon="5.64069">
        <ele>868.2</ele>
        <time>2021-04-23T14:45:00.000Z</time>
      </trkpt>
      <trkpt lat="45.32144" lon="5.64072">
        <ele>867.2</ele>
        <time>2021-04-23T14:45:10.000Z</time>
      </trkpt>
      <trkpt lat="45.32139" lon="5.64056">
        <ele>867.9</ele>
        <time>2021-04-23T14:45:20.000Z</time>
      </trkpt>
      <trkpt lat="45.32135" lon="5.6403">
        <ele>866.8</ele>
        <time>2021-04-23T14:45:30.000Z</time>
      </trkpt>
      <trkpt lat="45.32123" lon="5.63991">
        <ele>871.3</ele>
        <time>2021-04-23T14:45:40.000Z</time>
      </trkpt>
      <trkpt lat="45.32111" lon="5.63959">
        <ele>876.2</ele>
        <time>2021-04-23T14:45:50.000Z</time>
      </trkpt>
      <trkpt lat="45.3208" lon="5.63934">
        <ele>875</ele>
        <time>2021-04-23T14:46:00.000Z</time>
      </trkpt>
      <trkpt lat="45.32055" lon="5.6391">
        <ele>873.7</ele>
        <time>2021-04-23T14:46:10.000Z</time>
      </trkpt>
      <trkpt lat="45.32047" lon="5.639">
        <ele>870.2</ele>
        <time>2021-04-23T14:46:20.000Z</time>
      </trkpt>
      <trkpt lat="45.32048" lon="5.63887">
        <ele>871.1</ele>
        <time>2021-04-23T14:46:30.000Z</time>
      </trkpt>
      <trkpt lat="45.32053" lon="5.6386">
        <ele>873.5</ele>
        <time>2021-04-23T14:46:40.000Z</time>
      </trkpt>
      <trkpt lat="45.32058" lon="5.63834">
        <ele>871.5</ele>
        <time>2021-04-23T14:46:50.000Z</time>
      </trkpt>
      <trkpt lat="45.32069" lon="5.63804">
        <ele>874.8</ele>
        <time>2021-04-23T14:47:00.000Z</time>
      </trkpt>
      <trkpt lat="45.3209" lon="5.63792">
        <ele>876.5</ele>
        <time>2021-04-23T14:47:10.000Z</time>
      </trkpt>
      <trkpt lat="45.32111" lon="5.63795">
        <ele>872.9</ele>
        <time>2021-04-23T14:47:20.000Z</time>
      </trkpt>
      <trkpt lat="45.32116" lon="5.63814">
        <ele>873.8</ele>
        <time>2021-04-23T14:47:30.000Z</time>
      </trkpt>
      <trkpt lat="45.32113" lon="5.63836">
        <ele>877.6</ele>
        <time>2021-04-23T14:47:40.000Z</time>
      </trkpt>
      <trkpt lat="45.32118" lon="5.63844">
        <ele>876.6</ele>
        <time>2021-04-23T14:47:50.000Z</time>
      </trkpt>
      <trkpt lat="45.32124" lon="5.63837">
        <ele>875.7</ele>
        <time>2021-04-23T14:48:00.000Z</time>
      </trkpt>
      <trkpt lat="45.32143" lon="5.63838">
        <ele>876.1</ele>
        <time>2021-04-23T14:48:10.000Z</time>
      </trkpt>
      <trkpt lat="45.32158" lon="5.63837">
        <ele>880.2</ele>
        <time>2021-04-23T14:48:20.000Z</time>
      </trkpt>
      <trkpt lat="45.32173" lon="5.63829">
        <ele>880.9</ele>
        <time>2021-04-23T14:48:30.000Z</time>
      </trkpt>
      <trkpt lat="45.3219" lon="5.63827">
        <ele>879.9</ele>
        <time>2021-04-23T14:48:40.000Z</time>
      </trkpt>
      <trkpt lat="45.32212" lon="5.63818">
        <ele>879.9</ele>
        <time>2021-04-23T14:48:50.000Z</time>
      </trkpt>
      <trkpt lat="45.32243" lon="5.63795">
        <ele>882.4</ele>
        <time>2021-04-23T14:49:00.000Z</time>
      </trkpt>
      <trkpt lat="45.32262" lon="5.63735">
        <ele>882.1</ele>
        <time>2021-04-23T14:49:10.000Z</time>
      </trkpt>
      <trkpt lat="45.32293" lon="5.63699">
        <ele>880.9</ele>
        <time>2021-04-23T14:49:20.000Z</time>
      </trkpt>
      <trkpt lat="45.32328" lon="5.63677">
        <ele>874.8</ele>
        <time>2021-04-23T14:49:30.000Z</time>
      </trkpt>
      <trkpt lat="45.32358" lon="5.63679">
        <ele>871</ele>
        <time>2021-04-23T14:49:40.000Z</time>
      </trkpt>
      <trkpt lat="45.32378" lon="5.63682">
        <ele>867.2</ele>
        <time>2021-04-23T14:49:50.000Z</time>
      </trkpt>
      <trkpt lat="45.32393" lon="5.63677">
        <ele>861.9</ele>
        <time>2021-04-23T14:50:00.000Z</time>
      </trkpt>
      <trkpt lat="45.32407" lon="5.63671">
        <ele>857.7</ele>
        <time>2021-04-23T14:50:10.000Z</time>
      </trkpt>
      <trkpt lat="45.3243" lon="5.63659">
        <ele>850</ele>
        <time>2021-04-23T14:50:20.000Z</time>
      </trkpt>
      <trkpt lat="45.32458" lon="5.63671">
        <ele>846.4</ele>
        <time>2021-04-23T14:50:30.000Z</time>
      </trkpt>
      <trkpt lat="45.32485" lon="5.63671">
        <ele>843.7</ele>
        <time>2021-04-23T14:50:40.000Z</time>
      </trkpt>
      <trkpt lat="45.32511" lon="5.63677">
        <ele>840.9</ele>
        <time>2021-04-23T14:50:50.000Z</time>
      </trkpt>
      <trkpt lat="45.32539" lon="5.63703">
        <ele>837.1</ele>
        <time>2021-04-23T14:51:00.000Z</time>
      </trkpt>
      <trkpt lat="45.32567" lon="5.63691">
        <ele>836.9</ele>
        <time>2021-04-23T14:51:10.000Z</time>
      </trkpt>
      <trkpt lat="45.32596" lon="5.63675">
        <ele>837.2</ele>
        <time>2021-04-23T14:51:20.000Z</time>
      </trkpt>
      <trkpt lat="45.32621" lon="5.63669">
        <ele>835.4</ele>
        <time>2021-04-23T14:51:30.000Z</time>
      </trkpt>
      <trkpt lat="45.32659" lon="5.6367">
        <ele>835.6</ele>
        <time>2021-04-23T14:51:40.000Z</time>
      </trkpt>
      <trkpt lat="45.32689" lon="5.63643">
        <ele>838.4</ele>
        <time>2021-04-23T14:51:50.000Z</time>
      </trkpt>
      <trkpt lat="45.3271" lon="5.63615">
        <ele>838.1</ele>
        <time>2021-04-23T14:52:00.000Z</time>
      </trkpt>
      <trkpt lat="45.32739" lon="5.63605">
        <ele>834.2</ele>
        <time>2021-04-23T14:52:10.000Z</time>
      </trkpt>
      <trkpt lat="45.32766" lon="5.63612">
        <ele>828.1</ele>
        <time>2021-04-23T14:52:20.000Z</time>
      </trkpt>
      <trkpt lat="45.32804" lon="5.63628">
        <ele>828.7</ele>
        <time>2021-04-23T14:52:30.000Z</time>
      </trkpt>
      <trkpt lat="45.3282" lon="5.63636">
        <ele>829.3</ele>
        <time>2021-04-23T14:52:40.000Z</time>
      </trkpt>
      <trkpt lat="45.32818" lon="5.63626">
        <ele>828.6</ele>
        <time>2021-04-23T14:52:50.000Z</time>
      </trkpt>
      <trkpt lat="45.32822" lon="5.63599">
        <ele>825</ele>
        <time>2021-04-23T14:53:00.000Z</time>
      </trkpt>
      <trkpt lat="45.32842" lon="5.63576">
        <ele>815.1</ele>
        <time>2021-04-23T14:53:10.000Z</time>
      </trkpt>
      <trkpt lat="45.32883" lon="5.63593">
        <ele>810.3</ele>
        <time>2021-04-23T14:53:20.000Z</time>
      </trkpt>
      <trkpt lat="45.32908" lon="5.63592">
        <ele>806.9</ele>
        <time>2021-04-23T14:53:30.000Z</time>
      </trkpt>
      <trkpt lat="45.32933" lon="5.63586">
        <ele>802.5</ele>
        <time>2021-04-23T14:53:40.000Z</time>
      </trkpt>
      <trkpt lat="45.32938" lon="5.63588">
        <ele>802.7</ele>
        <time>2021-04-23T14:53:50.000Z</time>
      </trkpt>
      <trkpt lat="45.32937" lon="5.63587">
        <ele>802.3</ele>
        <time>2021-04-23T14:54:00.000Z</time>
      </trkpt>
      <trkpt lat="45.32936" lon="5.63588">
        <ele>801.7</ele>
        <time>2021-04-23T14:54:27.000Z</time>
      </trkpt>
      <trkpt lat="45.32937" lon="5.63588">
        <ele>805.2</ele>
        <time>2021-04-23T14:55:17.000Z</time>
      </trkpt>
      <trkpt lat="45.32939" lon="5.63586">
        <ele>803.3</ele>
        <time>2021-04-23T14:55:27.000Z</time>
      </trkpt>
      <trkpt lat="45.32939" lon="5.63588">
        <ele>802</ele>
        <time>2021-04-23T14:56:04.000Z</time>
      </trkpt>
      <trkpt lat="45.3294" lon="5.63588">
        <ele>804.4</ele>
        <time>2021-04-23T14:56:58.000Z</time>
      </trkpt>
      <trkpt lat="45.32939" lon="5.63588">
        <ele>803.9</ele>
        <time>2021-04-23T14:57:39.000Z</time>
      </trkpt>
      <trkpt lat="45.32939" lon="5.63586">
        <ele>803.1</ele>
        <time>2021-04-23T14:57:49.000Z</time>
      </trkpt>
      <trkpt lat="45.3294" lon="5.63586">
        <ele>803.9</ele>
        <time>2021-04-23T14:58:39.000Z</time>
      </trkpt>
      <trkpt lat="45.3296" lon="5.6359">
        <ele>803.7</ele>
        <time>2021-04-23T14:58:49.000Z</time>
      </trkpt>
      <trkpt lat="45.32989" lon="5.6359">
        <ele>808.8</ele>
        <time>2021-04-23T14:58:59.000Z</time>
      </trkpt>
      <trkpt lat="45.33017" lon="5.63588">
        <ele>807.7</ele>
        <time>2021-04-23T14:59:09.000Z</time>
      </trkpt>
      <trkpt lat="45.33036" lon="5.63581">
        <ele>808.1</ele>
        <time>2021-04-23T14:59:19.000Z</time>
      </trkpt>
      <trkpt lat="45.33052" lon="5.63568">
        <ele>801.3</ele>
        <time>2021-04-23T14:59:29.000Z</time>
      </trkpt>
      <trkpt lat="45.33062" lon="5.63562">
        <ele>800.1</ele>
        <time>2021-04-23T14:59:39.000Z</time>
      </trkpt>
      <trkpt lat="45.33066" lon="5.6356">
        <ele>800</ele>
        <time>2021-04-23T14:59:49.000Z</time>
      </trkpt>
      <trkpt lat="45.3307" lon="5.63559">
        <ele>800.2</ele>
        <time>2021-04-23T14:59:59.000Z</time>
      </trkpt>
      <trkpt lat="45.33083" lon="5.63558">
        <ele>799.2</ele>
        <time>2021-04-23T15:00:09.000Z</time>
      </trkpt>
      <trkpt lat="45.33099" lon="5.63558">
        <ele>801.2</ele>
        <time>2021-04-23T15:00:19.000Z</time>
      </trkpt>
      <trkpt lat="45.33127" lon="5.6355">
        <ele>798.3</ele>
        <time>2021-04-23T15:00:29.000Z</time>
      </trkpt>
      <trkpt lat="45.3315" lon="5.63548">
        <ele>795.6</ele>
        <time>2021-04-23T15:00:39.000Z</time>
      </trkpt>
      <trkpt lat="45.3317" lon="5.63559">
        <ele>800.5</ele>
        <time>2021-04-23T15:00:49.000Z</time>
      </trkpt>
      <trkpt lat="45.33172" lon="5.63564">
        <ele>798.2</ele>
        <time>2021-04-23T15:00:59.000Z</time>
      </trkpt>
      <trkpt lat="45.33173" lon="5.63565">
        <ele>798.3</ele>
        <time>2021-04-23T15:01:10.000Z</time>
      </trkpt>
      <trkpt lat="45.33181" lon="5.63567">
        <ele>800.9</ele>
        <time>2021-04-23T15:01:20.000Z</time>
      </trkpt>
      <trkpt lat="45.33193" lon="5.63576">
        <ele>799.1</ele>
        <time>2021-04-23T15:01:30.000Z</time>
      </trkpt>
      <trkpt lat="45.33208" lon="5.6358">
        <ele>793.2</ele>
        <time>2021-04-23T15:01:40.000Z</time>
      </trkpt>
      <trkpt lat="45.33227" lon="5.63562">
        <ele>784.6</ele>
        <time>2021-04-23T15:01:50.000Z</time>
      </trkpt>
      <trkpt lat="45.3325" lon="5.63531">
        <ele>775.5</ele>
        <time>2021-04-23T15:02:00.000Z</time>
      </trkpt>
      <trkpt lat="45.33266" lon="5.63497">
        <ele>774.2</ele>
        <time>2021-04-23T15:02:10.000Z</time>
      </trkpt>
      <trkpt lat="45.33273" lon="5.63481">
        <ele>770.7</ele>
        <time>2021-04-23T15:02:20.000Z</time>
      </trkpt>
      <trkpt lat="45.33281" lon="5.6347">
        <ele>764.3</ele>
        <time>2021-04-23T15:02:30.000Z</time>
      </trkpt>
      <trkpt lat="45.33281" lon="5.63461">
        <ele>761.8</ele>
        <time>2021-04-23T15:02:40.000Z</time>
      </trkpt>
      <trkpt lat="45.33291" lon="5.63463">
        <ele>761.4</ele>
        <time>2021-04-23T15:02:50.000Z</time>
      </trkpt>
      <trkpt lat="45.33298" lon="5.63467">
        <ele>760</ele>
        <time>2021-04-23T15:03:00.000Z</time>
      </trkpt>
      <trkpt lat="45.33306" lon="5.6348">
        <ele>760</ele>
        <time>2021-04-23T15:03:10.000Z</time>
      </trkpt>
      <trkpt lat="45.33321" lon="5.63488">
        <ele>755.3</ele>
        <time>2021-04-23T15:03:20.000Z</time>
      </trkpt>
      <trkpt lat="45.33354" lon="5.63494">
        <ele>753.3</ele>
        <time>2021-04-23T15:03:30.000Z</time>
      </trkpt>
      <trkpt lat="45.3337" lon="5.63503">
        <ele>747.9</ele>
        <time>2021-04-23T15:03:40.000Z</time>
      </trkpt>
      <trkpt lat="45.33384" lon="5.63524">
        <ele>746.5</ele>
        <time>2021-04-23T15:03:50.000Z</time>
      </trkpt>
      <trkpt lat="45.33396" lon="5.63555">
        <ele>748.4</ele>
        <time>2021-04-23T15:04:00.000Z</time>
      </trkpt>
      <trkpt lat="45.33422" lon="5.63578">
        <ele>754.3</ele>
        <time>2021-04-23T15:04:10.000Z</time>
      </trkpt>
      <trkpt lat="45.33442" lon="5.63606">
        <ele>756</ele>
        <time>2021-04-23T15:04:20.000Z</time>
      </trkpt>
      <trkpt lat="45.33467" lon="5.63595">
        <ele>754</ele>
        <time>2021-04-23T15:04:30.000Z</time>
      </trkpt>
      <trkpt lat="45.33486" lon="5.63572">
        <ele>756.4</ele>
        <time>2021-04-23T15:04:40.000Z</time>
      </trkpt>
      <trkpt lat="45.33494" lon="5.63574">
        <ele>757</ele>
        <time>2021-04-23T15:04:50.000Z</time>
      </trkpt>
      <trkpt lat="45.33507" lon="5.63584">
        <ele>759.4</ele>
        <time>2021-04-23T15:05:00.000Z</time>
      </trkpt>
      <trkpt lat="45.33534" lon="5.63601">
        <ele>759.1</ele>
        <time>2021-04-23T15:05:10.000Z</time>
      </trkpt>
      <trkpt lat="45.33564" lon="5.63613">
        <ele>757.8</ele>
        <time>2021-04-23T15:05:20.000Z</time>
      </trkpt>
      <trkpt lat="45.33588" lon="5.63631">
        <ele>757.8</ele>
        <time>2021-04-23T15:05:30.000Z</time>
      </trkpt>
      <trkpt lat="45.33633" lon="5.63619">
        <ele>758.1</ele>
        <time>2021-04-23T15:05:40.000Z</time>
      </trkpt>
      <trkpt lat="45.3368" lon="5.6362">
        <ele>758.1</ele>
        <time>2021-04-23T15:05:50.000Z</time>
      </trkpt>
      <trkpt lat="45.33708" lon="5.63626">
        <ele>761.7</ele>
        <time>2021-04-23T15:06:00.000Z</time>
      </trkpt>
      <trkpt lat="45.33733" lon="5.63602">
        <ele>756.8</ele>
        <time>2021-04-23T15:06:10.000Z</time>
      </trkpt>
      <trkpt lat="45.33765" lon="5.63603">
        <ele>755.1</ele>
        <time>2021-04-23T15:06:20.000Z</time>
      </trkpt>
      <trkpt lat="45.33807" lon="5.63603">
        <ele>755</ele>
        <time>2021-04-23T15:06:30.000Z</time>
      </trkpt>
      <trkpt lat="45.33848" lon="5.63598">
        <ele>752.7</ele>
        <time>2021-04-23T15:06:40.000Z</time>
      </trkpt>
      <trkpt lat="45.33895" lon="5.63618">
        <ele>748.8</ele>
        <time>2021-04-23T15:06:50.000Z</time>
      </trkpt>
      <trkpt lat="45.33943" lon="5.63614">
        <ele>744.4</ele>
        <time>2021-04-23T15:07:00.000Z</time>
      </trkpt>
      <trkpt lat="45.33988" lon="5.63617">
        <ele>743</ele>
        <time>2021-04-23T15:07:10.000Z</time>
      </trkpt>
      <trkpt lat="45.34022" lon="5.63626">
        <ele>738.8</ele>
        <time>2021-04-23T15:07:20.000Z</time>
      </trkpt>
      <trkpt lat="45.34046" lon="5.63643">
        <ele>732.9</ele>
        <time>2021-04-23T15:07:30.000Z</time>
      </trkpt>
      <trkpt lat="45.34068" lon="5.63646">
        <ele>724.2</ele>
        <time>2021-04-23T15:07:40.000Z</time>
      </trkpt>
      <trkpt lat="45.34082" lon="5.63666">
        <ele>720.8</ele>
        <time>2021-04-23T15:07:50.000Z</time>
      </trkpt>
      <trkpt lat="45.34094" lon="5.63669">
        <ele>719.6</ele>
        <time>2021-04-23T15:08:00.000Z</time>
      </trkpt>
      <trkpt lat="45.34095" lon="5.63669">
        <ele>716.5</ele>
        <time>2021-04-23T15:08:11.000Z</time>
      </trkpt>
      <trkpt lat="45.34094" lon="5.63671">
        <ele>717.1</ele>
        <time>2021-04-23T15:09:06.000Z</time>
      </trkpt>
      <trkpt lat="45.34083" lon="5.6368">
        <ele>718.8</ele>
        <time>2021-04-23T15:09:16.000Z</time>
      </trkpt>
      <trkpt lat="45.34067" lon="5.63694">
        <ele>718.8</ele>
        <time>2021-04-23T15:09:26.000Z</time>
      </trkpt>
      <trkpt lat="45.34061" lon="5.637">
        <ele>719.8</ele>
        <time>2021-04-23T15:09:36.000Z</time>
      </trkpt>
      <trkpt lat="45.3406" lon="5.63701">
        <ele>721.2</ele>
        <time>2021-04-23T15:09:46.000Z</time>
      </trkpt>
      <trkpt lat="45.34059" lon="5.63702">
        <ele>721.1</ele>
        <time>2021-04-23T15:09:56.000Z</time>
      </trkpt>
      <trkpt lat="45.34059" lon="5.63703">
        <ele>722.7</ele>
        <time>2021-04-23T15:10:18.000Z</time>
      </trkpt>
      <trkpt lat="45.34058" lon="5.63702">
        <ele>721.8</ele>
        <time>2021-04-23T15:10:28.000Z</time>
      </trkpt>
      <trkpt lat="45.34057" lon="5.63704">
        <ele>722</ele>
        <time>2021-04-23T15:10:45.000Z</time>
      </trkpt>
      <trkpt lat="45.34037" lon="5.63721">
        <ele>725.5</ele>
        <time>2021-04-23T15:10:55.000Z</time>
      </trkpt>
      <trkpt lat="45.34023" lon="5.63734">
        <ele>730.8</ele>
        <time>2021-04-23T15:11:05.000Z</time>
      </trkpt>
      <trkpt lat="45.34009" lon="5.63745">
        <ele>732.9</ele>
        <time>2021-04-23T15:11:15.000Z</time>
      </trkpt>
      <trkpt lat="45.34008" lon="5.63748">
        <ele>731.7</ele>
        <time>2021-04-23T15:11:25.000Z</time>
      </trkpt>
      <trkpt lat="45.34002" lon="5.63756">
        <ele>732.3</ele>
        <time>2021-04-23T15:11:35.000Z</time>
      </trkpt>
      <trkpt lat="45.33979" lon="5.63782">
        <ele>731.4</ele>
        <time>2021-04-23T15:11:45.000Z</time>
      </trkpt>
      <trkpt lat="45.33943" lon="5.63801">
        <ele>726.9</ele>
        <time>2021-04-23T15:11:55.000Z</time>
      </trkpt>
      <trkpt lat="45.33905" lon="5.63816">
        <ele>725.2</ele>
        <time>2021-04-23T15:12:05.000Z</time>
      </trkpt>
      <trkpt lat="45.3386" lon="5.63827">
        <ele>724.3</ele>
        <time>2021-04-23T15:12:15.000Z</time>
      </trkpt>
      <trkpt lat="45.33813" lon="5.63852">
        <ele>721.6</ele>
        <time>2021-04-23T15:12:25.000Z</time>
      </trkpt>
      <trkpt lat="45.33779" lon="5.63852">
        <ele>724.3</ele>
        <time>2021-04-23T15:12:35.000Z</time>
      </trkpt>
      <trkpt lat="45.3376" lon="5.63866">
        <ele>726.3</ele>
        <time>2021-04-23T15:12:45.000Z</time>
      </trkpt>
      <trkpt lat="45.33749" lon="5.63906">
        <ele>728.5</ele>
        <time>2021-04-23T15:12:55.000Z</time>
      </trkpt>
      <trkpt lat="45.33728" lon="5.63936">
        <ele>729.9</ele>
        <time>2021-04-23T15:13:05.000Z</time>
      </trkpt>
      <trkpt lat="45.33706" lon="5.63963">
        <ele>731.4</ele>
        <time>2021-04-23T15:13:15.000Z</time>
      </trkpt>
      <trkpt lat="45.3369" lon="5.63997">
        <ele>731.5</ele>
        <time>2021-04-23T15:13:25.000Z</time>
      </trkpt>
      <trkpt lat="45.33687" lon="5.64061">
        <ele>731.8</ele>
        <time>2021-04-23T15:13:35.000Z</time>
      </trkpt>
      <trkpt lat="45.33663" lon="5.64119">
        <ele>733.3</ele>
        <time>2021-04-23T15:13:45.000Z</time>
      </trkpt>
      <trkpt lat="45.33651" lon="5.64182">
        <ele>734.3</ele>
        <time>2021-04-23T15:13:55.000Z</time>
      </trkpt>
      <trkpt lat="45.33665" lon="5.64259">
        <ele>733.3</ele>
        <time>2021-04-23T15:14:05.000Z</time>
      </trkpt>
      <trkpt lat="45.33677" lon="5.64334">
        <ele>734.3</ele>
        <time>2021-04-23T15:14:15.000Z</time>
      </trkpt>
      <trkpt lat="45.33661" lon="5.64401">
        <ele>739.7</ele>
        <time>2021-04-23T15:14:25.000Z</time>
      </trkpt>
      <trkpt lat="45.33636" lon="5.64464">
        <ele>739</ele>
        <time>2021-04-23T15:14:35.000Z</time>
      </trkpt>
      <trkpt lat="45.33642" lon="5.6448">
        <ele>737.7</ele>
        <time>2021-04-23T15:14:45.000Z</time>
      </trkpt>
      <trkpt lat="45.33643" lon="5.64479">
        <ele>737.8</ele>
        <time>2021-04-23T15:14:55.000Z</time>
      </trkpt>
      <trkpt lat="45.33654" lon="5.64494">
        <ele>738.2</ele>
        <time>2021-04-23T15:15:05.000Z</time>
      </trkpt>
      <trkpt lat="45.33663" lon="5.64515">
        <ele>738.8</ele>
        <time>2021-04-23T15:15:15.000Z</time>
      </trkpt>
      <trkpt lat="45.33685" lon="5.64522">
        <ele>738.3</ele>
        <time>2021-04-23T15:15:25.000Z</time>
      </trkpt>
      <trkpt lat="45.33694" lon="5.64533">
        <ele>737.4</ele>
        <time>2021-04-23T15:15:35.000Z</time>
      </trkpt>
      <trkpt lat="45.33693" lon="5.64535">
        <ele>739.2</ele>
        <time>2021-04-23T15:15:47.000Z</time>
      </trkpt>
      <trkpt lat="45.33667" lon="5.64555">
        <ele>733.5</ele>
        <time>2021-04-23T15:15:57.000Z</time>
      </trkpt>
      <trkpt lat="45.33638" lon="5.6456">
        <ele>730</ele>
        <time>2021-04-23T15:16:07.000Z</time>
      </trkpt>
      <trkpt lat="45.33608" lon="5.64547">
        <ele>737.6</ele>
        <time>2021-04-23T15:16:17.000Z</time>
      </trkpt>
      <trkpt lat="45.33588" lon="5.64563">
        <ele>735.9</ele>
        <time>2021-04-23T15:16:27.000Z</time>
      </trkpt>
      <trkpt lat="45.33582" lon="5.64575">
        <ele>737.4</ele>
        <time>2021-04-23T15:16:37.000Z</time>
      </trkpt>
      <trkpt lat="45.33581" lon="5.64582">
        <ele>734.2</ele>
        <time>2021-04-23T15:16:47.000Z</time>
      </trkpt>
      <trkpt lat="45.33595" lon="5.64598">
        <ele>726.4</ele>
        <time>2021-04-23T15:16:57.000Z</time>
      </trkpt>
      <trkpt lat="45.33591" lon="5.6462">
        <ele>728.2</ele>
        <time>2021-04-23T15:17:07.000Z</time>
      </trkpt>
      <trkpt lat="45.33589" lon="5.64633">
        <ele>726.9</ele>
        <time>2021-04-23T15:17:17.000Z</time>
      </trkpt>
      <trkpt lat="45.33604" lon="5.64648">
        <ele>725.9</ele>
        <time>2021-04-23T15:17:27.000Z</time>
      </trkpt>
      <trkpt lat="45.33591" lon="5.64678">
        <ele>724.2</ele>
        <time>2021-04-23T15:17:37.000Z</time>
      </trkpt>
      <trkpt lat="45.33586" lon="5.64685">
        <ele>722.9</ele>
        <time>2021-04-23T15:17:47.000Z</time>
      </trkpt>
      <trkpt lat="45.33584" lon="5.64686">
        <ele>721.1</ele>
        <time>2021-04-23T15:17:57.000Z</time>
      </trkpt>
      <trkpt lat="45.33583" lon="5.64688">
        <ele>720.1</ele>
        <time>2021-04-23T15:18:07.000Z</time>
      </trkpt>
      <trkpt lat="45.33589" lon="5.64693">
        <ele>711.9</ele>
        <time>2021-04-23T15:18:17.000Z</time>
      </trkpt>
      <trkpt lat="45.33592" lon="5.6469">
        <ele>711.7</ele>
        <time>2021-04-23T15:18:27.000Z</time>
      </trkpt>
      <trkpt lat="45.33593" lon="5.6469">
        <ele>712.6</ele>
        <time>2021-04-23T15:18:52.000Z</time>
      </trkpt>
      <trkpt lat="45.33601" lon="5.64694">
        <ele>711</ele>
        <time>2021-04-23T15:19:02.000Z</time>
      </trkpt>
      <trkpt lat="45.33611" lon="5.64692">
        <ele>713.7</ele>
        <time>2021-04-23T15:19:12.000Z</time>
      </trkpt>
      <trkpt lat="45.33627" lon="5.64705">
        <ele>712.3</ele>
        <time>2021-04-23T15:19:22.000Z</time>
      </trkpt>
      <trkpt lat="45.33652" lon="5.64716">
        <ele>711.9</ele>
        <time>2021-04-23T15:19:32.000Z</time>
      </trkpt>
      <trkpt lat="45.33685" lon="5.64713">
        <ele>709.5</ele>
        <time>2021-04-23T15:19:42.000Z</time>
      </trkpt>
      <trkpt lat="45.33702" lon="5.64706">
        <ele>707.3</ele>
        <time>2021-04-23T15:19:52.000Z</time>
      </trkpt>
      <trkpt lat="45.33717" lon="5.64693">
        <ele>709.9</ele>
        <time>2021-04-23T15:20:02.000Z</time>
      </trkpt>
      <trkpt lat="45.33717" lon="5.64695">
        <ele>711</ele>
        <time>2021-04-23T15:20:12.000Z</time>
      </trkpt>
      <trkpt lat="45.33716" lon="5.64694">
        <ele>711.3</ele>
        <time>2021-04-23T15:20:32.000Z</time>
      </trkpt>
      <trkpt lat="45.33709" lon="5.64699">
        <ele>708</ele>
        <time>2021-04-23T15:20:42.000Z</time>
      </trkpt>
      <trkpt lat="45.33693" lon="5.64709">
        <ele>709.3</ele>
        <time>2021-04-23T15:20:52.000Z</time>
      </trkpt>
      <trkpt lat="45.33673" lon="5.6471">
        <ele>713.7</ele>
        <time>2021-04-23T15:21:02.000Z</time>
      </trkpt>
      <trkpt lat="45.33644" lon="5.64711">
        <ele>713.7</ele>
        <time>2021-04-23T15:21:12.000Z</time>
      </trkpt>
      <trkpt lat="45.33629" lon="5.64697">
        <ele>715.8</ele>
        <time>2021-04-23T15:21:22.000Z</time>
      </trkpt>
      <trkpt lat="45.3363" lon="5.64691">
        <ele>717.8</ele>
        <time>2021-04-23T15:21:32.000Z</time>
      </trkpt>
      <trkpt lat="45.33618" lon="5.64691">
        <ele>716.6</ele>
        <time>2021-04-23T15:21:42.000Z</time>
      </trkpt>
      <trkpt lat="45.33592" lon="5.64689">
        <ele>718.4</ele>
        <time>2021-04-23T15:21:52.000Z</time>
      </trkpt>
      <trkpt lat="45.33566" lon="5.64697">
        <ele>710.6</ele>
        <time>2021-04-23T15:22:02.000Z</time>
      </trkpt>
      <trkpt lat="45.33546" lon="5.64711">
        <ele>709.2</ele>
        <time>2021-04-23T15:22:12.000Z</time>
      </trkpt>
      <trkpt lat="45.3353" lon="5.6472">
        <ele>704.8</ele>
        <time>2021-04-23T15:22:22.000Z</time>
      </trkpt>
      <trkpt lat="45.33517" lon="5.6473">
        <ele>704.5</ele>
        <time>2021-04-23T15:22:32.000Z</time>
      </trkpt>
      <trkpt lat="45.33505" lon="5.64748">
        <ele>700</ele>
        <time>2021-04-23T15:22:42.000Z</time>
      </trkpt>
      <trkpt lat="45.33495" lon="5.64764">
        <ele>695.9</ele>
        <time>2021-04-23T15:22:52.000Z</time>
      </trkpt>
      <trkpt lat="45.33527" lon="5.64783">
        <ele>691.3</ele>
        <time>2021-04-23T15:23:02.000Z</time>
      </trkpt>
      <trkpt lat="45.33598" lon="5.6481">
        <ele>685.4</ele>
        <time>2021-04-23T15:23:12.000Z</time>
      </trkpt>
      <trkpt lat="45.33657" lon="5.64859">
        <ele>677.2</ele>
        <time>2021-04-23T15:23:22.000Z</time>
      </trkpt>
      <trkpt lat="45.33702" lon="5.6488">
        <ele>675.7</ele>
        <time>2021-04-23T15:23:32.000Z</time>
      </trkpt>
      <trkpt lat="45.33721" lon="5.64859">
        <ele>675.3</ele>
        <time>2021-04-23T15:23:42.000Z</time>
      </trkpt>
      <trkpt lat="45.33744" lon="5.64834">
        <ele>675.2</ele>
        <time>2021-04-23T15:23:52.000Z</time>
      </trkpt>
      <trkpt lat="45.33753" lon="5.64812">
        <ele>674.7</ele>
        <time>2021-04-23T15:24:02.000Z</time>
      </trkpt>
      <trkpt lat="45.33775" lon="5.64784">
        <ele>674.9</ele>
        <time>2021-04-23T15:24:12.000Z</time>
      </trkpt>
      <trkpt lat="45.33807" lon="5.64769">
        <ele>675.2</ele>
        <time>2021-04-23T15:24:22.000Z</time>
      </trkpt>
      <trkpt lat="45.33826" lon="5.64757">
        <ele>676.4</ele>
        <time>2021-04-23T15:24:32.000Z</time>
      </trkpt>
      <trkpt lat="45.33826" lon="5.64759">
        <ele>676.7</ele>
        <time>2021-04-23T15:24:45.000Z</time>
      </trkpt>
      <trkpt lat="45.33827" lon="5.6476">
        <ele>677.3</ele>
        <time>2021-04-23T15:24:55.000Z</time>
      </trkpt>
      <trkpt lat="45.33829" lon="5.64757">
        <ele>677.4</ele>
        <time>2021-04-23T15:25:05.000Z</time>
      </trkpt>
      <trkpt lat="45.33845" lon="5.64753">
        <ele>675.3</ele>
        <time>2021-04-23T15:25:15.000Z</time>
      </trkpt>
      <trkpt lat="45.33877" lon="5.64748">
        <ele>675.8</ele>
        <time>2021-04-23T15:25:25.000Z</time>
      </trkpt>
      <trkpt lat="45.33896" lon="5.64746">
        <ele>676.8</ele>
        <time>2021-04-23T15:25:35.000Z</time>
      </trkpt>
      <trkpt lat="45.33899" lon="5.64746">
        <ele>676.3</ele>
        <time>2021-04-23T15:25:45.000Z</time>
      </trkpt>
      <trkpt lat="45.339" lon="5.64746">
        <ele>670.8</ele>
        <time>2021-04-23T15:25:55.000Z</time>
      </trkpt>
      <trkpt lat="45.33899" lon="5.64745">
        <ele>673</ele>
        <time>2021-04-23T15:26:15.000Z</time>
      </trkpt>
      <trkpt lat="45.3389" lon="5.64742">
        <ele>676.5</ele>
        <time>2021-04-23T15:26:25.000Z</time>
      </trkpt>
      <trkpt lat="45.33869" lon="5.6474">
        <ele>678.2</ele>
        <time>2021-04-23T15:26:35.000Z</time>
      </trkpt>
      <trkpt lat="45.33841" lon="5.64752">
        <ele>676.4</ele>
        <time>2021-04-23T15:26:45.000Z</time>
      </trkpt>
      <trkpt lat="45.33817" lon="5.64747">
        <ele>678.6</ele>
        <time>2021-04-23T15:26:55.000Z</time>
      </trkpt>
      <trkpt lat="45.33811" lon="5.64737">
        <ele>676.9</ele>
        <time>2021-04-23T15:27:05.000Z</time>
      </trkpt>
      <trkpt lat="45.33809" lon="5.64724">
        <ele>677.3</ele>
        <time>2021-04-23T15:27:15.000Z</time>
      </trkpt>
      <trkpt lat="45.3382" lon="5.64714">
        <ele>679.2</ele>
        <time>2021-04-23T15:27:25.000Z</time>
      </trkpt>
      <trkpt lat="45.33847" lon="5.64693">
        <ele>676.2</ele>
        <time>2021-04-23T15:27:35.000Z</time>
      </trkpt>
      <trkpt lat="45.33877" lon="5.64677">
        <ele>676.6</ele>
        <time>2021-04-23T15:27:45.000Z</time>
      </trkpt>
      <trkpt lat="45.33913" lon="5.64674">
        <ele>677.2</ele>
        <time>2021-04-23T15:27:55.000Z</time>
      </trkpt>
      <trkpt lat="45.33943" lon="5.64657">
        <ele>680</ele>
        <time>2021-04-23T15:28:05.000Z</time>
      </trkpt>
      <trkpt lat="45.33962" lon="5.64648">
        <ele>678.2</ele>
        <time>2021-04-23T15:28:15.000Z</time>
      </trkpt>
      <trkpt lat="45.33991" lon="5.64634">
        <ele>678.7</ele>
        <time>2021-04-23T15:28:25.000Z</time>
      </trkpt>
      <trkpt lat="45.34018" lon="5.64585">
        <ele>677.7</ele>
        <time>2021-04-23T15:28:35.000Z</time>
      </trkpt>
      <trkpt lat="45.3404" lon="5.64549">
        <ele>679.9</ele>
        <time>2021-04-23T15:28:45.000Z</time>
      </trkpt>
      <trkpt lat="45.34063" lon="5.64524">
        <ele>682.8</ele>
        <time>2021-04-23T15:28:55.000Z</time>
      </trkpt>
      <trkpt lat="45.3407" lon="5.64518">
        <ele>681.3</ele>
        <time>2021-04-23T15:29:05.000Z</time>
      </trkpt>
      <trkpt lat="45.34075" lon="5.64512">
        <ele>684.5</ele>
        <time>2021-04-23T15:29:15.000Z</time>
      </trkpt>
      <trkpt lat="45.3409" lon="5.64491">
        <ele>688</ele>
        <time>2021-04-23T15:29:25.000Z</time>
      </trkpt>
      <trkpt lat="45.34117" lon="5.64483">
        <ele>677.9</ele>
        <time>2021-04-23T15:29:35.000Z</time>
      </trkpt>
      <trkpt lat="45.34147" lon="5.64464">
        <ele>672</ele>
        <time>2021-04-23T15:29:45.000Z</time>
      </trkpt>
      <trkpt lat="45.34171" lon="5.64444">
        <ele>668.2</ele>
        <time>2021-04-23T15:29:55.000Z</time>
      </trkpt>
      <trkpt lat="45.34174" lon="5.64413">
        <ele>666.7</ele>
        <time>2021-04-23T15:30:05.000Z</time>
      </trkpt>
      <trkpt lat="45.34183" lon="5.64387">
        <ele>667.2</ele>
        <time>2021-04-23T15:30:15.000Z</time>
      </trkpt>
      <trkpt lat="45.34192" lon="5.64367">
        <ele>666.4</ele>
        <time>2021-04-23T15:30:25.000Z</time>
      </trkpt>
      <trkpt lat="45.34213" lon="5.64369">
        <ele>673.1</ele>
        <time>2021-04-23T15:30:35.000Z</time>
      </trkpt>
      <trkpt lat="45.34232" lon="5.64356">
        <ele>669.3</ele>
        <time>2021-04-23T15:30:45.000Z</time>
      </trkpt>
      <trkpt lat="45.34244" lon="5.64325">
        <ele>664.3</ele>
        <time>2021-04-23T15:30:55.000Z</time>
      </trkpt>
      <trkpt lat="45.34244" lon="5.64292">
        <ele>666.9</ele>
        <time>2021-04-23T15:31:05.000Z</time>
      </trkpt>
      <trkpt lat="45.34249" lon="5.64282">
        <ele>667.5</ele>
        <time>2021-04-23T15:31:15.000Z</time>
      </trkpt>
      <trkpt lat="45.34247" lon="5.64275">
        <ele>671.2</ele>
        <time>2021-04-23T15:31:25.000Z</time>
      </trkpt>
      <trkpt lat="45.3424" lon="5.64259">
        <ele>673.8</ele>
        <time>2021-04-23T15:31:35.000Z</time>
      </trkpt>
      <trkpt lat="45.34245" lon="5.64219">
        <ele>670.9</ele>
        <time>2021-04-23T15:31:45.000Z</time>
      </trkpt>
      <trkpt lat="45.34258" lon="5.64178">
        <ele>666.4</ele>
        <time>2021-04-23T15:31:55.000Z</time>
      </trkpt>
      <trkpt lat="45.34254" lon="5.64142">
        <ele>662.2</ele>
        <time>2021-04-23T15:32:05.000Z</time>
      </trkpt>
      <trkpt lat="45.34245" lon="5.64111">
        <ele>663.9</ele>
        <time>2021-04-23T15:32:15.000Z</time>
      </trkpt>
      <trkpt lat="45.34231" lon="5.64079">
        <ele>662.5</ele>
        <time>2021-04-23T15:32:25.000Z</time>
      </trkpt>
      <trkpt lat="45.34213" lon="5.64046">
        <ele>657.9</ele>
        <time>2021-04-23T15:32:35.000Z</time>
      </trkpt>
      <trkpt lat="45.34197" lon="5.64011">
        <ele>653.8</ele>
        <time>2021-04-23T15:32:45.000Z</time>
      </trkpt>
      <trkpt lat="45.34199" lon="5.64002">
        <ele>652.6</ele>
        <time>2021-04-23T15:32:55.000Z</time>
      </trkpt>
      <trkpt lat="45.342" lon="5.63999">
        <ele>652.1</ele>
        <time>2021-04-23T15:33:05.000Z</time>
      </trkpt>
      <trkpt lat="45.34196" lon="5.64002">
        <ele>648.2</ele>
        <time>2021-04-23T15:33:15.000Z</time>
      </trkpt>
      <trkpt lat="45.34196" lon="5.64">
        <ele>643.9</ele>
        <time>2021-04-23T15:34:03.000Z</time>
      </trkpt>
      <trkpt lat="45.34199" lon="5.63998">
        <ele>643.9</ele>
        <time>2021-04-23T15:34:13.000Z</time>
      </trkpt>
      <trkpt lat="45.34213" lon="5.63985">
        <ele>642.8</ele>
        <time>2021-04-23T15:34:23.000Z</time>
      </trkpt>
      <trkpt lat="45.34224" lon="5.63966">
        <ele>639.2</ele>
        <time>2021-04-23T15:34:33.000Z</time>
      </trkpt>
      <trkpt lat="45.34226" lon="5.63941">
        <ele>634.3</ele>
        <time>2021-04-23T15:34:43.000Z</time>
      </trkpt>
      <trkpt lat="45.3424" lon="5.6392">
        <ele>626.1</ele>
        <time>2021-04-23T15:34:53.000Z</time>
      </trkpt>
      <trkpt lat="45.34264" lon="5.63919">
        <ele>623.9</ele>
        <time>2021-04-23T15:35:03.000Z</time>
      </trkpt>
      <trkpt lat="45.3428" lon="5.63925">
        <ele>623.3</ele>
        <time>2021-04-23T15:35:13.000Z</time>
      </trkpt>
      <trkpt lat="45.34284" lon="5.63911">
        <ele>617.8</ele>
        <time>2021-04-23T15:35:23.000Z</time>
      </trkpt>
      <trkpt lat="45.34282" lon="5.63893">
        <ele>616.2</ele>
        <time>2021-04-23T15:35:33.000Z</time>
      </trkpt>
      <trkpt lat="45.34285" lon="5.63895">
        <ele>615.8</ele>
        <time>2021-04-23T15:35:43.000Z</time>
      </trkpt>
      <trkpt lat="45.34292" lon="5.63895">
        <ele>615.8</ele>
        <time>2021-04-23T15:35:53.000Z</time>
      </trkpt>
      <trkpt lat="45.34307" lon="5.63901">
        <ele>611.9</ele>
        <time>2021-04-23T15:36:03.000Z</time>
      </trkpt>
      <trkpt lat="45.34322" lon="5.63917">
        <ele>604.6</ele>
        <time>2021-04-23T15:36:13.000Z</time>
      </trkpt>
      <trkpt lat="45.34334" lon="5.63894">
        <ele>596.9</ele>
        <time>2021-04-23T15:36:23.000Z</time>
      </trkpt>
      <trkpt lat="45.34338" lon="5.63853">
        <ele>590.4</ele>
        <time>2021-04-23T15:36:33.000Z</time>
      </trkpt>
      <trkpt lat="45.34342" lon="5.63805">
        <ele>588</ele>
        <time>2021-04-23T15:36:43.000Z</time>
      </trkpt>
      <trkpt lat="45.34345" lon="5.63793">
        <ele>586.8</ele>
        <time>2021-04-23T15:36:53.000Z</time>
      </trkpt>
      <trkpt lat="45.34343" lon="5.63792">
        <ele>585.3</ele>
        <time>2021-04-23T15:37:03.000Z</time>
      </trkpt>
      <trkpt lat="45.34344" lon="5.63791">
        <ele>585.7</ele>
        <time>2021-04-23T15:37:16.000Z</time>
      </trkpt>
      <trkpt lat="45.34358" lon="5.63748">
        <ele>583.7</ele>
        <time>2021-04-23T15:37:26.000Z</time>
      </trkpt>
      <trkpt lat="45.34411" lon="5.63722">
        <ele>576.2</ele>
        <time>2021-04-23T15:37:36.000Z</time>
      </trkpt>
      <trkpt lat="45.34475" lon="5.63721">
        <ele>569.6</ele>
        <time>2021-04-23T15:37:46.000Z</time>
      </trkpt>
      <trkpt lat="45.34539" lon="5.63708">
        <ele>565</ele>
        <time>2021-04-23T15:37:56.000Z</time>
      </trkpt>
      <trkpt lat="45.34578" lon="5.63621">
        <ele>560.6</ele>
        <time>2021-04-23T15:38:06.000Z</time>
      </trkpt>
      <trkpt lat="45.34603" lon="5.63527">
        <ele>559.4</ele>
        <time>2021-04-23T15:38:16.000Z</time>
      </trkpt>
      <trkpt lat="45.34594" lon="5.63444">
        <ele>555.4</ele>
        <time>2021-04-23T15:38:26.000Z</time>
      </trkpt>
      <trkpt lat="45.34592" lon="5.63413">
        <ele>556.4</ele>
        <time>2021-04-23T15:38:36.000Z</time>
      </trkpt>
      <trkpt lat="45.34591" lon="5.63414">
        <ele>553.6</ele>
        <time>2021-04-23T15:38:46.000Z</time>
      </trkpt>
      <trkpt lat="45.34591" lon="5.63415">
        <ele>553.4</ele>
        <time>2021-04-23T15:38:56.000Z</time>
      </trkpt>
      <trkpt lat="45.34592" lon="5.63412">
        <ele>552.1</ele>
        <time>2021-04-23T15:39:06.000Z</time>
      </trkpt>
      <trkpt lat="45.34594" lon="5.63413">
        <ele>552.1</ele>
        <time>2021-04-23T15:39:16.000Z</time>
      </trkpt>
      <trkpt lat="45.34595" lon="5.63412">
        <ele>552.5</ele>
        <time>2021-04-23T15:39:26.000Z</time>
      </trkpt>
      <trkpt lat="45.34596" lon="5.63412">
        <ele>553.5</ele>
        <time>2021-04-23T15:39:36.000Z</time>
      </trkpt>
      <trkpt lat="45.34597" lon="5.63411">
        <ele>553.2</ele>
        <time>2021-04-23T15:39:51.000Z</time>
      </trkpt>
      <trkpt lat="45.34597" lon="5.63412">
        <ele>554.8</ele>
        <time>2021-04-23T15:40:41.000Z</time>
      </trkpt>
      <trkpt lat="45.34596" lon="5.63414">
        <ele>556.3</ele>
        <time>2021-04-23T15:40:51.000Z</time>
      </trkpt>
      <trkpt lat="45.34596" lon="5.63415">
        <ele>557.6</ele>
        <time>2021-04-23T15:41:01.000Z</time>
      </trkpt>
      <trkpt lat="45.34596" lon="5.63413">
        <ele>559.8</ele>
        <time>2021-04-23T15:41:22.000Z</time>
      </trkpt>
      <trkpt lat="45.34596" lon="5.63411">
        <ele>558.3</ele>
        <time>2021-04-23T15:41:32.000Z</time>
      </trkpt>
      <trkpt lat="45.34595" lon="5.63412">
        <ele>557.5</ele>
        <time>2021-04-23T15:42:02.000Z</time>
      </trkpt>
      <trkpt lat="45.34593" lon="5.63412">
        <ele>557.9</ele>
        <time>2021-04-23T15:42:12.000Z</time>
      </trkpt>
      <trkpt lat="45.34592" lon="5.63414">
        <ele>558.5</ele>
        <time>2021-04-23T15:42:22.000Z</time>
      </trkpt>
      <trkpt lat="45.34593" lon="5.63412">
        <ele>558.6</ele>
        <time>2021-04-23T15:42:32.000Z</time>
      </trkpt>
      <trkpt lat="45.34594" lon="5.63413">
        <ele>560.8</ele>
        <time>2021-04-23T15:43:08.000Z</time>
      </trkpt>
      <trkpt lat="45.34593" lon="5.63414">
        <ele>562.2</ele>
        <time>2021-04-23T15:43:18.000Z</time>
      </trkpt>
      <trkpt lat="45.34591" lon="5.63417">
        <ele>562.5</ele>
        <time>2021-04-23T15:43:28.000Z</time>
      </trkpt>
      <trkpt lat="45.34592" lon="5.63416">
        <ele>560.1</ele>
        <time>2021-04-23T15:43:41.000Z</time>
      </trkpt>
      <trkpt lat="45.34593" lon="5.63417">
        <ele>559.9</ele>
        <time>2021-04-23T15:43:51.000Z</time>
      </trkpt>
      <trkpt lat="45.34592" lon="5.63415">
        <ele>557.6</ele>
        <time>2021-04-23T15:44:01.000Z</time>
      </trkpt>
      <trkpt lat="45.34594" lon="5.63411">
        <ele>554.9</ele>
        <time>2021-04-23T15:44:11.000Z</time>
      </trkpt>
      <trkpt lat="45.34593" lon="5.63409">
        <ele>555.2</ele>
        <time>2021-04-23T15:44:21.000Z</time>
      </trkpt>
      <trkpt lat="45.34592" lon="5.63408">
        <ele>554.6</ele>
        <time>2021-04-23T15:44:49.000Z</time>
      </trkpt>
      <trkpt lat="45.34597" lon="5.63387">
        <ele>556.1</ele>
        <time>2021-04-23T15:44:59.000Z</time>
      </trkpt>
      <trkpt lat="45.34618" lon="5.63372">
        <ele>558.8</ele>
        <time>2021-04-23T15:45:09.000Z</time>
      </trkpt>
      <trkpt lat="45.3464" lon="5.63358">
        <ele>558.7</ele>
        <time>2021-04-23T15:45:19.000Z</time>
      </trkpt>
      <trkpt lat="45.34675" lon="5.63344">
        <ele>559.1</ele>
        <time>2021-04-23T15:45:29.000Z</time>
      </trkpt>
      <trkpt lat="45.34714" lon="5.63324">
        <ele>556.5</ele>
        <time>2021-04-23T15:45:39.000Z</time>
      </trkpt>
      <trkpt lat="45.3475" lon="5.63303">
        <ele>555.7</ele>
        <time>2021-04-23T15:45:49.000Z</time>
      </trkpt>
      <trkpt lat="45.34787" lon="5.63292">
        <ele>554.8</ele>
        <time>2021-04-23T15:45:59.000Z</time>
      </trkpt>
      <trkpt lat="45.34816" lon="5.63302">
        <ele>554.2</ele>
        <time>2021-04-23T15:46:09.000Z</time>
      </trkpt>
      <trkpt lat="45.34842" lon="5.63299">
        <ele>552.8</ele>
        <time>2021-04-23T15:46:19.000Z</time>
      </trkpt>
      <trkpt lat="45.3486" lon="5.63295">
        <ele>554.5</ele>
        <time>2021-04-23T15:46:29.000Z</time>
      </trkpt>
      <trkpt lat="45.34891" lon="5.63294">
        <ele>557.6</ele>
        <time>2021-04-23T15:46:39.000Z</time>
      </trkpt>
      <trkpt lat="45.34938" lon="5.63287">
        <ele>554.6</ele>
        <time>2021-04-23T15:46:49.000Z</time>
      </trkpt>
      <trkpt lat="45.34986" lon="5.6329">
        <ele>549.3</ele>
        <time>2021-04-23T15:46:59.000Z</time>
      </trkpt>
      <trkpt lat="45.35014" lon="5.63327">
        <ele>544.2</ele>
        <time>2021-04-23T15:47:09.000Z</time>
      </trkpt>
      <trkpt lat="45.3507" lon="5.63361">
        <ele>543</ele>
        <time>2021-04-23T15:47:19.000Z</time>
      </trkpt>
      <trkpt lat="45.35103" lon="5.63391">
        <ele>546.8</ele>
        <time>2021-04-23T15:47:29.000Z</time>
      </trkpt>
      <trkpt lat="45.35125" lon="5.63403">
        <ele>549</ele>
        <time>2021-04-23T15:47:39.000Z</time>
      </trkpt>
      <trkpt lat="45.35172" lon="5.63417">
        <ele>545.3</ele>
        <time>2021-04-23T15:47:49.000Z</time>
      </trkpt>
      <trkpt lat="45.35223" lon="5.63451">
        <ele>547.7</ele>
        <time>2021-04-23T15:47:59.000Z</time>
      </trkpt>
      <trkpt lat="45.35274" lon="5.63471">
        <ele>542.2</ele>
        <time>2021-04-23T15:48:09.000Z</time>
      </trkpt>
      <trkpt lat="45.35331" lon="5.63494">
        <ele>540.3</ele>
        <time>2021-04-23T15:48:19.000Z</time>
      </trkpt>
      <trkpt lat="45.35379" lon="5.63534">
        <ele>538.6</ele>
        <time>2021-04-23T15:48:29.000Z</time>
      </trkpt>
      <trkpt lat="45.35422" lon="5.63549">
        <ele>538.3</ele>
        <time>2021-04-23T15:48:39.000Z</time>
      </trkpt>
      <trkpt lat="45.35473" lon="5.63559">
        <ele>537.1</ele>
        <time>2021-04-23T15:48:49.000Z</time>
      </trkpt>
      <trkpt lat="45.35519" lon="5.63586">
        <ele>534.9</ele>
        <time>2021-04-23T15:48:59.000Z</time>
      </trkpt>
      <trkpt lat="45.35569" lon="5.63624">
        <ele>529.8</ele>
        <time>2021-04-23T15:49:09.000Z</time>
      </trkpt>
      <trkpt lat="45.35618" lon="5.6364">
        <ele>531.4</ele>
        <time>2021-04-23T15:49:19.000Z</time>
      </trkpt>
      <trkpt lat="45.35664" lon="5.63662">
        <ele>532.2</ele>
        <time>2021-04-23T15:49:29.000Z</time>
      </trkpt>
      <trkpt lat="45.3571" lon="5.63698">
        <ele>533.5</ele>
        <time>2021-04-23T15:49:39.000Z</time>
      </trkpt>
      <trkpt lat="45.35747" lon="5.63741">
        <ele>530.9</ele>
        <time>2021-04-23T15:49:49.000Z</time>
      </trkpt>
      <trkpt lat="45.35787" lon="5.63782">
        <ele>529.6</ele>
        <time>2021-04-23T15:49:59.000Z</time>
      </trkpt>
      <trkpt lat="45.35826" lon="5.63807">
        <ele>533.7</ele>
        <time>2021-04-23T15:50:09.000Z</time>
      </trkpt>
      <trkpt lat="45.35842" lon="5.63817">
        <ele>532.2</ele>
        <time>2021-04-23T15:50:19.000Z</time>
      </trkpt>
      <trkpt lat="45.35846" lon="5.63822">
        <ele>531.5</ele>
        <time>2021-04-23T15:50:29.000Z</time>
      </trkpt>
      <trkpt lat="45.35848" lon="5.63842">
        <ele>527.7</ele>
        <time>2021-04-23T15:50:39.000Z</time>
      </trkpt>
      <trkpt lat="45.35848" lon="5.63843">
        <ele>528.7</ele>
        <time>2021-04-23T15:50:53.000Z</time>
      </trkpt>
      <trkpt lat="45.35852" lon="5.63853">
        <ele>527.2</ele>
        <time>2021-04-23T15:51:03.000Z</time>
      </trkpt>
      <trkpt lat="45.35849" lon="5.63853">
        <ele>523</ele>
        <time>2021-04-23T15:51:13.000Z</time>
      </trkpt>
      <trkpt lat="45.3585" lon="5.63856">
        <ele>525.3</ele>
        <time>2021-04-23T15:52:20.000Z</time>
      </trkpt>
      <trkpt lat="45.3586" lon="5.63893">
        <ele>525.4</ele>
        <time>2021-04-23T15:52:30.000Z</time>
      </trkpt>
      <trkpt lat="45.35878" lon="5.63936">
        <ele>527.9</ele>
        <time>2021-04-23T15:52:40.000Z</time>
      </trkpt>
      <trkpt lat="45.359" lon="5.63964">
        <ele>526.3</ele>
        <time>2021-04-23T15:52:50.000Z</time>
      </trkpt>
      <trkpt lat="45.35915" lon="5.64006">
        <ele>525.2</ele>
        <time>2021-04-23T15:53:00.000Z</time>
      </trkpt>
      <trkpt lat="45.35935" lon="5.64044">
        <ele>526.6</ele>
        <time>2021-04-23T15:53:10.000Z</time>
      </trkpt>
      <trkpt lat="45.35953" lon="5.64079">
        <ele>532.3</ele>
        <time>2021-04-23T15:53:20.000Z</time>
      </trkpt>
      <trkpt lat="45.35962" lon="5.64103">
        <ele>533</ele>
        <time>2021-04-23T15:53:30.000Z</time>
      </trkpt>
      <trkpt lat="45.35974" lon="5.64114">
        <ele>534.2</ele>
        <time>2021-04-23T15:53:40.000Z</time>
      </trkpt>
      <trkpt lat="45.36001" lon="5.64154">
        <ele>534.9</ele>
        <time>2021-04-23T15:53:50.000Z</time>
      </trkpt>
      <trkpt lat="45.36022" lon="5.64193">
        <ele>532.3</ele>
        <time>2021-04-23T15:54:00.000Z</time>
      </trkpt>
      <trkpt lat="45.3606" lon="5.64243">
        <ele>530</ele>
        <time>2021-04-23T15:54:10.000Z</time>
      </trkpt>
      <trkpt lat="45.36104" lon="5.64282">
        <ele>526.3</ele>
        <time>2021-04-23T15:54:20.000Z</time>
      </trkpt>
      <trkpt lat="45.36155" lon="5.64305">
        <ele>528.7</ele>
        <time>2021-04-23T15:54:30.000Z</time>
      </trkpt>
      <trkpt lat="45.36199" lon="5.64347">
        <ele>533.6</ele>
        <time>2021-04-23T15:54:40.000Z</time>
      </trkpt>
      <trkpt lat="45.36228" lon="5.64376">
        <ele>529.4</ele>
        <time>2021-04-23T15:54:50.000Z</time>
      </trkpt>
      <trkpt lat="45.36251" lon="5.64379">
        <ele>526.9</ele>
        <time>2021-04-23T15:55:00.000Z</time>
      </trkpt>
      <trkpt lat="45.36288" lon="5.6441">
        <ele>525.4</ele>
        <time>2021-04-23T15:55:10.000Z</time>
      </trkpt>
      <trkpt lat="45.36303" lon="5.64444">
        <ele>526.9</ele>
        <time>2021-04-23T15:55:20.000Z</time>
      </trkpt>
      <trkpt lat="45.36322" lon="5.64453">
        <ele>528.8</ele>
        <time>2021-04-23T15:55:30.000Z</time>
      </trkpt>
      <trkpt lat="45.3634" lon="5.64471">
        <ele>529.4</ele>
        <time>2021-04-23T15:55:40.000Z</time>
      </trkpt>
      <trkpt lat="45.36364" lon="5.64493">
        <ele>526.1</ele>
        <time>2021-04-23T15:55:50.000Z</time>
      </trkpt>
      <trkpt lat="45.36389" lon="5.64524">
        <ele>521.1</ele>
        <time>2021-04-23T15:56:00.000Z</time>
      </trkpt>
      <trkpt lat="45.36406" lon="5.6456">
        <ele>519.8</ele>
        <time>2021-04-23T15:56:10.000Z</time>
      </trkpt>
      <trkpt lat="45.36444" lon="5.646">
        <ele>522.5</ele>
        <time>2021-04-23T15:56:20.000Z</time>
      </trkpt>
      <trkpt lat="45.36472" lon="5.64631">
        <ele>526.7</ele>
        <time>2021-04-23T15:56:30.000Z</time>
      </trkpt>
      <trkpt lat="45.36473" lon="5.64632">
        <ele>525.2</ele>
        <time>2021-04-23T15:56:40.000Z</time>
      </trkpt>
      <trkpt lat="45.36492" lon="5.64644">
        <ele>529.7</ele>
        <time>2021-04-23T15:56:50.000Z</time>
      </trkpt>
      <trkpt lat="45.36521" lon="5.64655">
        <ele>532.1</ele>
        <time>2021-04-23T15:57:00.000Z</time>
      </trkpt>
      <trkpt lat="45.36568" lon="5.64674">
        <ele>526.1</ele>
        <time>2021-04-23T15:57:10.000Z</time>
      </trkpt>
      <trkpt lat="45.36617" lon="5.64691">
        <ele>520.4</ele>
        <time>2021-04-23T15:57:20.000Z</time>
      </trkpt>
      <trkpt lat="45.3665" lon="5.64692">
        <ele>517.8</ele>
        <time>2021-04-23T15:57:30.000Z</time>
      </trkpt>
      <trkpt lat="45.36668" lon="5.64725">
        <ele>511.5</ele>
        <time>2021-04-23T15:57:40.000Z</time>
      </trkpt>
      <trkpt lat="45.36673" lon="5.64759">
        <ele>505.8</ele>
        <time>2021-04-23T15:57:50.000Z</time>
      </trkpt>
      <trkpt lat="45.36689" lon="5.64785">
        <ele>500.9</ele>
        <time>2021-04-23T15:58:00.000Z</time>
      </trkpt>
      <trkpt lat="45.36715" lon="5.64801">
        <ele>489</ele>
        <time>2021-04-23T15:58:10.000Z</time>
      </trkpt>
      <trkpt lat="45.3676" lon="5.64791">
        <ele>488.5</ele>
        <time>2021-04-23T15:58:20.000Z</time>
      </trkpt>
      <trkpt lat="45.36807" lon="5.64789">
        <ele>484.5</ele>
        <time>2021-04-23T15:58:30.000Z</time>
      </trkpt>
      <trkpt lat="45.36845" lon="5.64822">
        <ele>480.2</ele>
        <time>2021-04-23T15:58:40.000Z</time>
      </trkpt>
      <trkpt lat="45.36869" lon="5.64849">
        <ele>476.1</ele>
        <time>2021-04-23T15:58:50.000Z</time>
      </trkpt>
      <trkpt lat="45.36899" lon="5.64858">
        <ele>472.6</ele>
        <time>2021-04-23T15:59:00.000Z</time>
      </trkpt>
      <trkpt lat="45.36925" lon="5.64856">
        <ele>463</ele>
        <time>2021-04-23T15:59:10.000Z</time>
      </trkpt>
      <trkpt lat="45.36949" lon="5.64849">
        <ele>453.3</ele>
        <time>2021-04-23T15:59:20.000Z</time>
      </trkpt>
      <trkpt lat="45.36964" lon="5.64837">
        <ele>448.4</ele>
        <time>2021-04-23T15:59:30.000Z</time>
      </trkpt>
      <trkpt lat="45.36966" lon="5.64838">
        <ele>448.7</ele>
        <time>2021-04-23T15:59:40.000Z</time>
      </trkpt>
      <trkpt lat="45.36973" lon="5.64832">
        <ele>447.4</ele>
        <time>2021-04-23T15:59:50.000Z</time>
      </trkpt>
      <trkpt lat="45.36989" lon="5.64803">
        <ele>443.3</ele>
        <time>2021-04-23T16:00:00.000Z</time>
      </trkpt>
      <trkpt lat="45.3699" lon="5.64783">
        <ele>442.8</ele>
        <time>2021-04-23T16:00:10.000Z</time>
      </trkpt>
      <trkpt lat="45.36996" lon="5.64765">
        <ele>438.4</ele>
        <time>2021-04-23T16:00:20.000Z</time>
      </trkpt>
      <trkpt lat="45.37" lon="5.64743">
        <ele>435.9</ele>
        <time>2021-04-23T16:00:30.000Z</time>
      </trkpt>
      <trkpt lat="45.37013" lon="5.64715">
        <ele>429.2</ele>
        <time>2021-04-23T16:00:40.000Z</time>
      </trkpt>
      <trkpt lat="45.37033" lon="5.64727">
        <ele>424.6</ele>
        <time>2021-04-23T16:00:50.000Z</time>
      </trkpt>
      <trkpt lat="45.37037" lon="5.64705">
        <ele>421.3</ele>
        <time>2021-04-23T16:01:00.000Z</time>
      </trkpt>
      <trkpt lat="45.37052" lon="5.64646">
        <ele>413.6</ele>
        <time>2021-04-23T16:01:10.000Z</time>
      </trkpt>
      <trkpt lat="45.371" lon="5.64582">
        <ele>403.4</ele>
        <time>2021-04-23T16:01:20.000Z</time>
      </trkpt>
      <trkpt lat="45.37156" lon="5.64506">
        <ele>402.2</ele>
        <time>2021-04-23T16:01:30.000Z</time>
      </trkpt>
      <trkpt lat="45.37186" lon="5.64455">
        <ele>402.5</ele>
        <time>2021-04-23T16:01:40.000Z</time>
      </trkpt>
      <trkpt lat="45.37172" lon="5.64409">
        <ele>401.6</ele>
        <time>2021-04-23T16:01:50.000Z</time>
      </trkpt>
      <trkpt lat="45.37145" lon="5.64379">
        <ele>402.3</ele>
        <time>2021-04-23T16:02:00.000Z</time>
      </trkpt>
      <trkpt lat="45.3711" lon="5.64353">
        <ele>403.3</ele>
        <time>2021-04-23T16:02:10.000Z</time>
      </trkpt>
      <trkpt lat="45.37075" lon="5.64326">
        <ele>402.8</ele>
        <time>2021-04-23T16:02:20.000Z</time>
      </trkpt>
      <trkpt lat="45.3704" lon="5.64298">
        <ele>404.1</ele>
        <time>2021-04-23T16:02:30.000Z</time>
      </trkpt>
      <trkpt lat="45.37007" lon="5.64265">
        <ele>402.6</ele>
        <time>2021-04-23T16:02:40.000Z</time>
      </trkpt>
      <trkpt lat="45.36977" lon="5.64221">
        <ele>401.3</ele>
        <time>2021-04-23T16:02:50.000Z</time>
      </trkpt>
      <trkpt lat="45.36949" lon="5.64172">
        <ele>399.9</ele>
        <time>2021-04-23T16:03:00.000Z</time>
      </trkpt>
      <trkpt lat="45.36924" lon="5.64121">
        <ele>400.4</ele>
        <time>2021-04-23T16:03:10.000Z</time>
      </trkpt>
      <trkpt lat="45.36903" lon="5.64064">
        <ele>398.8</ele>
        <time>2021-04-23T16:03:20.000Z</time>
      </trkpt>
      <trkpt lat="45.36887" lon="5.64011">
        <ele>399.6</ele>
        <time>2021-04-23T16:03:30.000Z</time>
      </trkpt>
      <trkpt lat="45.36867" lon="5.63962">
        <ele>399.3</ele>
        <time>2021-04-23T16:03:40.000Z</time>
      </trkpt>
      <trkpt lat="45.36834" lon="5.63922">
        <ele>399.9</ele>
        <time>2021-04-23T16:03:50.000Z</time>
      </trkpt>
      <trkpt lat="45.36798" lon="5.63888">
        <ele>401.6</ele>
        <time>2021-04-23T16:04:00.000Z</time>
      </trkpt>
      <trkpt lat="45.36759" lon="5.63857">
        <ele>401.2</ele>
        <time>2021-04-23T16:04:10.000Z</time>
      </trkpt>
      <trkpt lat="45.3672" lon="5.63827">
        <ele>400.8</ele>
        <time>2021-04-23T16:04:20.000Z</time>
      </trkpt>
      <trkpt lat="45.36676" lon="5.6379">
        <ele>400.7</ele>
        <time>2021-04-23T16:04:30.000Z</time>
      </trkpt>
      <trkpt lat="45.36646" lon="5.6374">
        <ele>399.6</ele>
        <time>2021-04-23T16:04:40.000Z</time>
      </trkpt>
      <trkpt lat="45.36619" lon="5.63683">
        <ele>400</ele>
        <time>2021-04-23T16:04:50.000Z</time>
      </trkpt>
      <trkpt lat="45.36592" lon="5.63628">
        <ele>400.1</ele>
        <time>2021-04-23T16:05:00.000Z</time>
      </trkpt>
      <trkpt lat="45.36568" lon="5.63573">
        <ele>400</ele>
        <time>2021-04-23T16:05:10.000Z</time>
      </trkpt>
      <trkpt lat="45.36549" lon="5.63531">
        <ele>399.7</ele>
        <time>2021-04-23T16:05:20.000Z</time>
      </trkpt>
      <trkpt lat="45.36535" lon="5.63468">
        <ele>398.3</ele>
        <time>2021-04-23T16:05:30.000Z</time>
      </trkpt>
      <trkpt lat="45.36547" lon="5.63406">
        <ele>399.8</ele>
        <time>2021-04-23T16:05:40.000Z</time>
      </trkpt>
      <trkpt lat="45.36556" lon="5.63371">
        <ele>402.5</ele>
        <time>2021-04-23T16:05:50.000Z</time>
      </trkpt>
      <trkpt lat="45.36557" lon="5.6337">
        <ele>403.3</ele>
        <time>2021-04-23T16:07:00.000Z</time>
      </trkpt>
      <trkpt lat="45.36558" lon="5.63371">
        <ele>403.4</ele>
        <time>2021-04-23T16:07:42.000Z</time>
      </trkpt>
      <trkpt lat="45.36557" lon="5.63371">
        <ele>402.4</ele>
        <time>2021-04-23T16:07:58.000Z</time>
      </trkpt>
      <trkpt lat="45.36557" lon="5.63369">
        <ele>401.6</ele>
        <time>2021-04-23T16:08:08.000Z</time>
      </trkpt>
      <trkpt lat="45.36554" lon="5.63367">
        <ele>401</ele>
        <time>2021-04-23T16:08:18.000Z</time>
      </trkpt>
      <trkpt lat="45.36555" lon="5.63367">
        <ele>399.8</ele>
        <time>2021-04-23T16:08:28.000Z</time>
      </trkpt>
      <trkpt lat="45.36555" lon="5.63368">
        <ele>400.5</ele>
        <time>2021-04-23T16:08:47.000Z</time>
      </trkpt>
      <trkpt lat="45.36555" lon="5.63369">
        <ele>400.1</ele>
        <time>2021-04-23T16:09:05.000Z</time>
      </trkpt>
      <trkpt lat="45.36554" lon="5.6337">
        <ele>401.6</ele>
        <time>2021-04-23T16:09:15.000Z</time>
      </trkpt>
      <trkpt lat="45.36553" lon="5.63369">
        <ele>402.5</ele>
        <time>2021-04-23T16:09:35.000Z</time>
      </trkpt>
      <trkpt lat="45.36554" lon="5.63368">
        <ele>402.6</ele>
        <time>2021-04-23T16:10:51.000Z</time>
      </trkpt>
      <trkpt lat="45.36549" lon="5.63365">
        <ele>403.1</ele>
        <time>2021-04-23T16:11:01.000Z</time>
      </trkpt>
      <trkpt lat="45.36533" lon="5.63366">
        <ele>403.1</ele>
        <time>2021-04-23T16:11:11.000Z</time>
      </trkpt>
      <trkpt lat="45.36501" lon="5.63358">
        <ele>403.9</ele>
        <time>2021-04-23T16:11:21.000Z</time>
      </trkpt>
      <trkpt lat="45.36461" lon="5.63362">
        <ele>402.6</ele>
        <time>2021-04-23T16:11:31.000Z</time>
      </trkpt>
      <trkpt lat="45.36416" lon="5.63367">
        <ele>402.4</ele>
        <time>2021-04-23T16:11:41.000Z</time>
      </trkpt>
      <trkpt lat="45.36381" lon="5.63373">
        <ele>402.3</ele>
        <time>2021-04-23T16:11:51.000Z</time>
      </trkpt>
      <trkpt lat="45.36369" lon="5.63378">
        <ele>402.9</ele>
        <time>2021-04-23T16:12:01.000Z</time>
      </trkpt>
      <trkpt lat="45.36361" lon="5.63358">
        <ele>406.5</ele>
        <time>2021-04-23T16:12:11.000Z</time>
      </trkpt>
      <trkpt lat="45.36356" lon="5.6333">
        <ele>409.3</ele>
        <time>2021-04-23T16:12:21.000Z</time>
      </trkpt>
      <trkpt lat="45.36346" lon="5.63303">
        <ele>414.9</ele>
        <time>2021-04-23T16:12:31.000Z</time>
      </trkpt>
      <trkpt lat="45.36338" lon="5.63272">
        <ele>418.6</ele>
        <time>2021-04-23T16:12:41.000Z</time>
      </trkpt>
      <trkpt lat="45.36328" lon="5.63244">
        <ele>423.2</ele>
        <time>2021-04-23T16:12:51.000Z</time>
      </trkpt>
      <trkpt lat="45.36316" lon="5.6322">
        <ele>428.4</ele>
        <time>2021-04-23T16:13:01.000Z</time>
      </trkpt>
      <trkpt lat="45.36307" lon="5.63203">
        <ele>426.9</ele>
        <time>2021-04-23T16:13:11.000Z</time>
      </trkpt>
      <trkpt lat="45.36306" lon="5.63202">
        <ele>426.2</ele>
        <time>2021-04-23T16:13:24.000Z</time>
      </trkpt>
      <trkpt lat="45.36304" lon="5.632">
        <ele>425</ele>
        <time>2021-04-23T16:13:34.000Z</time>
      </trkpt>
      <trkpt lat="45.36288" lon="5.63181">
        <ele>428.2</ele>
        <time>2021-04-23T16:13:44.000Z</time>
      </trkpt>
      <trkpt lat="45.36269" lon="5.63146">
        <ele>428.2</ele>
        <time>2021-04-23T16:13:54.000Z</time>
      </trkpt>
      <trkpt lat="45.36265" lon="5.63117">
        <ele>427.4</ele>
        <time>2021-04-23T16:14:04.000Z</time>
      </trkpt>
      <trkpt lat="45.36268" lon="5.63087">
        <ele>429.6</ele>
        <time>2021-04-23T16:14:14.000Z</time>
      </trkpt>
      <trkpt lat="45.36266" lon="5.63056">
        <ele>433.7</ele>
        <time>2021-04-23T16:14:24.000Z</time>
      </trkpt>
      <trkpt lat="45.36251" lon="5.63024">
        <ele>433.1</ele>
        <time>2021-04-23T16:14:34.000Z</time>
      </trkpt>
      <trkpt lat="45.36242" lon="5.63013">
        <ele>430.3</ele>
        <time>2021-04-23T16:14:44.000Z</time>
      </trkpt>
      <trkpt lat="45.3624" lon="5.63011">
        <ele>429.5</ele>
        <time>2021-04-23T16:14:54.000Z</time>
      </trkpt>
      <trkpt lat="45.36239" lon="5.63011">
        <ele>429.5</ele>
        <time>2021-04-23T16:15:12.000Z</time>
      </trkpt>
      <trkpt lat="45.36238" lon="5.6301">
        <ele>431.6</ele>
        <time>2021-04-23T16:15:22.000Z</time>
      </trkpt>
      <trkpt lat="45.3624" lon="5.6301">
        <ele>432.9</ele>
        <time>2021-04-23T16:15:32.000Z</time>
      </trkpt>
      <trkpt lat="45.36241" lon="5.63008">
        <ele>432.7</ele>
        <time>2021-04-23T16:15:42.000Z</time>
      </trkpt>
      <trkpt lat="45.36241" lon="5.6301">
        <ele>431.2</ele>
        <time>2021-04-23T16:18:26.000Z</time>
      </trkpt>
      <trkpt lat="45.3624" lon="5.6301">
        <ele>430.8</ele>
        <time>2021-04-23T16:18:43.000Z</time>
      </trkpt>
      <trkpt lat="45.36239" lon="5.63009">
        <ele>433.3</ele>
        <time>2021-04-23T16:18:53.000Z</time>
      </trkpt>
      <trkpt lat="45.36238" lon="5.63008">
        <ele>432.8</ele>
        <time>2021-04-23T16:19:03.000Z</time>
      </trkpt>
      <trkpt lat="45.36229" lon="5.62999">
        <ele>430.5</ele>
        <time>2021-04-23T16:19:13.000Z</time>
      </trkpt>
      <trkpt lat="45.36224" lon="5.62995">
        <ele>430</ele>
        <time>2021-04-23T16:19:23.000Z</time>
      </trkpt>
      <trkpt lat="45.36197" lon="5.62966">
        <ele>432.2</ele>
        <time>2021-04-23T16:19:33.000Z</time>
      </trkpt>
      <trkpt lat="45.3617" lon="5.62942">
        <ele>432.2</ele>
        <time>2021-04-23T16:19:43.000Z</time>
      </trkpt>
      <trkpt lat="45.36144" lon="5.62916">
        <ele>431.3</ele>
        <time>2021-04-23T16:19:53.000Z</time>
      </trkpt>
      <trkpt lat="45.36121" lon="5.62876">
        <ele>430.6</ele>
        <time>2021-04-23T16:20:03.000Z</time>
      </trkpt>
      <trkpt lat="45.36106" lon="5.62824">
        <ele>428.4</ele>
        <time>2021-04-23T16:20:13.000Z</time>
      </trkpt>
      <trkpt lat="45.36084" lon="5.62777">
        <ele>423.7</ele>
        <time>2021-04-23T16:20:23.000Z</time>
      </trkpt>
      <trkpt lat="45.36101" lon="5.62734">
        <ele>421.8</ele>
        <time>2021-04-23T16:20:33.000Z</time>
      </trkpt>
      <trkpt lat="45.36132" lon="5.62693">
        <ele>422.1</ele>
        <time>2021-04-23T16:20:43.000Z</time>
      </trkpt>
      <trkpt lat="45.36163" lon="5.62652">
        <ele>421.4</ele>
        <time>2021-04-23T16:20:53.000Z</time>
      </trkpt>
      <trkpt lat="45.36187" lon="5.62573">
        <ele>418.7</ele>
        <time>2021-04-23T16:21:03.000Z</time>
      </trkpt>
      <trkpt lat="45.36185" lon="5.62502">
        <ele>418.9</ele>
        <time>2021-04-23T16:21:13.000Z</time>
      </trkpt>
      <trkpt lat="45.36203" lon="5.62468">
        <ele>420.4</ele>
        <time>2021-04-23T16:21:23.000Z</time>
      </trkpt>
      <trkpt lat="45.36231" lon="5.62478">
        <ele>425.4</ele>
        <time>2021-04-23T16:21:33.000Z</time>
      </trkpt>
      <trkpt lat="45.36262" lon="5.62495">
        <ele>425.5</ele>
        <time>2021-04-23T16:21:43.000Z</time>
      </trkpt>
      <trkpt lat="45.36312" lon="5.62524">
        <ele>420.2</ele>
        <time>2021-04-23T16:21:53.000Z</time>
      </trkpt>
      <trkpt lat="45.36357" lon="5.62522">
        <ele>415.1</ele>
        <time>2021-04-23T16:22:03.000Z</time>
      </trkpt>
      <trkpt lat="45.3641" lon="5.62541">
        <ele>411.8</ele>
        <time>2021-04-23T16:22:13.000Z</time>
      </trkpt>
      <trkpt lat="45.36444" lon="5.62579">
        <ele>408.1</ele>
        <time>2021-04-23T16:22:23.000Z</time>
      </trkpt>
      <trkpt lat="45.36483" lon="5.62597">
        <ele>406.3</ele>
        <time>2021-04-23T16:22:33.000Z</time>
      </trkpt>
      <trkpt lat="45.36531" lon="5.62578">
        <ele>403.3</ele>
        <time>2021-04-23T16:22:43.000Z</time>
      </trkpt>
      <trkpt lat="45.36587" lon="5.62569">
        <ele>400</ele>
        <time>2021-04-23T16:22:53.000Z</time>
      </trkpt>
      <trkpt lat="45.36635" lon="5.6256">
        <ele>397.5</ele>
        <time>2021-04-23T16:23:03.000Z</time>
      </trkpt>
      <trkpt lat="45.36661" lon="5.62535">
        <ele>401.5</ele>
        <time>2021-04-23T16:23:13.000Z</time>
      </trkpt>
      <trkpt lat="45.36679" lon="5.62517">
        <ele>400</ele>
        <time>2021-04-23T16:23:23.000Z</time>
      </trkpt>
      <trkpt lat="45.3669" lon="5.62505">
        <ele>398.6</ele>
        <time>2021-04-23T16:23:33.000Z</time>
      </trkpt>
      <trkpt lat="45.36699" lon="5.62441">
        <ele>398.4</ele>
        <time>2021-04-23T16:23:43.000Z</time>
      </trkpt>
      <trkpt lat="45.36675" lon="5.62394">
        <ele>400.2</ele>
        <time>2021-04-23T16:23:53.000Z</time>
      </trkpt>
      <trkpt lat="45.36652" lon="5.62341">
        <ele>401.8</ele>
        <time>2021-04-23T16:24:03.000Z</time>
      </trkpt>
      <trkpt lat="45.36634" lon="5.62287">
        <ele>402</ele>
        <time>2021-04-23T16:24:13.000Z</time>
      </trkpt>
      <trkpt lat="45.36615" lon="5.62237">
        <ele>402.2</ele>
        <time>2021-04-23T16:24:23.000Z</time>
      </trkpt>
      <trkpt lat="45.36587" lon="5.62194">
        <ele>404.3</ele>
        <time>2021-04-23T16:24:33.000Z</time>
      </trkpt>
      <trkpt lat="45.36554" lon="5.62156">
        <ele>404.9</ele>
        <time>2021-04-23T16:24:43.000Z</time>
      </trkpt>
      <trkpt lat="45.36527" lon="5.62108">
        <ele>405.9</ele>
        <time>2021-04-23T16:24:53.000Z</time>
      </trkpt>
      <trkpt lat="45.36527" lon="5.6204">
        <ele>403.9</ele>
        <time>2021-04-23T16:25:03.000Z</time>
      </trkpt>
      <trkpt lat="45.36534" lon="5.62006">
        <ele>401</ele>
        <time>2021-04-23T16:25:13.000Z</time>
      </trkpt>
      <trkpt lat="45.3651" lon="5.62042">
        <ele>399.4</ele>
        <time>2021-04-23T16:25:23.000Z</time>
      </trkpt>
      <trkpt lat="45.36472" lon="5.62088">
        <ele>397</ele>
        <time>2021-04-23T16:25:33.000Z</time>
      </trkpt>
      <trkpt lat="45.36414" lon="5.6209">
        <ele>391.2</ele>
        <time>2021-04-23T16:25:43.000Z</time>
      </trkpt>
      <trkpt lat="45.36365" lon="5.62079">
        <ele>384.2</ele>
        <time>2021-04-23T16:25:53.000Z</time>
      </trkpt>
      <trkpt lat="45.36354" lon="5.62016">
        <ele>376.5</ele>
        <time>2021-04-23T16:26:03.000Z</time>
      </trkpt>
      <trkpt lat="45.36349" lon="5.61953">
        <ele>372.2</ele>
        <time>2021-04-23T16:26:13.000Z</time>
      </trkpt>
      <trkpt lat="45.36315" lon="5.61905">
        <ele>368.2</ele>
        <time>2021-04-23T16:26:23.000Z</time>
      </trkpt>
      <trkpt lat="45.36274" lon="5.61869">
        <ele>362.6</ele>
        <time>2021-04-23T16:26:33.000Z</time>
      </trkpt>
      <trkpt lat="45.36242" lon="5.61848">
        <ele>357.3</ele>
        <time>2021-04-23T16:26:43.000Z</time>
      </trkpt>
      <trkpt lat="45.36205" lon="5.61834">
        <ele>354.2</ele>
        <time>2021-04-23T16:26:53.000Z</time>
      </trkpt>
      <trkpt lat="45.36171" lon="5.61826">
        <ele>351.6</ele>
        <time>2021-04-23T16:27:03.000Z</time>
      </trkpt>
      <trkpt lat="45.36161" lon="5.61829">
        <ele>349</ele>
        <time>2021-04-23T16:27:13.000Z</time>
      </trkpt>
      <trkpt lat="45.3616" lon="5.6183">
        <ele>347.8</ele>
        <time>2021-04-23T16:27:24.000Z</time>
      </trkpt>
      <trkpt lat="45.36159" lon="5.6183">
        <ele>347.8</ele>
        <time>2021-04-23T16:27:34.000Z</time>
      </trkpt>
      <trkpt lat="45.36158" lon="5.61829">
        <ele>348.7</ele>
        <time>2021-04-23T16:27:50.000Z</time>
      </trkpt>
      <trkpt lat="45.36136" lon="5.61809">
        <ele>348.4</ele>
        <time>2021-04-23T16:28:00.000Z</time>
      </trkpt>
      <trkpt lat="45.36122" lon="5.61751">
        <ele>346.4</ele>
        <time>2021-04-23T16:28:10.000Z</time>
      </trkpt>
      <trkpt lat="45.36107" lon="5.6167">
        <ele>345.9</ele>
        <time>2021-04-23T16:28:20.000Z</time>
      </trkpt>
      <trkpt lat="45.3608" lon="5.61597">
        <ele>346.8</ele>
        <time>2021-04-23T16:28:30.000Z</time>
      </trkpt>
      <trkpt lat="45.36079" lon="5.61535">
        <ele>349.3</ele>
        <time>2021-04-23T16:28:40.000Z</time>
      </trkpt>
      <trkpt lat="45.36082" lon="5.61475">
        <ele>352.5</ele>
        <time>2021-04-23T16:28:50.000Z</time>
      </trkpt>
      <trkpt lat="45.36066" lon="5.61436">
        <ele>353.4</ele>
        <time>2021-04-23T16:29:00.000Z</time>
      </trkpt>
      <trkpt lat="45.36004" lon="5.61431">
        <ele>349.1</ele>
        <time>2021-04-23T16:29:10.000Z</time>
      </trkpt>
      <trkpt lat="45.35954" lon="5.61406">
        <ele>343.2</ele>
        <time>2021-04-23T16:29:20.000Z</time>
      </trkpt>
      <trkpt lat="45.35896" lon="5.61409">
        <ele>332.8</ele>
        <time>2021-04-23T16:29:30.000Z</time>
      </trkpt>
      <trkpt lat="45.35876" lon="5.6138">
        <ele>328</ele>
        <time>2021-04-23T16:29:40.000Z</time>
      </trkpt>
      <trkpt lat="45.35905" lon="5.61307">
        <ele>326.6</ele>
        <time>2021-04-23T16:29:50.000Z</time>
      </trkpt>
      <trkpt lat="45.35936" lon="5.6123">
        <ele>324.8</ele>
        <time>2021-04-23T16:30:00.000Z</time>
      </trkpt>
      <trkpt lat="45.35963" lon="5.61156">
        <ele>323.7</ele>
        <time>2021-04-23T16:30:10.000Z</time>
      </trkpt>
      <trkpt lat="45.35965" lon="5.61131">
        <ele>323</ele>
        <time>2021-04-23T16:30:20.000Z</time>
      </trkpt>
      <trkpt lat="45.35978" lon="5.61089">
        <ele>323.1</ele>
        <time>2021-04-23T16:30:30.000Z</time>
      </trkpt>
      <trkpt lat="45.3599" lon="5.61027">
        <ele>317.2</ele>
        <time>2021-04-23T16:30:40.000Z</time>
      </trkpt>
      <trkpt lat="45.35974" lon="5.6093">
        <ele>306</ele>
        <time>2021-04-23T16:30:50.000Z</time>
      </trkpt>
      <trkpt lat="45.35932" lon="5.60841">
        <ele>304.2</ele>
        <time>2021-04-23T16:31:00.000Z</time>
      </trkpt>
      <trkpt lat="45.35893" lon="5.60776">
        <ele>304.3</ele>
        <time>2021-04-23T16:31:10.000Z</time>
      </trkpt>
      <trkpt lat="45.35877" lon="5.60727">
        <ele>304.2</ele>
        <time>2021-04-23T16:31:20.000Z</time>
      </trkpt>
      <trkpt lat="45.35914" lon="5.60688">
        <ele>303.9</ele>
        <time>2021-04-23T16:31:30.000Z</time>
      </trkpt>
      <trkpt lat="45.35961" lon="5.60636">
        <ele>304.1</ele>
        <time>2021-04-23T16:31:40.000Z</time>
      </trkpt>
      <trkpt lat="45.36011" lon="5.60589">
        <ele>303.9</ele>
        <time>2021-04-23T16:31:50.000Z</time>
      </trkpt>
      <trkpt lat="45.36059" lon="5.60539">
        <ele>303.3</ele>
        <time>2021-04-23T16:32:00.000Z</time>
      </trkpt>
      <trkpt lat="45.36113" lon="5.60493">
        <ele>301.9</ele>
        <time>2021-04-23T16:32:10.000Z</time>
      </trkpt>
      <trkpt lat="45.36172" lon="5.60429">
        <ele>299</ele>
        <time>2021-04-23T16:32:20.000Z</time>
      </trkpt>
      <trkpt lat="45.36177" lon="5.60317">
        <ele>296</ele>
        <time>2021-04-23T16:32:30.000Z</time>
      </trkpt>
      <trkpt lat="45.36202" lon="5.60294">
        <ele>295</ele>
        <time>2021-04-23T16:32:40.000Z</time>
      </trkpt>
      <trkpt lat="45.36232" lon="5.60327">
        <ele>297.7</ele>
        <time>2021-04-23T16:32:50.000Z</time>
      </trkpt>
      <trkpt lat="45.36264" lon="5.60363">
        <ele>300.5</ele>
        <time>2021-04-23T16:33:00.000Z</time>
      </trkpt>
      <trkpt lat="45.36294" lon="5.60388">
        <ele>304</ele>
        <time>2021-04-23T16:33:10.000Z</time>
      </trkpt>
      <trkpt lat="45.36325" lon="5.60364">
        <ele>306.4</ele>
        <time>2021-04-23T16:33:20.000Z</time>
      </trkpt>
      <trkpt lat="45.36349" lon="5.60315">
        <ele>308.1</ele>
        <time>2021-04-23T16:33:30.000Z</time>
      </trkpt>
      <trkpt lat="45.36374" lon="5.60249">
        <ele>308.9</ele>
        <time>2021-04-23T16:33:40.000Z</time>
      </trkpt>
      <trkpt lat="45.3639" lon="5.60195">
        <ele>309.4</ele>
        <time>2021-04-23T16:33:50.000Z</time>
      </trkpt>
      <trkpt lat="45.36388" lon="5.6019">
        <ele>309.4</ele>
        <time>2021-04-23T16:34:00.000Z</time>
      </trkpt>
      <trkpt lat="45.36397" lon="5.60191">
        <ele>310.4</ele>
        <time>2021-04-23T16:34:10.000Z</time>
      </trkpt>
      <trkpt lat="45.36413" lon="5.60179">
        <ele>312.6</ele>
        <time>2021-04-23T16:34:20.000Z</time>
      </trkpt>
      <trkpt lat="45.36414" lon="5.60178">
        <ele>313.3</ele>
        <time>2021-04-23T16:34:30.000Z</time>
      </trkpt>
      <trkpt lat="45.36415" lon="5.60178">
        <ele>312.5</ele>
        <time>2021-04-23T16:34:41.000Z</time>
      </trkpt>
      <trkpt lat="45.36412" lon="5.60183">
        <ele>312</ele>
        <time>2021-04-23T16:34:51.000Z</time>
      </trkpt>
      <trkpt lat="45.36411" lon="5.6019">
        <ele>313</ele>
        <time>2021-04-23T16:35:01.000Z</time>
      </trkpt>
      <trkpt lat="45.36414" lon="5.60192">
        <ele>311.8</ele>
        <time>2021-04-23T16:35:11.000Z</time>
      </trkpt>
      <trkpt lat="45.36414" lon="5.6019">
        <ele>309</ele>
        <time>2021-04-23T16:35:31.000Z</time>
      </trkpt>
      <trkpt lat="45.36416" lon="5.60191">
        <ele>306.3</ele>
        <time>2021-04-23T16:35:41.000Z</time>
      </trkpt>
      <trkpt lat="45.36417" lon="5.60189">
        <ele>306.4</ele>
        <time>2021-04-23T16:36:00.000Z</time>
      </trkpt>
      <trkpt lat="45.36416" lon="5.60191">
        <ele>309</ele>
        <time>2021-04-23T16:36:10.000Z</time>
      </trkpt>
      <trkpt lat="45.36412" lon="5.60193">
        <ele>309.8</ele>
        <time>2021-04-23T16:36:20.000Z</time>
      </trkpt>
      <trkpt lat="45.36412" lon="5.60181">
        <ele>309.7</ele>
        <time>2021-04-23T16:36:30.000Z</time>
      </trkpt>
      <trkpt lat="45.36411" lon="5.60183">
        <ele>312.7</ele>
        <time>2021-04-23T16:36:40.000Z</time>
      </trkpt>
      <trkpt lat="45.36411" lon="5.60184">
        <ele>315.2</ele>
        <time>2021-04-23T16:36:58.000Z</time>
      </trkpt>
      <trkpt lat="45.36409" lon="5.60187">
        <ele>313.4</ele>
        <time>2021-04-23T16:37:08.000Z</time>
      </trkpt>
      <trkpt lat="45.36412" lon="5.60191">
        <ele>312.7</ele>
        <time>2021-04-23T16:37:18.000Z</time>
      </trkpt>
      <trkpt lat="45.36415" lon="5.60193">
        <ele>310.8</ele>
        <time>2021-04-23T16:37:28.000Z</time>
      </trkpt>
      <trkpt lat="45.36415" lon="5.60194">
        <ele>312.1</ele>
        <time>2021-04-23T16:38:25.000Z</time>
      </trkpt>
      <trkpt lat="45.36413" lon="5.60195">
        <ele>314</ele>
        <time>2021-04-23T16:38:35.000Z</time>
      </trkpt>
      <trkpt lat="45.36414" lon="5.60194">
        <ele>312.1</ele>
        <time>2021-04-23T16:38:45.000Z</time>
      </trkpt>
      <trkpt lat="45.36418" lon="5.6019">
        <ele>309.1</ele>
        <time>2021-04-23T16:38:55.000Z</time>
      </trkpt>
      <trkpt lat="45.36416" lon="5.60191">
        <ele>310.1</ele>
        <time>2021-04-23T16:39:05.000Z</time>
      </trkpt>
      <trkpt lat="45.36416" lon="5.60192">
        <ele>311.2</ele>
        <time>2021-04-23T16:40:17.000Z</time>
      </trkpt>
      <trkpt lat="45.36418" lon="5.60192">
        <ele>309.4</ele>
        <time>2021-04-23T16:40:32.000Z</time>
      </trkpt>
      <trkpt lat="45.36419" lon="5.60192">
        <ele>304.8</ele>
        <time>2021-04-23T16:40:42.000Z</time>
      </trkpt>
      <trkpt lat="45.36418" lon="5.60193">
        <ele>305.6</ele>
        <time>2021-04-23T16:41:39.000Z</time>
      </trkpt>
      <trkpt lat="45.36417" lon="5.60192">
        <ele>308.1</ele>
        <time>2021-04-23T16:42:19.000Z</time>
      </trkpt>
      <trkpt lat="45.36418" lon="5.60193">
        <ele>306.6</ele>
        <time>2021-04-23T16:42:29.000Z</time>
      </trkpt>
      <trkpt lat="45.36418" lon="5.60195">
        <ele>307.8</ele>
        <time>2021-04-23T16:43:24.000Z</time>
      </trkpt>
      <trkpt lat="45.36418" lon="5.60196">
        <ele>308</ele>
        <time>2021-04-23T16:45:49.000Z</time>
      </trkpt>
      <trkpt lat="45.36417" lon="5.60197">
        <ele>309</ele>
        <time>2021-04-23T16:48:53.000Z</time>
      </trkpt>
      <trkpt lat="45.36416" lon="5.60198">
        <ele>309.9</ele>
        <time>2021-04-23T16:51:13.000Z</time>
      </trkpt>
      <trkpt lat="45.36415" lon="5.60198">
        <ele>312.1</ele>
        <time>2021-04-23T16:53:07.000Z</time>
      </trkpt>
      <trkpt lat="45.36414" lon="5.60198">
        <ele>312.6</ele>
        <time>2021-04-23T16:53:17.000Z</time>
      </trkpt>
      <trkpt lat="45.36415" lon="5.60197">
        <ele>312.6</ele>
        <time>2021-04-23T16:56:16.000Z</time>
      </trkpt>
      <trkpt lat="45.36415" lon="5.60195">
        <ele>313.8</ele>
        <time>2021-04-23T16:56:26.000Z</time>
      </trkpt>
      <trkpt lat="45.36416" lon="5.60197">
        <ele>315.1</ele>
        <time>2021-04-23T16:58:50.000Z</time>
      </trkpt>
      <trkpt lat="45.36416" lon="5.60199">
        <ele>315.6</ele>
        <time>2021-04-23T17:00:54.000Z</time>
      </trkpt>
      <trkpt lat="45.36417" lon="5.60196">
        <ele>311.2</ele>
        <time>2021-04-23T17:01:04.000Z</time>
      </trkpt>
      <trkpt lat="45.36418" lon="5.60196">
        <ele>307.8</ele>
        <time>2021-04-23T17:02:25.000Z</time>
      </trkpt>
      <trkpt lat="45.36421" lon="5.60192">
        <ele>306.2</ele>
        <time>2021-04-23T17:02:35.000Z</time>
      </trkpt>
      <trkpt lat="45.36421" lon="5.60191">
        <ele>306.1</ele>
        <time>2021-04-23T17:03:14.000Z</time>
      </trkpt>
      <trkpt lat="45.3642" lon="5.60192">
        <ele>305.4</ele>
        <time>2021-04-23T17:03:37.000Z</time>
      </trkpt>
      <trkpt lat="45.3642" lon="5.60193">
        <ele>305.1</ele>
        <time>2021-04-23T17:03:47.000Z</time>
      </trkpt>
      <trkpt lat="45.36419" lon="5.60194">
        <ele>306.3</ele>
        <time>2021-04-23T17:04:57.000Z</time>
      </trkpt>
      <trkpt lat="45.36421" lon="5.60192">
        <ele>304.5</ele>
        <time>2021-04-23T17:05:07.000Z</time>
      </trkpt>
      <trkpt lat="45.3642" lon="5.60192">
        <ele>305</ele>
        <time>2021-04-23T17:05:49.000Z</time>
      </trkpt>
      <trkpt lat="45.36419" lon="5.60193">
        <ele>305.6</ele>
        <time>2021-04-23T17:06:37.000Z</time>
      </trkpt>
      <trkpt lat="45.3642" lon="5.60194">
        <ele>303</ele>
        <time>2021-04-23T17:06:52.000Z</time>
      </trkpt>
      <trkpt lat="45.3642" lon="5.60196">
        <ele>302.5</ele>
        <time>2021-04-23T17:07:02.000Z</time>
      </trkpt>
      <trkpt lat="45.36421" lon="5.60195">
        <ele>298.1</ele>
        <time>2021-04-23T17:07:59.000Z</time>
      </trkpt>
      <trkpt lat="45.36423" lon="5.60196">
        <ele>292</ele>
        <time>2021-04-23T17:08:09.000Z</time>
      </trkpt>
      <trkpt lat="45.36422" lon="5.60197">
        <ele>293.7</ele>
        <time>2021-04-23T17:10:06.000Z</time>
      </trkpt>
      <trkpt lat="45.36422" lon="5.60198">
        <ele>295.7</ele>
        <time>2021-04-23T17:10:57.000Z</time>
      </trkpt>
      <trkpt lat="45.36415" lon="5.60211">
        <ele>306.3</ele>
        <time>2021-04-23T17:11:07.000Z</time>
      </trkpt>
      <trkpt lat="45.36414" lon="5.60215">
        <ele>306.4</ele>
        <time>2021-04-23T17:11:17.000Z</time>
      </trkpt>
      <trkpt lat="45.36415" lon="5.60215">
        <ele>303.7</ele>
        <time>2021-04-23T17:13:14.000Z</time>
      </trkpt>
      <trkpt lat="45.36418" lon="5.60215">
        <ele>301.8</ele>
        <time>2021-04-23T17:13:24.000Z</time>
      </trkpt>
      <trkpt lat="45.36416" lon="5.60215">
        <ele>303.5</ele>
        <time>2021-04-23T17:13:34.000Z</time>
      </trkpt>
      <trkpt lat="45.36415" lon="5.60215">
        <ele>303.5</ele>
        <time>2021-04-23T17:13:45.000Z</time>
      </trkpt>
      <trkpt lat="45.36414" lon="5.60213">
        <ele>307.3</ele>
        <time>2021-04-23T17:13:55.000Z</time>
      </trkpt>
      <trkpt lat="45.36413" lon="5.60213">
        <ele>308.9</ele>
        <time>2021-04-23T17:14:05.000Z</time>
      </trkpt>
      <trkpt lat="45.36412" lon="5.60217">
        <ele>308.9</ele>
        <time>2021-04-23T17:14:15.000Z</time>
      </trkpt>
      <trkpt lat="45.36412" lon="5.60216">
        <ele>307.9</ele>
        <time>2021-04-23T17:14:27.000Z</time>
      </trkpt>
      <trkpt lat="45.36414" lon="5.60216">
        <ele>307.1</ele>
        <time>2021-04-23T17:14:37.000Z</time>
      </trkpt>
      <trkpt lat="45.36413" lon="5.60215">
        <ele>308</ele>
        <time>2021-04-23T17:16:59.000Z</time>
      </trkpt>
      <trkpt lat="45.36412" lon="5.60204">
        <ele>309.6</ele>
        <time>2021-04-23T17:17:09.000Z</time>
      </trkpt>
      <trkpt lat="45.36414" lon="5.60193">
        <ele>307.9</ele>
        <time>2021-04-23T17:17:19.000Z</time>
      </trkpt>
      <trkpt lat="45.36415" lon="5.60191">
        <ele>309.8</ele>
        <time>2021-04-23T17:17:29.000Z</time>
      </trkpt>
      <trkpt lat="45.36416" lon="5.60191">
        <ele>309.4</ele>
        <time>2021-04-23T17:17:39.000Z</time>
      </trkpt>
      <trkpt lat="45.36416" lon="5.60192">
        <ele>311.6</ele>
        <time>2021-04-23T17:18:25.000Z</time>
      </trkpt>
      <trkpt lat="45.36417" lon="5.60193">
        <ele>311.8</ele>
        <time>2021-04-23T17:18:35.000Z</time>
      </trkpt>
      <trkpt lat="45.36417" lon="5.60192">
        <ele>312.2</ele>
        <time>2021-04-23T17:22:31.000Z</time>
      </trkpt>
      <trkpt lat="45.36417" lon="5.60189">
        <ele>311.4</ele>
        <time>2021-04-23T17:22:41.000Z</time>
      </trkpt>
      <trkpt lat="45.36417" lon="5.6019">
        <ele>312.2</ele>
        <time>2021-04-23T17:23:06.000Z</time>
      </trkpt>
      <trkpt lat="45.36418" lon="5.60187">
        <ele>307.9</ele>
        <time>2021-04-23T17:23:16.000Z</time>
      </trkpt>
      <trkpt lat="45.36417" lon="5.60189">
        <ele>305.1</ele>
        <time>2021-04-23T17:23:26.000Z</time>
      </trkpt>
      <trkpt lat="45.36416" lon="5.60191">
        <ele>305.4</ele>
        <time>2021-04-23T17:23:36.000Z</time>
      </trkpt>
      <trkpt lat="45.36417" lon="5.60192">
        <ele>303.9</ele>
        <time>2021-04-23T17:23:46.000Z</time>
      </trkpt>
      <trkpt lat="45.36418" lon="5.60193">
        <ele>303.9</ele>
        <time>2021-04-23T17:23:56.000Z</time>
      </trkpt>
      <trkpt lat="45.36417" lon="5.60194">
        <ele>304.9</ele>
        <time>2021-04-23T17:24:13.000Z</time>
      </trkpt>
      <trkpt lat="45.36418" lon="5.60191">
        <ele>305.9</ele>
        <time>2021-04-23T17:26:37.000Z</time>
      </trkpt>
      <trkpt lat="45.36419" lon="5.60183">
        <ele>310</ele>
        <time>2021-04-23T17:26:47.000Z</time>
      </trkpt>
      <trkpt lat="45.36417" lon="5.60183">
        <ele>311.6</ele>
        <time>2021-04-23T17:26:57.000Z</time>
      </trkpt>
      <trkpt lat="45.36417" lon="5.60184">
        <ele>311.8</ele>
        <time>2021-04-23T17:27:34.000Z</time>
      </trkpt>
      <trkpt lat="45.36417" lon="5.60185">
        <ele>310.6</ele>
        <time>2021-04-23T17:27:53.000Z</time>
      </trkpt>
      <trkpt lat="45.36417" lon="5.60187">
        <ele>310.2</ele>
        <time>2021-04-23T17:28:03.000Z</time>
      </trkpt>
      <trkpt lat="45.36417" lon="5.60189">
        <ele>309.8</ele>
        <time>2021-04-23T17:28:35.000Z</time>
      </trkpt>
      <trkpt lat="45.36417" lon="5.60192">
        <ele>309.8</ele>
        <time>2021-04-23T17:28:45.000Z</time>
      </trkpt>
      <trkpt lat="45.36416" lon="5.60194">
        <ele>309.6</ele>
        <time>2021-04-23T17:28:55.000Z</time>
      </trkpt>
      <trkpt lat="45.36415" lon="5.60194">
        <ele>311.5</ele>
        <time>2021-04-23T17:29:41.000Z</time>
      </trkpt>
      <trkpt lat="45.36416" lon="5.60193">
        <ele>309.7</ele>
        <time>2021-04-23T17:29:56.000Z</time>
      </trkpt>
      <trkpt lat="45.36416" lon="5.60191">
        <ele>308.6</ele>
        <time>2021-04-23T17:30:09.000Z</time>
      </trkpt>
      <trkpt lat="45.36416" lon="5.6019">
        <ele>308.6</ele>
        <time>2021-04-23T17:30:19.000Z</time>
      </trkpt>
      <trkpt lat="45.36417" lon="5.60189">
        <ele>309.8</ele>
        <time>2021-04-23T17:31:12.000Z</time>
      </trkpt>
      <trkpt lat="45.36418" lon="5.6019">
        <ele>308.4</ele>
        <time>2021-04-23T17:32:01.000Z</time>
      </trkpt>
      <trkpt lat="45.36417" lon="5.60192">
        <ele>309.3</ele>
        <time>2021-04-23T17:32:11.000Z</time>
      </trkpt>
      <trkpt lat="45.36417" lon="5.60191">
        <ele>308.4</ele>
        <time>2021-04-23T17:33:55.000Z</time>
      </trkpt>
      <trkpt lat="45.36419" lon="5.60191">
        <ele>307.6</ele>
        <time>2021-04-23T17:34:05.000Z</time>
      </trkpt>
      <trkpt lat="45.3642" lon="5.6019">
        <ele>304.7</ele>
        <time>2021-04-23T17:34:15.000Z</time>
      </trkpt>
      <trkpt lat="45.36421" lon="5.60189">
        <ele>299.5</ele>
        <time>2021-04-23T17:34:54.000Z</time>
      </trkpt>
      <trkpt lat="45.36422" lon="5.6019">
        <ele>301.7</ele>
        <time>2021-04-23T17:35:20.000Z</time>
      </trkpt>
      <trkpt lat="45.36423" lon="5.60191">
        <ele>297.4</ele>
        <time>2021-04-23T17:35:30.000Z</time>
      </trkpt>
      <trkpt lat="45.36422" lon="5.6019">
        <ele>297.9</ele>
        <time>2021-04-23T17:36:27.000Z</time>
      </trkpt>
      <trkpt lat="45.36421" lon="5.60191">
        <ele>299.1</ele>
        <time>2021-04-23T17:36:37.000Z</time>
      </trkpt>
      <trkpt lat="45.3642" lon="5.60192">
        <ele>301.4</ele>
        <time>2021-04-23T17:36:57.000Z</time>
      </trkpt>
      <trkpt lat="45.3642" lon="5.60195">
        <ele>302.7</ele>
        <time>2021-04-23T17:37:07.000Z</time>
      </trkpt>
      <trkpt lat="45.3642" lon="5.60196">
        <ele>304</ele>
        <time>2021-04-23T17:37:26.000Z</time>
      </trkpt>
      <trkpt lat="45.36419" lon="5.60197">
        <ele>306.2</ele>
        <time>2021-04-23T17:37:58.000Z</time>
      </trkpt>
      <trkpt lat="45.36419" lon="5.60199">
        <ele>307.1</ele>
        <time>2021-04-23T17:38:08.000Z</time>
      </trkpt>
      <trkpt lat="45.36418" lon="5.60199">
        <ele>306.9</ele>
        <time>2021-04-23T17:40:51.000Z</time>
      </trkpt>
      <trkpt lat="45.36418" lon="5.60198">
        <ele>307.3</ele>
        <time>2021-04-23T17:41:18.000Z</time>
      </trkpt>
      <trkpt lat="45.36417" lon="5.60199">
        <ele>307.7</ele>
        <time>2021-04-23T17:44:17.000Z</time>
      </trkpt>
      <trkpt lat="45.36417" lon="5.60199">
        <ele>309.1</ele>
        <time>2021-04-23T17:45:27.000Z</time>
      </trkpt>
      <trkpt lat="45.36417" lon="5.602">
        <ele>309.2</ele>
        <time>2021-04-23T17:45:43.000Z</time>
      </trkpt>
      <trkpt lat="45.36418" lon="5.602">
        <ele>311.5</ele>
        <time>2021-04-23T17:49:10.000Z</time>
      </trkpt>
      <trkpt lat="45.36419" lon="5.602">
        <ele>312.2</ele>
        <time>2021-04-23T17:51:36.000Z</time>
      </trkpt>
      <trkpt lat="45.36418" lon="5.60201">
        <ele>313.9</ele>
        <time>2021-04-23T17:51:50.000Z</time>
      </trkpt>
      <trkpt lat="45.36417" lon="5.60201">
        <ele>314.4</ele>
        <time>2021-04-23T17:51:55.000Z</time>
      </trkpt>
    </trkseg>
  </trk>
</gpx>